<?xml version="1.0" encoding="UTF-8" standalone="no" ?>
<gpx xmlns="http://www.topografix.com/GPX/1/1" xmlns:xsi="http://www.w3.org/2001/XMLSchema-instance" xsi:schemaLocation="http://www.topografix.com/GPX/1/1 http://www.topografix.com/GPX/1/1/gpx.xsd" version="1.1" creator="VisuGPX - https://www.visugpx.com">
  <metadata>
    <name>Loisirs &amp;amp; Découvertes à Corgnac sur L'isle</name>
    <desc><![CDATA[Après une balade en vélo-rail. Randonnée pédestre accessible à tous mais un peu fatiguante après le vélo-rail]]></desc>
  </metadata>
  <trk>
    <name><![CDATA[Tracé 4 juil. 2016 09:10:55 Corgnac celles]]></name>
    <trkseg>
      <trkpt lat="45.37652" lon="0.9483">
        <ele>114</ele>
        <time>2016-07-04T07:10:55Z</time>
      </trkpt>
      <trkpt lat="45.3765" lon="0.94826">
        <ele>118</ele>
        <time>2016-07-04T07:12:57Z</time>
      </trkpt>
      <trkpt lat="45.37642" lon="0.94824">
        <ele>119</ele>
        <time>2016-07-04T07:13:02Z</time>
      </trkpt>
      <trkpt lat="45.37638" lon="0.94823">
        <ele>120</ele>
        <time>2016-07-04T07:13:22Z</time>
      </trkpt>
      <trkpt lat="45.37614" lon="0.94822">
        <ele>122</ele>
        <time>2016-07-04T07:13:26Z</time>
      </trkpt>
      <trkpt lat="45.37608" lon="0.94819">
        <ele>127</ele>
        <time>2016-07-04T07:13:30Z</time>
      </trkpt>
      <trkpt lat="45.37605" lon="0.94814">
        <ele>125</ele>
        <time>2016-07-04T07:13:35Z</time>
      </trkpt>
      <trkpt lat="45.37612" lon="0.94803">
        <ele>118</ele>
        <time>2016-07-04T07:13:39Z</time>
      </trkpt>
      <trkpt lat="45.37611" lon="0.948">
        <ele>118</ele>
        <time>2016-07-04T07:14:00Z</time>
      </trkpt>
      <trkpt lat="45.37605" lon="0.9479">
        <ele>122</ele>
        <time>2016-07-04T07:14:05Z</time>
      </trkpt>
      <trkpt lat="45.376" lon="0.94781">
        <ele>122</ele>
        <time>2016-07-04T07:14:09Z</time>
      </trkpt>
      <trkpt lat="45.37596" lon="0.94777">
        <ele>123</ele>
        <time>2016-07-04T07:14:13Z</time>
      </trkpt>
      <trkpt lat="45.37596" lon="0.94759">
        <ele>122</ele>
        <time>2016-07-04T07:14:18Z</time>
      </trkpt>
      <trkpt lat="45.37593" lon="0.94751">
        <ele>119</ele>
        <time>2016-07-04T07:14:23Z</time>
      </trkpt>
      <trkpt lat="45.37589" lon="0.94743">
        <ele>120</ele>
        <time>2016-07-04T07:14:27Z</time>
      </trkpt>
      <trkpt lat="45.37588" lon="0.94742">
        <ele>120</ele>
        <time>2016-07-04T07:14:33Z</time>
      </trkpt>
      <trkpt lat="45.37586" lon="0.94736">
        <ele>124</ele>
        <time>2016-07-04T07:14:38Z</time>
      </trkpt>
      <trkpt lat="45.37585" lon="0.94727">
        <ele>122</ele>
        <time>2016-07-04T07:14:42Z</time>
      </trkpt>
      <trkpt lat="45.37587" lon="0.94721">
        <ele>122</ele>
        <time>2016-07-04T07:14:46Z</time>
      </trkpt>
      <trkpt lat="45.37591" lon="0.94714">
        <ele>117</ele>
        <time>2016-07-04T07:14:50Z</time>
      </trkpt>
      <trkpt lat="45.3759" lon="0.94707">
        <ele>118</ele>
        <time>2016-07-04T07:14:54Z</time>
      </trkpt>
      <trkpt lat="45.37584" lon="0.94697">
        <ele>120</ele>
        <time>2016-07-04T07:14:59Z</time>
      </trkpt>
      <trkpt lat="45.37582" lon="0.94692">
        <ele>122</ele>
        <time>2016-07-04T07:15:03Z</time>
      </trkpt>
      <trkpt lat="45.37583" lon="0.94684">
        <ele>124</ele>
        <time>2016-07-04T07:15:07Z</time>
      </trkpt>
      <trkpt lat="45.37582" lon="0.94677">
        <ele>126</ele>
        <time>2016-07-04T07:15:11Z</time>
      </trkpt>
      <trkpt lat="45.3758" lon="0.94666">
        <ele>126</ele>
        <time>2016-07-04T07:15:16Z</time>
      </trkpt>
      <trkpt lat="45.37576" lon="0.94658">
        <ele>125</ele>
        <time>2016-07-04T07:15:20Z</time>
      </trkpt>
      <trkpt lat="45.37571" lon="0.94651">
        <ele>126</ele>
        <time>2016-07-04T07:15:24Z</time>
      </trkpt>
      <trkpt lat="45.37571" lon="0.94644">
        <ele>128</ele>
        <time>2016-07-04T07:15:28Z</time>
      </trkpt>
      <trkpt lat="45.37571" lon="0.94633">
        <ele>127</ele>
        <time>2016-07-04T07:15:33Z</time>
      </trkpt>
      <trkpt lat="45.37567" lon="0.94628">
        <ele>129</ele>
        <time>2016-07-04T07:15:37Z</time>
      </trkpt>
      <trkpt lat="45.37564" lon="0.94623">
        <ele>125</ele>
        <time>2016-07-04T07:15:42Z</time>
      </trkpt>
      <trkpt lat="45.37562" lon="0.94618">
        <ele>123</ele>
        <time>2016-07-04T07:15:47Z</time>
      </trkpt>
      <trkpt lat="45.37561" lon="0.94609">
        <ele>124</ele>
        <time>2016-07-04T07:15:52Z</time>
      </trkpt>
      <trkpt lat="45.37561" lon="0.94603">
        <ele>126</ele>
        <time>2016-07-04T07:15:57Z</time>
      </trkpt>
      <trkpt lat="45.37564" lon="0.94598">
        <ele>124</ele>
        <time>2016-07-04T07:16:03Z</time>
      </trkpt>
      <trkpt lat="45.37567" lon="0.94594">
        <ele>125</ele>
        <time>2016-07-04T07:16:10Z</time>
      </trkpt>
      <trkpt lat="45.3757" lon="0.94591">
        <ele>129</ele>
        <time>2016-07-04T07:16:15Z</time>
      </trkpt>
      <trkpt lat="45.37572" lon="0.94588">
        <ele>131</ele>
        <time>2016-07-04T07:16:19Z</time>
      </trkpt>
      <trkpt lat="45.37578" lon="0.94585">
        <ele>130</ele>
        <time>2016-07-04T07:16:23Z</time>
      </trkpt>
      <trkpt lat="45.37581" lon="0.9458">
        <ele>127</ele>
        <time>2016-07-04T07:16:27Z</time>
      </trkpt>
      <trkpt lat="45.37585" lon="0.94574">
        <ele>124</ele>
        <time>2016-07-04T07:16:31Z</time>
      </trkpt>
      <trkpt lat="45.37592" lon="0.94574">
        <ele>126</ele>
        <time>2016-07-04T07:16:36Z</time>
      </trkpt>
      <trkpt lat="45.37593" lon="0.94565">
        <ele>128</ele>
        <time>2016-07-04T07:16:40Z</time>
      </trkpt>
      <trkpt lat="45.37599" lon="0.9456">
        <ele>127</ele>
        <time>2016-07-04T07:16:45Z</time>
      </trkpt>
      <trkpt lat="45.37603" lon="0.94557">
        <ele>127</ele>
        <time>2016-07-04T07:16:49Z</time>
      </trkpt>
      <trkpt lat="45.37611" lon="0.94555">
        <ele>130</ele>
        <time>2016-07-04T07:16:54Z</time>
      </trkpt>
      <trkpt lat="45.37615" lon="0.9455">
        <ele>133</ele>
        <time>2016-07-04T07:16:58Z</time>
      </trkpt>
      <trkpt lat="45.37619" lon="0.94545">
        <ele>136</ele>
        <time>2016-07-04T07:17:02Z</time>
      </trkpt>
      <trkpt lat="45.37622" lon="0.94535">
        <ele>134</ele>
        <time>2016-07-04T07:17:06Z</time>
      </trkpt>
      <trkpt lat="45.37626" lon="0.94532">
        <ele>138</ele>
        <time>2016-07-04T07:17:10Z</time>
      </trkpt>
      <trkpt lat="45.3763" lon="0.94531">
        <ele>139</ele>
        <time>2016-07-04T07:17:14Z</time>
      </trkpt>
      <trkpt lat="45.37634" lon="0.94529">
        <ele>143</ele>
        <time>2016-07-04T07:17:21Z</time>
      </trkpt>
      <trkpt lat="45.37638" lon="0.94518">
        <ele>143</ele>
        <time>2016-07-04T07:17:25Z</time>
      </trkpt>
      <trkpt lat="45.37643" lon="0.94513">
        <ele>142</ele>
        <time>2016-07-04T07:17:30Z</time>
      </trkpt>
      <trkpt lat="45.37651" lon="0.94505">
        <ele>145</ele>
        <time>2016-07-04T07:17:35Z</time>
      </trkpt>
      <trkpt lat="45.37656" lon="0.94503">
        <ele>146</ele>
        <time>2016-07-04T07:17:39Z</time>
      </trkpt>
      <trkpt lat="45.37661" lon="0.94498">
        <ele>145</ele>
        <time>2016-07-04T07:17:43Z</time>
      </trkpt>
      <trkpt lat="45.37666" lon="0.94495">
        <ele>146</ele>
        <time>2016-07-04T07:17:48Z</time>
      </trkpt>
      <trkpt lat="45.37669" lon="0.94492">
        <ele>145</ele>
        <time>2016-07-04T07:17:52Z</time>
      </trkpt>
      <trkpt lat="45.37675" lon="0.94484">
        <ele>144</ele>
        <time>2016-07-04T07:17:56Z</time>
      </trkpt>
      <trkpt lat="45.37679" lon="0.94481">
        <ele>146</ele>
        <time>2016-07-04T07:18:01Z</time>
      </trkpt>
      <trkpt lat="45.37683" lon="0.94478">
        <ele>147</ele>
        <time>2016-07-04T07:18:05Z</time>
      </trkpt>
      <trkpt lat="45.37689" lon="0.94469">
        <ele>148</ele>
        <time>2016-07-04T07:18:10Z</time>
      </trkpt>
      <trkpt lat="45.37695" lon="0.94462">
        <ele>146</ele>
        <time>2016-07-04T07:18:14Z</time>
      </trkpt>
      <trkpt lat="45.37699" lon="0.94457">
        <ele>144</ele>
        <time>2016-07-04T07:18:18Z</time>
      </trkpt>
      <trkpt lat="45.37704" lon="0.94447">
        <ele>148</ele>
        <time>2016-07-04T07:18:23Z</time>
      </trkpt>
      <trkpt lat="45.3771" lon="0.94442">
        <ele>146</ele>
        <time>2016-07-04T07:18:27Z</time>
      </trkpt>
      <trkpt lat="45.37715" lon="0.94434">
        <ele>145</ele>
        <time>2016-07-04T07:18:31Z</time>
      </trkpt>
      <trkpt lat="45.3772" lon="0.94428">
        <ele>143</ele>
        <time>2016-07-04T07:18:35Z</time>
      </trkpt>
      <trkpt lat="45.37725" lon="0.94424">
        <ele>143</ele>
        <time>2016-07-04T07:18:39Z</time>
      </trkpt>
      <trkpt lat="45.3773" lon="0.94418">
        <ele>141</ele>
        <time>2016-07-04T07:18:44Z</time>
      </trkpt>
      <trkpt lat="45.37736" lon="0.94411">
        <ele>140</ele>
        <time>2016-07-04T07:18:49Z</time>
      </trkpt>
      <trkpt lat="45.3774" lon="0.94406">
        <ele>138</ele>
        <time>2016-07-04T07:18:53Z</time>
      </trkpt>
      <trkpt lat="45.37744" lon="0.944">
        <ele>137</ele>
        <time>2016-07-04T07:18:57Z</time>
      </trkpt>
      <trkpt lat="45.3775" lon="0.94394">
        <ele>138</ele>
        <time>2016-07-04T07:19:02Z</time>
      </trkpt>
      <trkpt lat="45.37754" lon="0.94386">
        <ele>138</ele>
        <time>2016-07-04T07:19:07Z</time>
      </trkpt>
      <trkpt lat="45.37758" lon="0.94381">
        <ele>140</ele>
        <time>2016-07-04T07:19:11Z</time>
      </trkpt>
      <trkpt lat="45.37762" lon="0.94376">
        <ele>141</ele>
        <time>2016-07-04T07:19:15Z</time>
      </trkpt>
      <trkpt lat="45.37766" lon="0.94371">
        <ele>142</ele>
        <time>2016-07-04T07:19:19Z</time>
      </trkpt>
      <trkpt lat="45.37769" lon="0.94366">
        <ele>144</ele>
        <time>2016-07-04T07:19:23Z</time>
      </trkpt>
      <trkpt lat="45.37772" lon="0.94359">
        <ele>143</ele>
        <time>2016-07-04T07:19:27Z</time>
      </trkpt>
      <trkpt lat="45.37776" lon="0.94352">
        <ele>144</ele>
        <time>2016-07-04T07:19:32Z</time>
      </trkpt>
      <trkpt lat="45.37779" lon="0.94345">
        <ele>144</ele>
        <time>2016-07-04T07:19:37Z</time>
      </trkpt>
      <trkpt lat="45.37782" lon="0.94336">
        <ele>143</ele>
        <time>2016-07-04T07:19:41Z</time>
      </trkpt>
      <trkpt lat="45.37785" lon="0.9433">
        <ele>145</ele>
        <time>2016-07-04T07:19:45Z</time>
      </trkpt>
      <trkpt lat="45.37787" lon="0.94322">
        <ele>146</ele>
        <time>2016-07-04T07:19:49Z</time>
      </trkpt>
      <trkpt lat="45.37789" lon="0.94315">
        <ele>147</ele>
        <time>2016-07-04T07:19:53Z</time>
      </trkpt>
      <trkpt lat="45.3779" lon="0.94307">
        <ele>147</ele>
        <time>2016-07-04T07:19:58Z</time>
      </trkpt>
      <trkpt lat="45.37791" lon="0.943">
        <ele>145</ele>
        <time>2016-07-04T07:20:02Z</time>
      </trkpt>
      <trkpt lat="45.37794" lon="0.94291">
        <ele>148</ele>
        <time>2016-07-04T07:20:07Z</time>
      </trkpt>
      <trkpt lat="45.37795" lon="0.94283">
        <ele>149</ele>
        <time>2016-07-04T07:20:11Z</time>
      </trkpt>
      <trkpt lat="45.37797" lon="0.94276">
        <ele>151</ele>
        <time>2016-07-04T07:20:15Z</time>
      </trkpt>
      <trkpt lat="45.37798" lon="0.94266">
        <ele>148</ele>
        <time>2016-07-04T07:20:20Z</time>
      </trkpt>
      <trkpt lat="45.378" lon="0.9426">
        <ele>148</ele>
        <time>2016-07-04T07:20:25Z</time>
      </trkpt>
      <trkpt lat="45.37803" lon="0.94257">
        <ele>150</ele>
        <time>2016-07-04T07:20:30Z</time>
      </trkpt>
      <trkpt lat="45.37808" lon="0.94248">
        <ele>152</ele>
        <time>2016-07-04T07:20:35Z</time>
      </trkpt>
      <trkpt lat="45.37814" lon="0.94243">
        <ele>157</ele>
        <time>2016-07-04T07:20:40Z</time>
      </trkpt>
      <trkpt lat="45.37816" lon="0.9424">
        <ele>157</ele>
        <time>2016-07-04T07:20:44Z</time>
      </trkpt>
      <trkpt lat="45.37819" lon="0.94232">
        <ele>153</ele>
        <time>2016-07-04T07:20:48Z</time>
      </trkpt>
      <trkpt lat="45.37823" lon="0.94227">
        <ele>153</ele>
        <time>2016-07-04T07:20:52Z</time>
      </trkpt>
      <trkpt lat="45.37825" lon="0.94221">
        <ele>152</ele>
        <time>2016-07-04T07:20:56Z</time>
      </trkpt>
      <trkpt lat="45.37826" lon="0.94216">
        <ele>152</ele>
        <time>2016-07-04T07:21:00Z</time>
      </trkpt>
      <trkpt lat="45.37829" lon="0.94209">
        <ele>153</ele>
        <time>2016-07-04T07:21:04Z</time>
      </trkpt>
      <trkpt lat="45.37832" lon="0.942">
        <ele>153</ele>
        <time>2016-07-04T07:21:09Z</time>
      </trkpt>
      <trkpt lat="45.37833" lon="0.9419">
        <ele>156</ele>
        <time>2016-07-04T07:21:14Z</time>
      </trkpt>
      <trkpt lat="45.37835" lon="0.94184">
        <ele>158</ele>
        <time>2016-07-04T07:21:18Z</time>
      </trkpt>
      <trkpt lat="45.37837" lon="0.94176">
        <ele>158</ele>
        <time>2016-07-04T07:21:23Z</time>
      </trkpt>
      <trkpt lat="45.37841" lon="0.94172">
        <ele>158</ele>
        <time>2016-07-04T07:21:28Z</time>
      </trkpt>
      <trkpt lat="45.37843" lon="0.94167">
        <ele>158</ele>
        <time>2016-07-04T07:21:33Z</time>
      </trkpt>
      <trkpt lat="45.37842" lon="0.94155">
        <ele>156</ele>
        <time>2016-07-04T07:21:37Z</time>
      </trkpt>
      <trkpt lat="45.37844" lon="0.94144">
        <ele>155</ele>
        <time>2016-07-04T07:21:42Z</time>
      </trkpt>
      <trkpt lat="45.37843" lon="0.94133">
        <ele>154</ele>
        <time>2016-07-04T07:21:46Z</time>
      </trkpt>
      <trkpt lat="45.37841" lon="0.94129">
        <ele>157</ele>
        <time>2016-07-04T07:21:50Z</time>
      </trkpt>
      <trkpt lat="45.37845" lon="0.94118">
        <ele>160</ele>
        <time>2016-07-04T07:21:55Z</time>
      </trkpt>
      <trkpt lat="45.37847" lon="0.94113">
        <ele>165</ele>
        <time>2016-07-04T07:22:02Z</time>
      </trkpt>
      <trkpt lat="45.37843" lon="0.94098">
        <ele>158</ele>
        <time>2016-07-04T07:22:06Z</time>
      </trkpt>
      <trkpt lat="45.37842" lon="0.94092">
        <ele>161</ele>
        <time>2016-07-04T07:22:13Z</time>
      </trkpt>
      <trkpt lat="45.37843" lon="0.94087">
        <ele>161</ele>
        <time>2016-07-04T07:22:21Z</time>
      </trkpt>
      <trkpt lat="45.37843" lon="0.94074">
        <ele>161</ele>
        <time>2016-07-04T07:22:25Z</time>
      </trkpt>
      <trkpt lat="45.37839" lon="0.94059">
        <ele>156</ele>
        <time>2016-07-04T07:22:30Z</time>
      </trkpt>
      <trkpt lat="45.37839" lon="0.94052">
        <ele>159</ele>
        <time>2016-07-04T07:22:35Z</time>
      </trkpt>
      <trkpt lat="45.37841" lon="0.94044">
        <ele>161</ele>
        <time>2016-07-04T07:22:39Z</time>
      </trkpt>
      <trkpt lat="45.37843" lon="0.94036">
        <ele>161</ele>
        <time>2016-07-04T07:22:43Z</time>
      </trkpt>
      <trkpt lat="45.37839" lon="0.94024">
        <ele>157</ele>
        <time>2016-07-04T07:22:48Z</time>
      </trkpt>
      <trkpt lat="45.37839" lon="0.94016">
        <ele>160</ele>
        <time>2016-07-04T07:22:53Z</time>
      </trkpt>
      <trkpt lat="45.37841" lon="0.94011">
        <ele>163</ele>
        <time>2016-07-04T07:22:57Z</time>
      </trkpt>
      <trkpt lat="45.37842" lon="0.94003">
        <ele>163</ele>
        <time>2016-07-04T07:23:01Z</time>
      </trkpt>
      <trkpt lat="45.37845" lon="0.93993">
        <ele>158</ele>
        <time>2016-07-04T07:23:05Z</time>
      </trkpt>
      <trkpt lat="45.37847" lon="0.93983">
        <ele>160</ele>
        <time>2016-07-04T07:23:09Z</time>
      </trkpt>
      <trkpt lat="45.3785" lon="0.93975">
        <ele>161</ele>
        <time>2016-07-04T07:23:13Z</time>
      </trkpt>
      <trkpt lat="45.37853" lon="0.93968">
        <ele>162</ele>
        <time>2016-07-04T07:23:17Z</time>
      </trkpt>
      <trkpt lat="45.37854" lon="0.9396">
        <ele>163</ele>
        <time>2016-07-04T07:23:22Z</time>
      </trkpt>
      <trkpt lat="45.37855" lon="0.93955">
        <ele>164</ele>
        <time>2016-07-04T07:23:26Z</time>
      </trkpt>
      <trkpt lat="45.37857" lon="0.9395">
        <ele>164</ele>
        <time>2016-07-04T07:23:30Z</time>
      </trkpt>
      <trkpt lat="45.3786" lon="0.93939">
        <ele>163</ele>
        <time>2016-07-04T07:23:34Z</time>
      </trkpt>
      <trkpt lat="45.37864" lon="0.9393">
        <ele>167</ele>
        <time>2016-07-04T07:23:39Z</time>
      </trkpt>
      <trkpt lat="45.37864" lon="0.93923">
        <ele>168</ele>
        <time>2016-07-04T07:23:43Z</time>
      </trkpt>
      <trkpt lat="45.37866" lon="0.93916">
        <ele>170</ele>
        <time>2016-07-04T07:23:47Z</time>
      </trkpt>
      <trkpt lat="45.37867" lon="0.93909">
        <ele>169</ele>
        <time>2016-07-04T07:23:52Z</time>
      </trkpt>
      <trkpt lat="45.37872" lon="0.93908">
        <ele>175</ele>
        <time>2016-07-04T07:23:57Z</time>
      </trkpt>
      <trkpt lat="45.37869" lon="0.93892">
        <ele>169</ele>
        <time>2016-07-04T07:24:01Z</time>
      </trkpt>
      <trkpt lat="45.37871" lon="0.93887">
        <ele>172</ele>
        <time>2016-07-04T07:24:05Z</time>
      </trkpt>
      <trkpt lat="45.37875" lon="0.93884">
        <ele>174</ele>
        <time>2016-07-04T07:24:10Z</time>
      </trkpt>
      <trkpt lat="45.37878" lon="0.93874">
        <ele>176</ele>
        <time>2016-07-04T07:24:14Z</time>
      </trkpt>
      <trkpt lat="45.3788" lon="0.93867">
        <ele>178</ele>
        <time>2016-07-04T07:24:19Z</time>
      </trkpt>
      <trkpt lat="45.3788" lon="0.9386">
        <ele>178</ele>
        <time>2016-07-04T07:24:23Z</time>
      </trkpt>
      <trkpt lat="45.37883" lon="0.93856">
        <ele>180</ele>
        <time>2016-07-04T07:24:27Z</time>
      </trkpt>
      <trkpt lat="45.37887" lon="0.93845">
        <ele>182</ele>
        <time>2016-07-04T07:24:32Z</time>
      </trkpt>
      <trkpt lat="45.37887" lon="0.93836">
        <ele>182</ele>
        <time>2016-07-04T07:24:36Z</time>
      </trkpt>
      <trkpt lat="45.37888" lon="0.93828">
        <ele>182</ele>
        <time>2016-07-04T07:24:40Z</time>
      </trkpt>
      <trkpt lat="45.37889" lon="0.93822">
        <ele>182</ele>
        <time>2016-07-04T07:24:45Z</time>
      </trkpt>
      <trkpt lat="45.37889" lon="0.93813">
        <ele>178</ele>
        <time>2016-07-04T07:24:49Z</time>
      </trkpt>
      <trkpt lat="45.3789" lon="0.93809">
        <ele>178</ele>
        <time>2016-07-04T07:24:54Z</time>
      </trkpt>
      <trkpt lat="45.37891" lon="0.93798">
        <ele>182</ele>
        <time>2016-07-04T07:24:59Z</time>
      </trkpt>
      <trkpt lat="45.37891" lon="0.93789">
        <ele>180</ele>
        <time>2016-07-04T07:25:03Z</time>
      </trkpt>
      <trkpt lat="45.37892" lon="0.93784">
        <ele>181</ele>
        <time>2016-07-04T07:25:07Z</time>
      </trkpt>
      <trkpt lat="45.37894" lon="0.93776">
        <ele>182</ele>
        <time>2016-07-04T07:25:11Z</time>
      </trkpt>
      <trkpt lat="45.37895" lon="0.93769">
        <ele>184</ele>
        <time>2016-07-04T07:25:15Z</time>
      </trkpt>
      <trkpt lat="45.37897" lon="0.93763">
        <ele>186</ele>
        <time>2016-07-04T07:25:19Z</time>
      </trkpt>
      <trkpt lat="45.37898" lon="0.93755">
        <ele>187</ele>
        <time>2016-07-04T07:25:23Z</time>
      </trkpt>
      <trkpt lat="45.37899" lon="0.93748">
        <ele>188</ele>
        <time>2016-07-04T07:25:27Z</time>
      </trkpt>
      <trkpt lat="45.37899" lon="0.93743">
        <ele>187</ele>
        <time>2016-07-04T07:25:31Z</time>
      </trkpt>
      <trkpt lat="45.379" lon="0.93733">
        <ele>188</ele>
        <time>2016-07-04T07:25:35Z</time>
      </trkpt>
      <trkpt lat="45.37901" lon="0.93723">
        <ele>188</ele>
        <time>2016-07-04T07:25:40Z</time>
      </trkpt>
      <trkpt lat="45.37904" lon="0.93712">
        <ele>189</ele>
        <time>2016-07-04T07:25:45Z</time>
      </trkpt>
      <trkpt lat="45.37902" lon="0.93706">
        <ele>188</ele>
        <time>2016-07-04T07:25:49Z</time>
      </trkpt>
      <trkpt lat="45.37902" lon="0.93695">
        <ele>183</ele>
        <time>2016-07-04T07:25:53Z</time>
      </trkpt>
      <trkpt lat="45.37903" lon="0.93684">
        <ele>180</ele>
        <time>2016-07-04T07:25:58Z</time>
      </trkpt>
      <trkpt lat="45.37904" lon="0.93675">
        <ele>178</ele>
        <time>2016-07-04T07:26:02Z</time>
      </trkpt>
      <trkpt lat="45.37904" lon="0.93661">
        <ele>174</ele>
        <time>2016-07-04T07:26:07Z</time>
      </trkpt>
      <trkpt lat="45.37903" lon="0.93653">
        <ele>175</ele>
        <time>2016-07-04T07:26:11Z</time>
      </trkpt>
      <trkpt lat="45.37903" lon="0.93649">
        <ele>177</ele>
        <time>2016-07-04T07:26:16Z</time>
      </trkpt>
      <trkpt lat="45.37902" lon="0.9364">
        <ele>178</ele>
        <time>2016-07-04T07:26:20Z</time>
      </trkpt>
      <trkpt lat="45.37901" lon="0.93627">
        <ele>175</ele>
        <time>2016-07-04T07:26:24Z</time>
      </trkpt>
      <trkpt lat="45.379" lon="0.93621">
        <ele>172</ele>
        <time>2016-07-04T07:26:30Z</time>
      </trkpt>
      <trkpt lat="45.37903" lon="0.93613">
        <ele>174</ele>
        <time>2016-07-04T07:26:35Z</time>
      </trkpt>
      <trkpt lat="45.37907" lon="0.93608">
        <ele>176</ele>
        <time>2016-07-04T07:26:39Z</time>
      </trkpt>
      <trkpt lat="45.37911" lon="0.93606">
        <ele>180</ele>
        <time>2016-07-04T07:26:50Z</time>
      </trkpt>
      <trkpt lat="45.37909" lon="0.93591">
        <ele>181</ele>
        <time>2016-07-04T07:26:55Z</time>
      </trkpt>
      <trkpt lat="45.37905" lon="0.9358">
        <ele>176</ele>
        <time>2016-07-04T07:27:00Z</time>
      </trkpt>
      <trkpt lat="45.37904" lon="0.93574">
        <ele>177</ele>
        <time>2016-07-04T07:27:06Z</time>
      </trkpt>
      <trkpt lat="45.37904" lon="0.93566">
        <ele>177</ele>
        <time>2016-07-04T07:27:10Z</time>
      </trkpt>
      <trkpt lat="45.37905" lon="0.93561">
        <ele>177</ele>
        <time>2016-07-04T07:27:15Z</time>
      </trkpt>
      <trkpt lat="45.37905" lon="0.9355">
        <ele>176</ele>
        <time>2016-07-04T07:27:20Z</time>
      </trkpt>
      <trkpt lat="45.37906" lon="0.93542">
        <ele>178</ele>
        <time>2016-07-04T07:27:24Z</time>
      </trkpt>
      <trkpt lat="45.37905" lon="0.93532">
        <ele>179</ele>
        <time>2016-07-04T07:27:29Z</time>
      </trkpt>
      <trkpt lat="45.37902" lon="0.93521">
        <ele>177</ele>
        <time>2016-07-04T07:27:33Z</time>
      </trkpt>
      <trkpt lat="45.37898" lon="0.9351">
        <ele>173</ele>
        <time>2016-07-04T07:27:37Z</time>
      </trkpt>
      <trkpt lat="45.37894" lon="0.93502">
        <ele>172</ele>
        <time>2016-07-04T07:27:41Z</time>
      </trkpt>
      <trkpt lat="45.37892" lon="0.93495">
        <ele>174</ele>
        <time>2016-07-04T07:27:45Z</time>
      </trkpt>
      <trkpt lat="45.37887" lon="0.93484">
        <ele>171</ele>
        <time>2016-07-04T07:27:50Z</time>
      </trkpt>
      <trkpt lat="45.3788" lon="0.93475">
        <ele>170</ele>
        <time>2016-07-04T07:27:55Z</time>
      </trkpt>
      <trkpt lat="45.37876" lon="0.93469">
        <ele>170</ele>
        <time>2016-07-04T07:27:59Z</time>
      </trkpt>
      <trkpt lat="45.37872" lon="0.93466">
        <ele>170</ele>
        <time>2016-07-04T07:28:03Z</time>
      </trkpt>
      <trkpt lat="45.37865" lon="0.93463">
        <ele>169</ele>
        <time>2016-07-04T07:28:07Z</time>
      </trkpt>
      <trkpt lat="45.37859" lon="0.93458">
        <ele>168</ele>
        <time>2016-07-04T07:28:12Z</time>
      </trkpt>
      <trkpt lat="45.37854" lon="0.93458">
        <ele>169</ele>
        <time>2016-07-04T07:28:16Z</time>
      </trkpt>
      <trkpt lat="45.37847" lon="0.93456">
        <ele>170</ele>
        <time>2016-07-04T07:28:21Z</time>
      </trkpt>
      <trkpt lat="45.37841" lon="0.93452">
        <ele>173</ele>
        <time>2016-07-04T07:28:26Z</time>
      </trkpt>
      <trkpt lat="45.37836" lon="0.9345">
        <ele>174</ele>
        <time>2016-07-04T07:28:30Z</time>
      </trkpt>
      <trkpt lat="45.3783" lon="0.93448">
        <ele>176</ele>
        <time>2016-07-04T07:28:35Z</time>
      </trkpt>
      <trkpt lat="45.37825" lon="0.93447">
        <ele>176</ele>
        <time>2016-07-04T07:28:39Z</time>
      </trkpt>
      <trkpt lat="45.37821" lon="0.93444">
        <ele>178</ele>
        <time>2016-07-04T07:28:43Z</time>
      </trkpt>
      <trkpt lat="45.37818" lon="0.93441">
        <ele>181</ele>
        <time>2016-07-04T07:28:48Z</time>
      </trkpt>
      <trkpt lat="45.37809" lon="0.93441">
        <ele>180</ele>
        <time>2016-07-04T07:28:53Z</time>
      </trkpt>
      <trkpt lat="45.37802" lon="0.9344">
        <ele>179</ele>
        <time>2016-07-04T07:28:57Z</time>
      </trkpt>
      <trkpt lat="45.37795" lon="0.93438">
        <ele>179</ele>
        <time>2016-07-04T07:29:02Z</time>
      </trkpt>
      <trkpt lat="45.37786" lon="0.93439">
        <ele>178</ele>
        <time>2016-07-04T07:29:07Z</time>
      </trkpt>
      <trkpt lat="45.37781" lon="0.93439">
        <ele>178</ele>
        <time>2016-07-04T07:29:11Z</time>
      </trkpt>
      <trkpt lat="45.37775" lon="0.93441">
        <ele>178</ele>
        <time>2016-07-04T07:29:15Z</time>
      </trkpt>
      <trkpt lat="45.37769" lon="0.93442">
        <ele>178</ele>
        <time>2016-07-04T07:29:20Z</time>
      </trkpt>
      <trkpt lat="45.37766" lon="0.93442">
        <ele>181</ele>
        <time>2016-07-04T07:29:26Z</time>
      </trkpt>
      <trkpt lat="45.37759" lon="0.9344">
        <ele>178</ele>
        <time>2016-07-04T07:29:30Z</time>
      </trkpt>
      <trkpt lat="45.37751" lon="0.93438">
        <ele>179</ele>
        <time>2016-07-04T07:29:35Z</time>
      </trkpt>
      <trkpt lat="45.37745" lon="0.93438">
        <ele>182</ele>
        <time>2016-07-04T07:29:40Z</time>
      </trkpt>
      <trkpt lat="45.37739" lon="0.93437">
        <ele>182</ele>
        <time>2016-07-04T07:29:44Z</time>
      </trkpt>
      <trkpt lat="45.37732" lon="0.93438">
        <ele>181</ele>
        <time>2016-07-04T07:29:48Z</time>
      </trkpt>
      <trkpt lat="45.37727" lon="0.93438">
        <ele>182</ele>
        <time>2016-07-04T07:29:52Z</time>
      </trkpt>
      <trkpt lat="45.37722" lon="0.93438">
        <ele>183</ele>
        <time>2016-07-04T07:29:56Z</time>
      </trkpt>
      <trkpt lat="45.37716" lon="0.93441">
        <ele>182</ele>
        <time>2016-07-04T07:30:00Z</time>
      </trkpt>
      <trkpt lat="45.37712" lon="0.93442">
        <ele>183</ele>
        <time>2016-07-04T07:30:04Z</time>
      </trkpt>
      <trkpt lat="45.37707" lon="0.9344">
        <ele>183</ele>
        <time>2016-07-04T07:30:08Z</time>
      </trkpt>
      <trkpt lat="45.37702" lon="0.93439">
        <ele>183</ele>
        <time>2016-07-04T07:30:12Z</time>
      </trkpt>
      <trkpt lat="45.37698" lon="0.93438">
        <ele>185</ele>
        <time>2016-07-04T07:30:17Z</time>
      </trkpt>
      <trkpt lat="45.37695" lon="0.93437">
        <ele>186</ele>
        <time>2016-07-04T07:30:21Z</time>
      </trkpt>
      <trkpt lat="45.37691" lon="0.93436">
        <ele>186</ele>
        <time>2016-07-04T07:30:26Z</time>
      </trkpt>
      <trkpt lat="45.37685" lon="0.93432">
        <ele>189</ele>
        <time>2016-07-04T07:30:31Z</time>
      </trkpt>
      <trkpt lat="45.37678" lon="0.93431">
        <ele>189</ele>
        <time>2016-07-04T07:30:35Z</time>
      </trkpt>
      <trkpt lat="45.37675" lon="0.93428">
        <ele>190</ele>
        <time>2016-07-04T07:30:39Z</time>
      </trkpt>
      <trkpt lat="45.3767" lon="0.93425">
        <ele>190</ele>
        <time>2016-07-04T07:30:43Z</time>
      </trkpt>
      <trkpt lat="45.37664" lon="0.93422">
        <ele>191</ele>
        <time>2016-07-04T07:30:48Z</time>
      </trkpt>
      <trkpt lat="45.37658" lon="0.9342">
        <ele>190</ele>
        <time>2016-07-04T07:30:52Z</time>
      </trkpt>
      <trkpt lat="45.37652" lon="0.93419">
        <ele>191</ele>
        <time>2016-07-04T07:30:56Z</time>
      </trkpt>
      <trkpt lat="45.37644" lon="0.93417">
        <ele>190</ele>
        <time>2016-07-04T07:31:01Z</time>
      </trkpt>
      <trkpt lat="45.37637" lon="0.93418">
        <ele>189</ele>
        <time>2016-07-04T07:31:05Z</time>
      </trkpt>
      <trkpt lat="45.37627" lon="0.93417">
        <ele>187</ele>
        <time>2016-07-04T07:31:10Z</time>
      </trkpt>
      <trkpt lat="45.37621" lon="0.93417">
        <ele>186</ele>
        <time>2016-07-04T07:31:14Z</time>
      </trkpt>
      <trkpt lat="45.37616" lon="0.93416">
        <ele>188</ele>
        <time>2016-07-04T07:31:18Z</time>
      </trkpt>
      <trkpt lat="45.37611" lon="0.93415">
        <ele>189</ele>
        <time>2016-07-04T07:31:22Z</time>
      </trkpt>
      <trkpt lat="45.37605" lon="0.93415">
        <ele>190</ele>
        <time>2016-07-04T07:31:27Z</time>
      </trkpt>
      <trkpt lat="45.37599" lon="0.93415">
        <ele>191</ele>
        <time>2016-07-04T07:31:31Z</time>
      </trkpt>
      <trkpt lat="45.37594" lon="0.93415">
        <ele>191</ele>
        <time>2016-07-04T07:31:35Z</time>
      </trkpt>
      <trkpt lat="45.37592" lon="0.93411">
        <ele>196</ele>
        <time>2016-07-04T07:31:41Z</time>
      </trkpt>
      <trkpt lat="45.37586" lon="0.9341">
        <ele>195</ele>
        <time>2016-07-04T07:31:45Z</time>
      </trkpt>
      <trkpt lat="45.3758" lon="0.9341">
        <ele>196</ele>
        <time>2016-07-04T07:31:50Z</time>
      </trkpt>
      <trkpt lat="45.37575" lon="0.93406">
        <ele>198</ele>
        <time>2016-07-04T07:31:54Z</time>
      </trkpt>
      <trkpt lat="45.37569" lon="0.93405">
        <ele>198</ele>
        <time>2016-07-04T07:31:59Z</time>
      </trkpt>
      <trkpt lat="45.37564" lon="0.93403">
        <ele>199</ele>
        <time>2016-07-04T07:32:03Z</time>
      </trkpt>
      <trkpt lat="45.37557" lon="0.93402">
        <ele>198</ele>
        <time>2016-07-04T07:32:07Z</time>
      </trkpt>
      <trkpt lat="45.37551" lon="0.93401">
        <ele>198</ele>
        <time>2016-07-04T07:32:11Z</time>
      </trkpt>
      <trkpt lat="45.37543" lon="0.93404">
        <ele>195</ele>
        <time>2016-07-04T07:32:15Z</time>
      </trkpt>
      <trkpt lat="45.37537" lon="0.93404">
        <ele>195</ele>
        <time>2016-07-04T07:32:19Z</time>
      </trkpt>
      <trkpt lat="45.3753" lon="0.93402">
        <ele>195</ele>
        <time>2016-07-04T07:32:24Z</time>
      </trkpt>
      <trkpt lat="45.37525" lon="0.934">
        <ele>196</ele>
        <time>2016-07-04T07:32:28Z</time>
      </trkpt>
      <trkpt lat="45.37521" lon="0.934">
        <ele>195</ele>
        <time>2016-07-04T07:32:33Z</time>
      </trkpt>
      <trkpt lat="45.37514" lon="0.93397">
        <ele>195</ele>
        <time>2016-07-04T07:32:38Z</time>
      </trkpt>
      <trkpt lat="45.37509" lon="0.93392">
        <ele>194</ele>
        <time>2016-07-04T07:32:43Z</time>
      </trkpt>
      <trkpt lat="45.37505" lon="0.93388">
        <ele>194</ele>
        <time>2016-07-04T07:32:47Z</time>
      </trkpt>
      <trkpt lat="45.37502" lon="0.93384">
        <ele>197</ele>
        <time>2016-07-04T07:32:52Z</time>
      </trkpt>
      <trkpt lat="45.37497" lon="0.93382">
        <ele>197</ele>
        <time>2016-07-04T07:32:56Z</time>
      </trkpt>
      <trkpt lat="45.37494" lon="0.93379">
        <ele>202</ele>
        <time>2016-07-04T07:33:01Z</time>
      </trkpt>
      <trkpt lat="45.37487" lon="0.93375">
        <ele>202</ele>
        <time>2016-07-04T07:33:06Z</time>
      </trkpt>
      <trkpt lat="45.37479" lon="0.93373">
        <ele>202</ele>
        <time>2016-07-04T07:33:10Z</time>
      </trkpt>
      <trkpt lat="45.37474" lon="0.9337">
        <ele>202</ele>
        <time>2016-07-04T07:33:15Z</time>
      </trkpt>
      <trkpt lat="45.37469" lon="0.93367">
        <ele>203</ele>
        <time>2016-07-04T07:33:19Z</time>
      </trkpt>
      <trkpt lat="45.37465" lon="0.93367">
        <ele>201</ele>
        <time>2016-07-04T07:33:23Z</time>
      </trkpt>
      <trkpt lat="45.37459" lon="0.93365">
        <ele>202</ele>
        <time>2016-07-04T07:33:28Z</time>
      </trkpt>
      <trkpt lat="45.37457" lon="0.93361">
        <ele>203</ele>
        <time>2016-07-04T07:33:32Z</time>
      </trkpt>
      <trkpt lat="45.37454" lon="0.93356">
        <ele>204</ele>
        <time>2016-07-04T07:33:36Z</time>
      </trkpt>
      <trkpt lat="45.37449" lon="0.93351">
        <ele>205</ele>
        <time>2016-07-04T07:33:41Z</time>
      </trkpt>
      <trkpt lat="45.37444" lon="0.93346">
        <ele>207</ele>
        <time>2016-07-04T07:33:45Z</time>
      </trkpt>
      <trkpt lat="45.3744" lon="0.93341">
        <ele>208</ele>
        <time>2016-07-04T07:33:49Z</time>
      </trkpt>
      <trkpt lat="45.37437" lon="0.93337">
        <ele>209</ele>
        <time>2016-07-04T07:33:53Z</time>
      </trkpt>
      <trkpt lat="45.37432" lon="0.93331">
        <ele>210</ele>
        <time>2016-07-04T07:33:58Z</time>
      </trkpt>
      <trkpt lat="45.37429" lon="0.93327">
        <ele>211</ele>
        <time>2016-07-04T07:34:02Z</time>
      </trkpt>
      <trkpt lat="45.37425" lon="0.93321">
        <ele>211</ele>
        <time>2016-07-04T07:34:06Z</time>
      </trkpt>
      <trkpt lat="45.37421" lon="0.93316">
        <ele>212</ele>
        <time>2016-07-04T07:34:11Z</time>
      </trkpt>
      <trkpt lat="45.37419" lon="0.93313">
        <ele>213</ele>
        <time>2016-07-04T07:34:15Z</time>
      </trkpt>
      <trkpt lat="45.37409" lon="0.93312">
        <ele>209</ele>
        <time>2016-07-04T07:34:19Z</time>
      </trkpt>
      <trkpt lat="45.37402" lon="0.9331">
        <ele>209</ele>
        <time>2016-07-04T07:34:23Z</time>
      </trkpt>
      <trkpt lat="45.37396" lon="0.93306">
        <ele>208</ele>
        <time>2016-07-04T07:34:28Z</time>
      </trkpt>
      <trkpt lat="45.37391" lon="0.93304">
        <ele>209</ele>
        <time>2016-07-04T07:34:32Z</time>
      </trkpt>
      <trkpt lat="45.37384" lon="0.933">
        <ele>209</ele>
        <time>2016-07-04T07:34:36Z</time>
      </trkpt>
      <trkpt lat="45.37378" lon="0.93296">
        <ele>208</ele>
        <time>2016-07-04T07:34:41Z</time>
      </trkpt>
      <trkpt lat="45.37372" lon="0.93292">
        <ele>208</ele>
        <time>2016-07-04T07:34:45Z</time>
      </trkpt>
      <trkpt lat="45.37369" lon="0.93287">
        <ele>209</ele>
        <time>2016-07-04T07:34:49Z</time>
      </trkpt>
      <trkpt lat="45.37361" lon="0.93279">
        <ele>208</ele>
        <time>2016-07-04T07:34:54Z</time>
      </trkpt>
      <trkpt lat="45.37357" lon="0.93274">
        <ele>208</ele>
        <time>2016-07-04T07:34:58Z</time>
      </trkpt>
      <trkpt lat="45.37353" lon="0.93272">
        <ele>210</ele>
        <time>2016-07-04T07:35:02Z</time>
      </trkpt>
      <trkpt lat="45.3735" lon="0.93263">
        <ele>208</ele>
        <time>2016-07-04T07:35:07Z</time>
      </trkpt>
      <trkpt lat="45.37347" lon="0.93257">
        <ele>208</ele>
        <time>2016-07-04T07:35:11Z</time>
      </trkpt>
      <trkpt lat="45.37344" lon="0.9325">
        <ele>207</ele>
        <time>2016-07-04T07:35:16Z</time>
      </trkpt>
      <trkpt lat="45.37342" lon="0.93243">
        <ele>206</ele>
        <time>2016-07-04T07:35:20Z</time>
      </trkpt>
      <trkpt lat="45.37341" lon="0.93235">
        <ele>211</ele>
        <time>2016-07-04T07:35:24Z</time>
      </trkpt>
      <trkpt lat="45.37339" lon="0.93229">
        <ele>209</ele>
        <time>2016-07-04T07:35:28Z</time>
      </trkpt>
      <trkpt lat="45.37338" lon="0.9322">
        <ele>206</ele>
        <time>2016-07-04T07:35:33Z</time>
      </trkpt>
      <trkpt lat="45.37339" lon="0.93212">
        <ele>205</ele>
        <time>2016-07-04T07:35:37Z</time>
      </trkpt>
      <trkpt lat="45.37338" lon="0.93205">
        <ele>206</ele>
        <time>2016-07-04T07:35:41Z</time>
      </trkpt>
      <trkpt lat="45.37339" lon="0.93198">
        <ele>207</ele>
        <time>2016-07-04T07:35:45Z</time>
      </trkpt>
      <trkpt lat="45.37341" lon="0.93192">
        <ele>209</ele>
        <time>2016-07-04T07:35:49Z</time>
      </trkpt>
      <trkpt lat="45.37341" lon="0.93186">
        <ele>209</ele>
        <time>2016-07-04T07:35:53Z</time>
      </trkpt>
      <trkpt lat="45.37342" lon="0.93178">
        <ele>211</ele>
        <time>2016-07-04T07:35:57Z</time>
      </trkpt>
      <trkpt lat="45.37344" lon="0.93173">
        <ele>213</ele>
        <time>2016-07-04T07:36:01Z</time>
      </trkpt>
      <trkpt lat="45.37344" lon="0.93164">
        <ele>212</ele>
        <time>2016-07-04T07:36:05Z</time>
      </trkpt>
      <trkpt lat="45.37342" lon="0.93152">
        <ele>207</ele>
        <time>2016-07-04T07:36:09Z</time>
      </trkpt>
      <trkpt lat="45.37341" lon="0.93144">
        <ele>208</ele>
        <time>2016-07-04T07:36:14Z</time>
      </trkpt>
      <trkpt lat="45.3734" lon="0.93136">
        <ele>207</ele>
        <time>2016-07-04T07:36:18Z</time>
      </trkpt>
      <trkpt lat="45.37339" lon="0.93129">
        <ele>208</ele>
        <time>2016-07-04T07:36:22Z</time>
      </trkpt>
      <trkpt lat="45.37339" lon="0.93119">
        <ele>207</ele>
        <time>2016-07-04T07:36:26Z</time>
      </trkpt>
      <trkpt lat="45.37337" lon="0.93115">
        <ele>207</ele>
        <time>2016-07-04T07:36:31Z</time>
      </trkpt>
      <trkpt lat="45.37336" lon="0.93104">
        <ele>208</ele>
        <time>2016-07-04T07:36:35Z</time>
      </trkpt>
      <trkpt lat="45.3733" lon="0.93095">
        <ele>209</ele>
        <time>2016-07-04T07:36:40Z</time>
      </trkpt>
      <trkpt lat="45.37326" lon="0.93089">
        <ele>209</ele>
        <time>2016-07-04T07:36:44Z</time>
      </trkpt>
      <trkpt lat="45.3732" lon="0.93082">
        <ele>207</ele>
        <time>2016-07-04T07:36:49Z</time>
      </trkpt>
      <trkpt lat="45.37317" lon="0.93074">
        <ele>207</ele>
        <time>2016-07-04T07:36:53Z</time>
      </trkpt>
      <trkpt lat="45.37314" lon="0.93067">
        <ele>206</ele>
        <time>2016-07-04T07:36:57Z</time>
      </trkpt>
      <trkpt lat="45.37309" lon="0.93061">
        <ele>202</ele>
        <time>2016-07-04T07:37:01Z</time>
      </trkpt>
      <trkpt lat="45.37305" lon="0.93053">
        <ele>203</ele>
        <time>2016-07-04T07:37:06Z</time>
      </trkpt>
      <trkpt lat="45.37302" lon="0.93046">
        <ele>203</ele>
        <time>2016-07-04T07:37:10Z</time>
      </trkpt>
      <trkpt lat="45.37299" lon="0.93039">
        <ele>203</ele>
        <time>2016-07-04T07:37:14Z</time>
      </trkpt>
      <trkpt lat="45.37296" lon="0.93033">
        <ele>201</ele>
        <time>2016-07-04T07:37:18Z</time>
      </trkpt>
      <trkpt lat="45.37294" lon="0.93025">
        <ele>201</ele>
        <time>2016-07-04T07:37:22Z</time>
      </trkpt>
      <trkpt lat="45.37289" lon="0.93017">
        <ele>200</ele>
        <time>2016-07-04T07:37:27Z</time>
      </trkpt>
      <trkpt lat="45.37287" lon="0.9301">
        <ele>201</ele>
        <time>2016-07-04T07:37:31Z</time>
      </trkpt>
      <trkpt lat="45.37286" lon="0.93004">
        <ele>203</ele>
        <time>2016-07-04T07:37:35Z</time>
      </trkpt>
      <trkpt lat="45.37285" lon="0.92998">
        <ele>202</ele>
        <time>2016-07-04T07:38:04Z</time>
      </trkpt>
      <trkpt lat="45.37282" lon="0.92994">
        <ele>200</ele>
        <time>2016-07-04T07:38:11Z</time>
      </trkpt>
      <trkpt lat="45.37278" lon="0.9299">
        <ele>199</ele>
        <time>2016-07-04T07:38:15Z</time>
      </trkpt>
      <trkpt lat="45.37274" lon="0.92981">
        <ele>198</ele>
        <time>2016-07-04T07:38:20Z</time>
      </trkpt>
      <trkpt lat="45.3727" lon="0.92976">
        <ele>199</ele>
        <time>2016-07-04T07:38:24Z</time>
      </trkpt>
      <trkpt lat="45.37269" lon="0.9297">
        <ele>200</ele>
        <time>2016-07-04T07:38:29Z</time>
      </trkpt>
      <trkpt lat="45.37268" lon="0.92964">
        <ele>202</ele>
        <time>2016-07-04T07:38:33Z</time>
      </trkpt>
      <trkpt lat="45.37263" lon="0.92958">
        <ele>202</ele>
        <time>2016-07-04T07:38:38Z</time>
      </trkpt>
      <trkpt lat="45.37259" lon="0.92953">
        <ele>203</ele>
        <time>2016-07-04T07:38:42Z</time>
      </trkpt>
      <trkpt lat="45.3725" lon="0.9295">
        <ele>199</ele>
        <time>2016-07-04T07:38:46Z</time>
      </trkpt>
      <trkpt lat="45.37243" lon="0.92947">
        <ele>197</ele>
        <time>2016-07-04T07:38:50Z</time>
      </trkpt>
      <trkpt lat="45.37237" lon="0.9294">
        <ele>198</ele>
        <time>2016-07-04T07:38:55Z</time>
      </trkpt>
      <trkpt lat="45.3723" lon="0.92936">
        <ele>195</ele>
        <time>2016-07-04T07:38:59Z</time>
      </trkpt>
      <trkpt lat="45.37226" lon="0.92932">
        <ele>195</ele>
        <time>2016-07-04T07:39:03Z</time>
      </trkpt>
      <trkpt lat="45.37221" lon="0.92928">
        <ele>195</ele>
        <time>2016-07-04T07:39:07Z</time>
      </trkpt>
      <trkpt lat="45.37216" lon="0.92922">
        <ele>195</ele>
        <time>2016-07-04T07:39:12Z</time>
      </trkpt>
      <trkpt lat="45.37213" lon="0.92915">
        <ele>196</ele>
        <time>2016-07-04T07:39:17Z</time>
      </trkpt>
      <trkpt lat="45.37209" lon="0.92909">
        <ele>197</ele>
        <time>2016-07-04T07:39:21Z</time>
      </trkpt>
      <trkpt lat="45.37205" lon="0.92901">
        <ele>196</ele>
        <time>2016-07-04T07:39:26Z</time>
      </trkpt>
      <trkpt lat="45.37204" lon="0.92893">
        <ele>196</ele>
        <time>2016-07-04T07:39:30Z</time>
      </trkpt>
      <trkpt lat="45.37201" lon="0.92884">
        <ele>194</ele>
        <time>2016-07-04T07:39:35Z</time>
      </trkpt>
      <trkpt lat="45.37199" lon="0.92876">
        <ele>194</ele>
        <time>2016-07-04T07:39:39Z</time>
      </trkpt>
      <trkpt lat="45.37199" lon="0.92868">
        <ele>194</ele>
        <time>2016-07-04T07:39:43Z</time>
      </trkpt>
      <trkpt lat="45.37199" lon="0.9286">
        <ele>192</ele>
        <time>2016-07-04T07:39:48Z</time>
      </trkpt>
      <trkpt lat="45.372" lon="0.92849">
        <ele>191</ele>
        <time>2016-07-04T07:39:53Z</time>
      </trkpt>
      <trkpt lat="45.37201" lon="0.92842">
        <ele>192</ele>
        <time>2016-07-04T07:39:57Z</time>
      </trkpt>
      <trkpt lat="45.37202" lon="0.92834">
        <ele>192</ele>
        <time>2016-07-04T07:40:01Z</time>
      </trkpt>
      <trkpt lat="45.37202" lon="0.92825">
        <ele>193</ele>
        <time>2016-07-04T07:40:06Z</time>
      </trkpt>
      <trkpt lat="45.37203" lon="0.92816">
        <ele>192</ele>
        <time>2016-07-04T07:40:10Z</time>
      </trkpt>
      <trkpt lat="45.37205" lon="0.92808">
        <ele>192</ele>
        <time>2016-07-04T07:40:14Z</time>
      </trkpt>
      <trkpt lat="45.37206" lon="0.92799">
        <ele>192</ele>
        <time>2016-07-04T07:40:19Z</time>
      </trkpt>
      <trkpt lat="45.37206" lon="0.9279">
        <ele>192</ele>
        <time>2016-07-04T07:40:24Z</time>
      </trkpt>
      <trkpt lat="45.37207" lon="0.92784">
        <ele>192</ele>
        <time>2016-07-04T07:40:28Z</time>
      </trkpt>
      <trkpt lat="45.37207" lon="0.92776">
        <ele>192</ele>
        <time>2016-07-04T07:40:32Z</time>
      </trkpt>
      <trkpt lat="45.37206" lon="0.92768">
        <ele>191</ele>
        <time>2016-07-04T07:40:37Z</time>
      </trkpt>
      <trkpt lat="45.37202" lon="0.9276">
        <ele>191</ele>
        <time>2016-07-04T07:40:41Z</time>
      </trkpt>
      <trkpt lat="45.37197" lon="0.92752">
        <ele>190</ele>
        <time>2016-07-04T07:40:46Z</time>
      </trkpt>
      <trkpt lat="45.37194" lon="0.92746">
        <ele>192</ele>
        <time>2016-07-04T07:40:50Z</time>
      </trkpt>
      <trkpt lat="45.3719" lon="0.92738">
        <ele>192</ele>
        <time>2016-07-04T07:40:55Z</time>
      </trkpt>
      <trkpt lat="45.37184" lon="0.92731">
        <ele>192</ele>
        <time>2016-07-04T07:41:00Z</time>
      </trkpt>
      <trkpt lat="45.3718" lon="0.92726">
        <ele>191</ele>
        <time>2016-07-04T07:41:04Z</time>
      </trkpt>
      <trkpt lat="45.37173" lon="0.92719">
        <ele>191</ele>
        <time>2016-07-04T07:41:09Z</time>
      </trkpt>
      <trkpt lat="45.37169" lon="0.92714">
        <ele>191</ele>
        <time>2016-07-04T07:41:14Z</time>
      </trkpt>
      <trkpt lat="45.37164" lon="0.92708">
        <ele>192</ele>
        <time>2016-07-04T07:41:18Z</time>
      </trkpt>
      <trkpt lat="45.3716" lon="0.92702">
        <ele>191</ele>
        <time>2016-07-04T07:41:23Z</time>
      </trkpt>
      <trkpt lat="45.37157" lon="0.92694">
        <ele>192</ele>
        <time>2016-07-04T07:41:28Z</time>
      </trkpt>
      <trkpt lat="45.37155" lon="0.92687">
        <ele>192</ele>
        <time>2016-07-04T07:41:32Z</time>
      </trkpt>
      <trkpt lat="45.37154" lon="0.92679">
        <ele>192</ele>
        <time>2016-07-04T07:41:36Z</time>
      </trkpt>
      <trkpt lat="45.37154" lon="0.9267">
        <ele>193</ele>
        <time>2016-07-04T07:41:41Z</time>
      </trkpt>
      <trkpt lat="45.37155" lon="0.9266">
        <ele>191</ele>
        <time>2016-07-04T07:41:46Z</time>
      </trkpt>
      <trkpt lat="45.37154" lon="0.92652">
        <ele>191</ele>
        <time>2016-07-04T07:41:50Z</time>
      </trkpt>
      <trkpt lat="45.37155" lon="0.92645">
        <ele>192</ele>
        <time>2016-07-04T07:41:54Z</time>
      </trkpt>
      <trkpt lat="45.37157" lon="0.92639">
        <ele>193</ele>
        <time>2016-07-04T07:41:58Z</time>
      </trkpt>
      <trkpt lat="45.37157" lon="0.92633">
        <ele>194</ele>
        <time>2016-07-04T07:42:02Z</time>
      </trkpt>
      <trkpt lat="45.37159" lon="0.92626">
        <ele>199</ele>
        <time>2016-07-04T07:42:07Z</time>
      </trkpt>
      <trkpt lat="45.37158" lon="0.9262">
        <ele>200</ele>
        <time>2016-07-04T07:42:11Z</time>
      </trkpt>
      <trkpt lat="45.37152" lon="0.92608">
        <ele>198</ele>
        <time>2016-07-04T07:42:16Z</time>
      </trkpt>
      <trkpt lat="45.3715" lon="0.92602">
        <ele>197</ele>
        <time>2016-07-04T07:42:20Z</time>
      </trkpt>
      <trkpt lat="45.37147" lon="0.92594">
        <ele>197</ele>
        <time>2016-07-04T07:42:25Z</time>
      </trkpt>
      <trkpt lat="45.37144" lon="0.92588">
        <ele>198</ele>
        <time>2016-07-04T07:42:29Z</time>
      </trkpt>
      <trkpt lat="45.37141" lon="0.92581">
        <ele>200</ele>
        <time>2016-07-04T07:42:34Z</time>
      </trkpt>
      <trkpt lat="45.37136" lon="0.92574">
        <ele>200</ele>
        <time>2016-07-04T07:42:39Z</time>
      </trkpt>
      <trkpt lat="45.37133" lon="0.92569">
        <ele>201</ele>
        <time>2016-07-04T07:42:43Z</time>
      </trkpt>
      <trkpt lat="45.37129" lon="0.92565">
        <ele>200</ele>
        <time>2016-07-04T07:42:47Z</time>
      </trkpt>
      <trkpt lat="45.37123" lon="0.92559">
        <ele>201</ele>
        <time>2016-07-04T07:42:52Z</time>
      </trkpt>
      <trkpt lat="45.37122" lon="0.92552">
        <ele>205</ele>
        <time>2016-07-04T07:42:56Z</time>
      </trkpt>
      <trkpt lat="45.37116" lon="0.92546">
        <ele>204</ele>
        <time>2016-07-04T07:43:00Z</time>
      </trkpt>
      <trkpt lat="45.37109" lon="0.92541">
        <ele>203</ele>
        <time>2016-07-04T07:43:05Z</time>
      </trkpt>
      <trkpt lat="45.37101" lon="0.92539">
        <ele>199</ele>
        <time>2016-07-04T07:43:09Z</time>
      </trkpt>
      <trkpt lat="45.37095" lon="0.92535">
        <ele>200</ele>
        <time>2016-07-04T07:43:14Z</time>
      </trkpt>
      <trkpt lat="45.37091" lon="0.92529">
        <ele>201</ele>
        <time>2016-07-04T07:43:18Z</time>
      </trkpt>
      <trkpt lat="45.37085" lon="0.92524">
        <ele>201</ele>
        <time>2016-07-04T07:43:22Z</time>
      </trkpt>
      <trkpt lat="45.37079" lon="0.9252">
        <ele>199</ele>
        <time>2016-07-04T07:43:27Z</time>
      </trkpt>
      <trkpt lat="45.37073" lon="0.92517">
        <ele>199</ele>
        <time>2016-07-04T07:43:31Z</time>
      </trkpt>
      <trkpt lat="45.37067" lon="0.92514">
        <ele>199</ele>
        <time>2016-07-04T07:43:35Z</time>
      </trkpt>
      <trkpt lat="45.37061" lon="0.92507">
        <ele>197</ele>
        <time>2016-07-04T07:43:40Z</time>
      </trkpt>
      <trkpt lat="45.37055" lon="0.92503">
        <ele>196</ele>
        <time>2016-07-04T07:43:44Z</time>
      </trkpt>
      <trkpt lat="45.37052" lon="0.92505">
        <ele>195</ele>
        <time>2016-07-04T07:43:49Z</time>
      </trkpt>
      <trkpt lat="45.37048" lon="0.92503">
        <ele>196</ele>
        <time>2016-07-04T07:43:53Z</time>
      </trkpt>
      <trkpt lat="45.37044" lon="0.92497">
        <ele>194</ele>
        <time>2016-07-04T07:43:58Z</time>
      </trkpt>
      <trkpt lat="45.37043" lon="0.92492">
        <ele>195</ele>
        <time>2016-07-04T07:44:07Z</time>
      </trkpt>
      <trkpt lat="45.37045" lon="0.92486">
        <ele>198</ele>
        <time>2016-07-04T07:44:23Z</time>
      </trkpt>
      <trkpt lat="45.37048" lon="0.92482">
        <ele>203</ele>
        <time>2016-07-04T07:44:33Z</time>
      </trkpt>
      <trkpt lat="45.37045" lon="0.92478">
        <ele>200</ele>
        <time>2016-07-04T07:44:40Z</time>
      </trkpt>
      <trkpt lat="45.37041" lon="0.92476">
        <ele>196</ele>
        <time>2016-07-04T07:44:54Z</time>
      </trkpt>
      <trkpt lat="45.37036" lon="0.92471">
        <ele>194</ele>
        <time>2016-07-04T07:44:59Z</time>
      </trkpt>
      <trkpt lat="45.37031" lon="0.92464">
        <ele>193</ele>
        <time>2016-07-04T07:45:03Z</time>
      </trkpt>
      <trkpt lat="45.37032" lon="0.92457">
        <ele>196</ele>
        <time>2016-07-04T07:45:07Z</time>
      </trkpt>
      <trkpt lat="45.37029" lon="0.92451">
        <ele>198</ele>
        <time>2016-07-04T07:45:11Z</time>
      </trkpt>
      <trkpt lat="45.37028" lon="0.92441">
        <ele>198</ele>
        <time>2016-07-04T07:45:16Z</time>
      </trkpt>
      <trkpt lat="45.37027" lon="0.92436">
        <ele>197</ele>
        <time>2016-07-04T07:45:20Z</time>
      </trkpt>
      <trkpt lat="45.37024" lon="0.92428">
        <ele>198</ele>
        <time>2016-07-04T07:45:25Z</time>
      </trkpt>
      <trkpt lat="45.3702" lon="0.9242">
        <ele>195</ele>
        <time>2016-07-04T07:45:29Z</time>
      </trkpt>
      <trkpt lat="45.37015" lon="0.92413">
        <ele>194</ele>
        <time>2016-07-04T07:45:33Z</time>
      </trkpt>
      <trkpt lat="45.37012" lon="0.92406">
        <ele>194</ele>
        <time>2016-07-04T07:45:37Z</time>
      </trkpt>
      <trkpt lat="45.37009" lon="0.92399">
        <ele>193</ele>
        <time>2016-07-04T07:45:42Z</time>
      </trkpt>
      <trkpt lat="45.37007" lon="0.92393">
        <ele>195</ele>
        <time>2016-07-04T07:45:46Z</time>
      </trkpt>
      <trkpt lat="45.37003" lon="0.92388">
        <ele>195</ele>
        <time>2016-07-04T07:45:50Z</time>
      </trkpt>
      <trkpt lat="45.37003" lon="0.92378">
        <ele>194</ele>
        <time>2016-07-04T07:45:54Z</time>
      </trkpt>
      <trkpt lat="45.37" lon="0.92369">
        <ele>193</ele>
        <time>2016-07-04T07:45:59Z</time>
      </trkpt>
      <trkpt lat="45.36997" lon="0.9236">
        <ele>194</ele>
        <time>2016-07-04T07:46:03Z</time>
      </trkpt>
      <trkpt lat="45.36995" lon="0.92353">
        <ele>195</ele>
        <time>2016-07-04T07:46:08Z</time>
      </trkpt>
      <trkpt lat="45.36994" lon="0.92346">
        <ele>195</ele>
        <time>2016-07-04T07:46:12Z</time>
      </trkpt>
      <trkpt lat="45.36991" lon="0.92336">
        <ele>197</ele>
        <time>2016-07-04T07:46:17Z</time>
      </trkpt>
      <trkpt lat="45.36988" lon="0.92328">
        <ele>198</ele>
        <time>2016-07-04T07:46:22Z</time>
      </trkpt>
      <trkpt lat="45.36987" lon="0.92321">
        <ele>199</ele>
        <time>2016-07-04T07:46:26Z</time>
      </trkpt>
      <trkpt lat="45.36986" lon="0.92312">
        <ele>199</ele>
        <time>2016-07-04T07:46:31Z</time>
      </trkpt>
      <trkpt lat="45.36979" lon="0.92305">
        <ele>195</ele>
        <time>2016-07-04T07:46:35Z</time>
      </trkpt>
      <trkpt lat="45.36978" lon="0.92295">
        <ele>193</ele>
        <time>2016-07-04T07:46:40Z</time>
      </trkpt>
      <trkpt lat="45.36977" lon="0.92288">
        <ele>194</ele>
        <time>2016-07-04T07:46:44Z</time>
      </trkpt>
      <trkpt lat="45.36973" lon="0.9228">
        <ele>193</ele>
        <time>2016-07-04T07:46:49Z</time>
      </trkpt>
      <trkpt lat="45.36969" lon="0.92273">
        <ele>191</ele>
        <time>2016-07-04T07:46:53Z</time>
      </trkpt>
      <trkpt lat="45.36969" lon="0.92265">
        <ele>190</ele>
        <time>2016-07-04T07:46:58Z</time>
      </trkpt>
      <trkpt lat="45.36967" lon="0.92259">
        <ele>188</ele>
        <time>2016-07-04T07:47:02Z</time>
      </trkpt>
      <trkpt lat="45.36965" lon="0.92253">
        <ele>187</ele>
        <time>2016-07-04T07:47:07Z</time>
      </trkpt>
      <trkpt lat="45.36963" lon="0.92248">
        <ele>186</ele>
        <time>2016-07-04T07:47:11Z</time>
      </trkpt>
      <trkpt lat="45.3696" lon="0.92237">
        <ele>188</ele>
        <time>2016-07-04T07:47:16Z</time>
      </trkpt>
      <trkpt lat="45.36957" lon="0.92231">
        <ele>185</ele>
        <time>2016-07-04T07:47:20Z</time>
      </trkpt>
      <trkpt lat="45.36954" lon="0.92223">
        <ele>183</ele>
        <time>2016-07-04T07:47:24Z</time>
      </trkpt>
      <trkpt lat="45.3695" lon="0.92216">
        <ele>183</ele>
        <time>2016-07-04T07:47:28Z</time>
      </trkpt>
      <trkpt lat="45.36947" lon="0.9221">
        <ele>184</ele>
        <time>2016-07-04T07:47:32Z</time>
      </trkpt>
      <trkpt lat="45.36946" lon="0.92204">
        <ele>187</ele>
        <time>2016-07-04T07:47:37Z</time>
      </trkpt>
      <trkpt lat="45.36946" lon="0.92197">
        <ele>187</ele>
        <time>2016-07-04T07:47:42Z</time>
      </trkpt>
      <trkpt lat="45.3694" lon="0.9219">
        <ele>186</ele>
        <time>2016-07-04T07:47:46Z</time>
      </trkpt>
      <trkpt lat="45.36936" lon="0.92181">
        <ele>183</ele>
        <time>2016-07-04T07:47:50Z</time>
      </trkpt>
      <trkpt lat="45.36932" lon="0.92175">
        <ele>184</ele>
        <time>2016-07-04T07:47:55Z</time>
      </trkpt>
      <trkpt lat="45.36928" lon="0.92171">
        <ele>185</ele>
        <time>2016-07-04T07:48:00Z</time>
      </trkpt>
      <trkpt lat="45.36924" lon="0.92166">
        <ele>183</ele>
        <time>2016-07-04T07:48:04Z</time>
      </trkpt>
      <trkpt lat="45.36918" lon="0.92161">
        <ele>184</ele>
        <time>2016-07-04T07:48:08Z</time>
      </trkpt>
      <trkpt lat="45.36912" lon="0.92157">
        <ele>181</ele>
        <time>2016-07-04T07:48:12Z</time>
      </trkpt>
      <trkpt lat="45.36909" lon="0.92152">
        <ele>179</ele>
        <time>2016-07-04T07:48:16Z</time>
      </trkpt>
      <trkpt lat="45.36906" lon="0.92147">
        <ele>178</ele>
        <time>2016-07-04T07:48:22Z</time>
      </trkpt>
      <trkpt lat="45.36903" lon="0.9214">
        <ele>180</ele>
        <time>2016-07-04T07:48:26Z</time>
      </trkpt>
      <trkpt lat="45.36901" lon="0.92133">
        <ele>182</ele>
        <time>2016-07-04T07:48:30Z</time>
      </trkpt>
      <trkpt lat="45.36898" lon="0.92128">
        <ele>183</ele>
        <time>2016-07-04T07:48:34Z</time>
      </trkpt>
      <trkpt lat="45.36892" lon="0.92122">
        <ele>181</ele>
        <time>2016-07-04T07:48:38Z</time>
      </trkpt>
      <trkpt lat="45.36885" lon="0.92113">
        <ele>179</ele>
        <time>2016-07-04T07:48:43Z</time>
      </trkpt>
      <trkpt lat="45.3688" lon="0.92111">
        <ele>178</ele>
        <time>2016-07-04T07:48:47Z</time>
      </trkpt>
      <trkpt lat="45.36877" lon="0.92108">
        <ele>180</ele>
        <time>2016-07-04T07:48:51Z</time>
      </trkpt>
      <trkpt lat="45.36871" lon="0.92101">
        <ele>180</ele>
        <time>2016-07-04T07:48:55Z</time>
      </trkpt>
      <trkpt lat="45.36867" lon="0.92099">
        <ele>179</ele>
        <time>2016-07-04T07:48:59Z</time>
      </trkpt>
      <trkpt lat="45.36862" lon="0.92097">
        <ele>180</ele>
        <time>2016-07-04T07:49:03Z</time>
      </trkpt>
      <trkpt lat="45.36859" lon="0.92092">
        <ele>184</ele>
        <time>2016-07-04T07:49:07Z</time>
      </trkpt>
      <trkpt lat="45.36853" lon="0.9209">
        <ele>184</ele>
        <time>2016-07-04T07:49:11Z</time>
      </trkpt>
      <trkpt lat="45.36845" lon="0.92089">
        <ele>182</ele>
        <time>2016-07-04T07:49:15Z</time>
      </trkpt>
      <trkpt lat="45.36837" lon="0.92083">
        <ele>181</ele>
        <time>2016-07-04T07:49:20Z</time>
      </trkpt>
      <trkpt lat="45.36835" lon="0.92079">
        <ele>181</ele>
        <time>2016-07-04T07:49:24Z</time>
      </trkpt>
      <trkpt lat="45.36829" lon="0.92078">
        <ele>181</ele>
        <time>2016-07-04T07:49:28Z</time>
      </trkpt>
      <trkpt lat="45.36826" lon="0.92073">
        <ele>182</ele>
        <time>2016-07-04T07:49:32Z</time>
      </trkpt>
      <trkpt lat="45.36822" lon="0.9207">
        <ele>182</ele>
        <time>2016-07-04T07:49:36Z</time>
      </trkpt>
      <trkpt lat="45.36818" lon="0.92066">
        <ele>183</ele>
        <time>2016-07-04T07:49:40Z</time>
      </trkpt>
      <trkpt lat="45.36815" lon="0.92063">
        <ele>187</ele>
        <time>2016-07-04T07:49:45Z</time>
      </trkpt>
      <trkpt lat="45.3681" lon="0.92059">
        <ele>188</ele>
        <time>2016-07-04T07:49:50Z</time>
      </trkpt>
      <trkpt lat="45.36806" lon="0.92055">
        <ele>188</ele>
        <time>2016-07-04T07:49:54Z</time>
      </trkpt>
      <trkpt lat="45.36802" lon="0.92052">
        <ele>188</ele>
        <time>2016-07-04T07:49:58Z</time>
      </trkpt>
      <trkpt lat="45.36799" lon="0.92046">
        <ele>186</ele>
        <time>2016-07-04T07:50:02Z</time>
      </trkpt>
      <trkpt lat="45.36795" lon="0.92041">
        <ele>186</ele>
        <time>2016-07-04T07:50:06Z</time>
      </trkpt>
      <trkpt lat="45.36788" lon="0.92037">
        <ele>184</ele>
        <time>2016-07-04T07:50:11Z</time>
      </trkpt>
      <trkpt lat="45.36783" lon="0.92031">
        <ele>184</ele>
        <time>2016-07-04T07:50:15Z</time>
      </trkpt>
      <trkpt lat="45.36778" lon="0.92025">
        <ele>186</ele>
        <time>2016-07-04T07:50:20Z</time>
      </trkpt>
      <trkpt lat="45.36774" lon="0.9202">
        <ele>186</ele>
        <time>2016-07-04T07:50:24Z</time>
      </trkpt>
      <trkpt lat="45.3677" lon="0.92015">
        <ele>183</ele>
        <time>2016-07-04T07:50:28Z</time>
      </trkpt>
      <trkpt lat="45.36767" lon="0.92008">
        <ele>183</ele>
        <time>2016-07-04T07:50:32Z</time>
      </trkpt>
      <trkpt lat="45.36763" lon="0.92002">
        <ele>184</ele>
        <time>2016-07-04T07:50:37Z</time>
      </trkpt>
      <trkpt lat="45.36761" lon="0.91997">
        <ele>186</ele>
        <time>2016-07-04T07:50:41Z</time>
      </trkpt>
      <trkpt lat="45.36758" lon="0.91991">
        <ele>189</ele>
        <time>2016-07-04T07:50:45Z</time>
      </trkpt>
      <trkpt lat="45.36752" lon="0.91986">
        <ele>189</ele>
        <time>2016-07-04T07:50:50Z</time>
      </trkpt>
      <trkpt lat="45.36747" lon="0.91984">
        <ele>185</ele>
        <time>2016-07-04T07:50:54Z</time>
      </trkpt>
      <trkpt lat="45.36742" lon="0.9198">
        <ele>183</ele>
        <time>2016-07-04T07:50:59Z</time>
      </trkpt>
      <trkpt lat="45.36742" lon="0.91975">
        <ele>183</ele>
        <time>2016-07-04T07:51:04Z</time>
      </trkpt>
      <trkpt lat="45.36745" lon="0.91971">
        <ele>183</ele>
        <time>2016-07-04T07:51:08Z</time>
      </trkpt>
      <trkpt lat="45.3675" lon="0.91969">
        <ele>184</ele>
        <time>2016-07-04T07:51:13Z</time>
      </trkpt>
      <trkpt lat="45.36751" lon="0.91964">
        <ele>182</ele>
        <time>2016-07-04T07:51:18Z</time>
      </trkpt>
      <trkpt lat="45.36755" lon="0.91961">
        <ele>183</ele>
        <time>2016-07-04T07:51:22Z</time>
      </trkpt>
      <trkpt lat="45.3676" lon="0.91957">
        <ele>185</ele>
        <time>2016-07-04T07:51:27Z</time>
      </trkpt>
      <trkpt lat="45.36764" lon="0.91955">
        <ele>187</ele>
        <time>2016-07-04T07:51:31Z</time>
      </trkpt>
      <trkpt lat="45.36768" lon="0.9195">
        <ele>188</ele>
        <time>2016-07-04T07:51:35Z</time>
      </trkpt>
      <trkpt lat="45.36771" lon="0.91947">
        <ele>189</ele>
        <time>2016-07-04T07:51:39Z</time>
      </trkpt>
      <trkpt lat="45.36777" lon="0.91939">
        <ele>190</ele>
        <time>2016-07-04T07:51:44Z</time>
      </trkpt>
      <trkpt lat="45.36782" lon="0.9193">
        <ele>187</ele>
        <time>2016-07-04T07:51:48Z</time>
      </trkpt>
      <trkpt lat="45.36785" lon="0.91926">
        <ele>186</ele>
        <time>2016-07-04T07:51:52Z</time>
      </trkpt>
      <trkpt lat="45.36789" lon="0.91924">
        <ele>188</ele>
        <time>2016-07-04T07:51:57Z</time>
      </trkpt>
      <trkpt lat="45.36793" lon="0.9192">
        <ele>189</ele>
        <time>2016-07-04T07:52:01Z</time>
      </trkpt>
      <trkpt lat="45.36797" lon="0.91917">
        <ele>190</ele>
        <time>2016-07-04T07:52:06Z</time>
      </trkpt>
      <trkpt lat="45.36801" lon="0.91914">
        <ele>192</ele>
        <time>2016-07-04T07:52:11Z</time>
      </trkpt>
      <trkpt lat="45.36807" lon="0.91907">
        <ele>192</ele>
        <time>2016-07-04T07:52:16Z</time>
      </trkpt>
      <trkpt lat="45.36809" lon="0.91902">
        <ele>194</ele>
        <time>2016-07-04T07:52:20Z</time>
      </trkpt>
      <trkpt lat="45.36812" lon="0.91896">
        <ele>193</ele>
        <time>2016-07-04T07:52:24Z</time>
      </trkpt>
      <trkpt lat="45.36816" lon="0.91888">
        <ele>192</ele>
        <time>2016-07-04T07:52:28Z</time>
      </trkpt>
      <trkpt lat="45.36816" lon="0.91877">
        <ele>189</ele>
        <time>2016-07-04T07:52:32Z</time>
      </trkpt>
      <trkpt lat="45.36819" lon="0.9187">
        <ele>188</ele>
        <time>2016-07-04T07:52:36Z</time>
      </trkpt>
      <trkpt lat="45.36823" lon="0.91861">
        <ele>191</ele>
        <time>2016-07-04T07:52:41Z</time>
      </trkpt>
      <trkpt lat="45.36826" lon="0.91853">
        <ele>192</ele>
        <time>2016-07-04T07:52:45Z</time>
      </trkpt>
      <trkpt lat="45.36827" lon="0.91849">
        <ele>194</ele>
        <time>2016-07-04T07:52:50Z</time>
      </trkpt>
      <trkpt lat="45.36827" lon="0.91844">
        <ele>192</ele>
        <time>2016-07-04T07:52:55Z</time>
      </trkpt>
      <trkpt lat="45.36831" lon="0.91841">
        <ele>191</ele>
        <time>2016-07-04T07:53:09Z</time>
      </trkpt>
      <trkpt lat="45.36833" lon="0.91837">
        <ele>194</ele>
        <time>2016-07-04T07:53:16Z</time>
      </trkpt>
      <trkpt lat="45.36836" lon="0.91825">
        <ele>194</ele>
        <time>2016-07-04T07:53:21Z</time>
      </trkpt>
      <trkpt lat="45.36839" lon="0.91816">
        <ele>196</ele>
        <time>2016-07-04T07:53:25Z</time>
      </trkpt>
      <trkpt lat="45.36839" lon="0.91809">
        <ele>193</ele>
        <time>2016-07-04T07:53:29Z</time>
      </trkpt>
      <trkpt lat="45.36842" lon="0.91796">
        <ele>194</ele>
        <time>2016-07-04T07:53:34Z</time>
      </trkpt>
      <trkpt lat="45.36842" lon="0.91788">
        <ele>192</ele>
        <time>2016-07-04T07:53:38Z</time>
      </trkpt>
      <trkpt lat="45.36844" lon="0.91777">
        <ele>192</ele>
        <time>2016-07-04T07:53:42Z</time>
      </trkpt>
      <trkpt lat="45.36845" lon="0.91771">
        <ele>194</ele>
        <time>2016-07-04T07:53:47Z</time>
      </trkpt>
      <trkpt lat="45.36846" lon="0.91764">
        <ele>195</ele>
        <time>2016-07-04T07:53:52Z</time>
      </trkpt>
      <trkpt lat="45.36846" lon="0.91759">
        <ele>197</ele>
        <time>2016-07-04T07:53:57Z</time>
      </trkpt>
      <trkpt lat="45.36848" lon="0.91752">
        <ele>197</ele>
        <time>2016-07-04T07:54:01Z</time>
      </trkpt>
      <trkpt lat="45.3685" lon="0.91746">
        <ele>199</ele>
        <time>2016-07-04T07:54:06Z</time>
      </trkpt>
      <trkpt lat="45.3685" lon="0.91739">
        <ele>201</ele>
        <time>2016-07-04T07:54:11Z</time>
      </trkpt>
      <trkpt lat="45.36848" lon="0.91719">
        <ele>196</ele>
        <time>2016-07-04T07:54:16Z</time>
      </trkpt>
      <trkpt lat="45.36847" lon="0.91714">
        <ele>195</ele>
        <time>2016-07-04T07:54:21Z</time>
      </trkpt>
      <trkpt lat="45.36846" lon="0.91703">
        <ele>193</ele>
        <time>2016-07-04T07:54:26Z</time>
      </trkpt>
      <trkpt lat="45.36846" lon="0.91698">
        <ele>190</ele>
        <time>2016-07-04T07:54:38Z</time>
      </trkpt>
      <trkpt lat="45.36848" lon="0.91693">
        <ele>192</ele>
        <time>2016-07-04T07:55:19Z</time>
      </trkpt>
      <trkpt lat="45.36848" lon="0.91687">
        <ele>195</ele>
        <time>2016-07-04T07:55:25Z</time>
      </trkpt>
      <trkpt lat="45.36848" lon="0.91678">
        <ele>194</ele>
        <time>2016-07-04T07:55:29Z</time>
      </trkpt>
      <trkpt lat="45.36848" lon="0.91671">
        <ele>193</ele>
        <time>2016-07-04T07:55:33Z</time>
      </trkpt>
      <trkpt lat="45.36848" lon="0.91663">
        <ele>194</ele>
        <time>2016-07-04T07:55:37Z</time>
      </trkpt>
      <trkpt lat="45.3685" lon="0.91657">
        <ele>194</ele>
        <time>2016-07-04T07:55:41Z</time>
      </trkpt>
      <trkpt lat="45.36853" lon="0.9165">
        <ele>195</ele>
        <time>2016-07-04T07:55:45Z</time>
      </trkpt>
      <trkpt lat="45.36855" lon="0.91641">
        <ele>197</ele>
        <time>2016-07-04T07:55:50Z</time>
      </trkpt>
      <trkpt lat="45.36855" lon="0.91627">
        <ele>192</ele>
        <time>2016-07-04T07:55:55Z</time>
      </trkpt>
      <trkpt lat="45.36856" lon="0.91617">
        <ele>189</ele>
        <time>2016-07-04T07:56:00Z</time>
      </trkpt>
      <trkpt lat="45.36856" lon="0.91611">
        <ele>191</ele>
        <time>2016-07-04T07:56:04Z</time>
      </trkpt>
      <trkpt lat="45.36857" lon="0.91599">
        <ele>190</ele>
        <time>2016-07-04T07:56:09Z</time>
      </trkpt>
      <trkpt lat="45.36853" lon="0.91597">
        <ele>188</ele>
        <time>2016-07-04T07:56:19Z</time>
      </trkpt>
      <trkpt lat="45.3685" lon="0.91593">
        <ele>182</ele>
        <time>2016-07-04T07:57:04Z</time>
      </trkpt>
      <trkpt lat="45.36847" lon="0.91594">
        <ele>184</ele>
        <time>2016-07-04T07:57:32Z</time>
      </trkpt>
      <trkpt lat="45.36846" lon="0.91599">
        <ele>188</ele>
        <time>2016-07-04T07:57:51Z</time>
      </trkpt>
      <trkpt lat="45.36845" lon="0.91607">
        <ele>189</ele>
        <time>2016-07-04T07:57:55Z</time>
      </trkpt>
      <trkpt lat="45.36843" lon="0.91614">
        <ele>186</ele>
        <time>2016-07-04T07:57:59Z</time>
      </trkpt>
      <trkpt lat="45.36844" lon="0.91621">
        <ele>185</ele>
        <time>2016-07-04T07:58:03Z</time>
      </trkpt>
      <trkpt lat="45.36844" lon="0.91631">
        <ele>186</ele>
        <time>2016-07-04T07:58:08Z</time>
      </trkpt>
      <trkpt lat="45.36843" lon="0.9164">
        <ele>186</ele>
        <time>2016-07-04T07:58:12Z</time>
      </trkpt>
      <trkpt lat="45.36843" lon="0.91645">
        <ele>187</ele>
        <time>2016-07-04T07:58:16Z</time>
      </trkpt>
      <trkpt lat="45.36841" lon="0.91651">
        <ele>190</ele>
        <time>2016-07-04T07:58:20Z</time>
      </trkpt>
      <trkpt lat="45.36839" lon="0.91659">
        <ele>192</ele>
        <time>2016-07-04T07:58:25Z</time>
      </trkpt>
      <trkpt lat="45.36837" lon="0.91665">
        <ele>196</ele>
        <time>2016-07-04T07:58:31Z</time>
      </trkpt>
      <trkpt lat="45.36841" lon="0.9167">
        <ele>195</ele>
        <time>2016-07-04T07:58:35Z</time>
      </trkpt>
      <trkpt lat="45.36839" lon="0.91675">
        <ele>199</ele>
        <time>2016-07-04T07:58:43Z</time>
      </trkpt>
      <trkpt lat="45.36838" lon="0.9168">
        <ele>197</ele>
        <time>2016-07-04T07:59:28Z</time>
      </trkpt>
      <trkpt lat="45.36838" lon="0.91694">
        <ele>195</ele>
        <time>2016-07-04T07:59:33Z</time>
      </trkpt>
      <trkpt lat="45.36836" lon="0.91703">
        <ele>191</ele>
        <time>2016-07-04T07:59:37Z</time>
      </trkpt>
      <trkpt lat="45.36836" lon="0.91712">
        <ele>191</ele>
        <time>2016-07-04T07:59:41Z</time>
      </trkpt>
      <trkpt lat="45.36834" lon="0.91719">
        <ele>194</ele>
        <time>2016-07-04T07:59:46Z</time>
      </trkpt>
      <trkpt lat="45.36834" lon="0.91725">
        <ele>196</ele>
        <time>2016-07-04T07:59:51Z</time>
      </trkpt>
      <trkpt lat="45.36831" lon="0.91728">
        <ele>200</ele>
        <time>2016-07-04T07:59:58Z</time>
      </trkpt>
      <trkpt lat="45.36828" lon="0.91739">
        <ele>197</ele>
        <time>2016-07-04T08:00:03Z</time>
      </trkpt>
      <trkpt lat="45.3683" lon="0.91745">
        <ele>195</ele>
        <time>2016-07-04T08:00:33Z</time>
      </trkpt>
      <trkpt lat="45.3683" lon="0.91756">
        <ele>197</ele>
        <time>2016-07-04T08:00:37Z</time>
      </trkpt>
      <trkpt lat="45.36832" lon="0.91761">
        <ele>196</ele>
        <time>2016-07-04T08:00:42Z</time>
      </trkpt>
      <trkpt lat="45.36831" lon="0.91767">
        <ele>195</ele>
        <time>2016-07-04T08:00:46Z</time>
      </trkpt>
      <trkpt lat="45.3683" lon="0.91781">
        <ele>194</ele>
        <time>2016-07-04T08:00:51Z</time>
      </trkpt>
      <trkpt lat="45.3683" lon="0.91789">
        <ele>195</ele>
        <time>2016-07-04T08:00:55Z</time>
      </trkpt>
      <trkpt lat="45.3683" lon="0.91795">
        <ele>197</ele>
        <time>2016-07-04T08:01:02Z</time>
      </trkpt>
      <trkpt lat="45.36829" lon="0.91807">
        <ele>198</ele>
        <time>2016-07-04T08:01:07Z</time>
      </trkpt>
      <trkpt lat="45.36826" lon="0.91817">
        <ele>198</ele>
        <time>2016-07-04T08:01:11Z</time>
      </trkpt>
      <trkpt lat="45.36823" lon="0.91825">
        <ele>198</ele>
        <time>2016-07-04T08:01:15Z</time>
      </trkpt>
      <trkpt lat="45.36821" lon="0.91832">
        <ele>199</ele>
        <time>2016-07-04T08:01:20Z</time>
      </trkpt>
      <trkpt lat="45.36819" lon="0.91837">
        <ele>203</ele>
        <time>2016-07-04T08:01:25Z</time>
      </trkpt>
      <trkpt lat="45.36819" lon="0.91848">
        <ele>201</ele>
        <time>2016-07-04T08:01:30Z</time>
      </trkpt>
      <trkpt lat="45.36818" lon="0.91857">
        <ele>199</ele>
        <time>2016-07-04T08:01:35Z</time>
      </trkpt>
      <trkpt lat="45.36816" lon="0.9187">
        <ele>195</ele>
        <time>2016-07-04T08:01:39Z</time>
      </trkpt>
      <trkpt lat="45.36812" lon="0.91879">
        <ele>194</ele>
        <time>2016-07-04T08:01:43Z</time>
      </trkpt>
      <trkpt lat="45.36807" lon="0.91887">
        <ele>193</ele>
        <time>2016-07-04T08:01:48Z</time>
      </trkpt>
      <trkpt lat="45.36802" lon="0.91892">
        <ele>196</ele>
        <time>2016-07-04T08:01:53Z</time>
      </trkpt>
      <trkpt lat="45.36794" lon="0.91898">
        <ele>194</ele>
        <time>2016-07-04T08:01:57Z</time>
      </trkpt>
      <trkpt lat="45.36792" lon="0.91903">
        <ele>197</ele>
        <time>2016-07-04T08:02:02Z</time>
      </trkpt>
      <trkpt lat="45.36788" lon="0.91908">
        <ele>199</ele>
        <time>2016-07-04T08:02:07Z</time>
      </trkpt>
      <trkpt lat="45.36786" lon="0.91914">
        <ele>200</ele>
        <time>2016-07-04T08:02:11Z</time>
      </trkpt>
      <trkpt lat="45.36778" lon="0.91922">
        <ele>197</ele>
        <time>2016-07-04T08:02:16Z</time>
      </trkpt>
      <trkpt lat="45.36771" lon="0.91931">
        <ele>192</ele>
        <time>2016-07-04T08:02:20Z</time>
      </trkpt>
      <trkpt lat="45.36764" lon="0.91939">
        <ele>189</ele>
        <time>2016-07-04T08:02:25Z</time>
      </trkpt>
      <trkpt lat="45.3676" lon="0.91943">
        <ele>189</ele>
        <time>2016-07-04T08:02:29Z</time>
      </trkpt>
      <trkpt lat="45.36757" lon="0.91948">
        <ele>188</ele>
        <time>2016-07-04T08:02:33Z</time>
      </trkpt>
      <trkpt lat="45.36752" lon="0.91952">
        <ele>188</ele>
        <time>2016-07-04T08:02:37Z</time>
      </trkpt>
      <trkpt lat="45.36747" lon="0.91956">
        <ele>188</ele>
        <time>2016-07-04T08:02:41Z</time>
      </trkpt>
      <trkpt lat="45.36744" lon="0.9196">
        <ele>187</ele>
        <time>2016-07-04T08:02:51Z</time>
      </trkpt>
      <trkpt lat="45.36739" lon="0.91964">
        <ele>185</ele>
        <time>2016-07-04T08:02:56Z</time>
      </trkpt>
      <trkpt lat="45.36737" lon="0.91968">
        <ele>185</ele>
        <time>2016-07-04T08:03:00Z</time>
      </trkpt>
      <trkpt lat="45.36733" lon="0.91972">
        <ele>186</ele>
        <time>2016-07-04T08:03:05Z</time>
      </trkpt>
      <trkpt lat="45.36733" lon="0.91978">
        <ele>185</ele>
        <time>2016-07-04T08:03:22Z</time>
      </trkpt>
      <trkpt lat="45.36736" lon="0.91975">
        <ele>183</ele>
        <time>2016-07-04T08:03:38Z</time>
      </trkpt>
      <trkpt lat="45.36739" lon="0.9197">
        <ele>182</ele>
        <time>2016-07-04T08:03:42Z</time>
      </trkpt>
      <trkpt lat="45.36744" lon="0.91966">
        <ele>182</ele>
        <time>2016-07-04T08:03:47Z</time>
      </trkpt>
      <trkpt lat="45.36748" lon="0.91964">
        <ele>182</ele>
        <time>2016-07-04T08:03:51Z</time>
      </trkpt>
      <trkpt lat="45.36753" lon="0.91958">
        <ele>182</ele>
        <time>2016-07-04T08:03:56Z</time>
      </trkpt>
      <trkpt lat="45.36757" lon="0.91953">
        <ele>184</ele>
        <time>2016-07-04T08:04:01Z</time>
      </trkpt>
      <trkpt lat="45.36762" lon="0.91949">
        <ele>185</ele>
        <time>2016-07-04T08:04:05Z</time>
      </trkpt>
      <trkpt lat="45.36765" lon="0.91948">
        <ele>191</ele>
        <time>2016-07-04T08:04:10Z</time>
      </trkpt>
      <trkpt lat="45.36769" lon="0.91946">
        <ele>194</ele>
        <time>2016-07-04T08:04:15Z</time>
      </trkpt>
      <trkpt lat="45.36773" lon="0.91942">
        <ele>197</ele>
        <time>2016-07-04T08:04:20Z</time>
      </trkpt>
      <trkpt lat="45.36778" lon="0.91934">
        <ele>195</ele>
        <time>2016-07-04T08:04:24Z</time>
      </trkpt>
      <trkpt lat="45.36784" lon="0.91924">
        <ele>195</ele>
        <time>2016-07-04T08:04:29Z</time>
      </trkpt>
      <trkpt lat="45.36787" lon="0.91919">
        <ele>195</ele>
        <time>2016-07-04T08:04:33Z</time>
      </trkpt>
      <trkpt lat="45.3679" lon="0.91915">
        <ele>197</ele>
        <time>2016-07-04T08:04:37Z</time>
      </trkpt>
      <trkpt lat="45.36794" lon="0.91911">
        <ele>199</ele>
        <time>2016-07-04T08:04:42Z</time>
      </trkpt>
      <trkpt lat="45.36797" lon="0.91907">
        <ele>202</ele>
        <time>2016-07-04T08:04:47Z</time>
      </trkpt>
      <trkpt lat="45.36801" lon="0.91902">
        <ele>203</ele>
        <time>2016-07-04T08:04:51Z</time>
      </trkpt>
      <trkpt lat="45.36807" lon="0.91895">
        <ele>203</ele>
        <time>2016-07-04T08:04:56Z</time>
      </trkpt>
      <trkpt lat="45.36811" lon="0.91891">
        <ele>206</ele>
        <time>2016-07-04T08:05:00Z</time>
      </trkpt>
      <trkpt lat="45.36814" lon="0.91887">
        <ele>207</ele>
        <time>2016-07-04T08:05:05Z</time>
      </trkpt>
      <trkpt lat="45.36817" lon="0.91878">
        <ele>206</ele>
        <time>2016-07-04T08:05:09Z</time>
      </trkpt>
      <trkpt lat="45.36819" lon="0.91871">
        <ele>205</ele>
        <time>2016-07-04T08:05:13Z</time>
      </trkpt>
      <trkpt lat="45.36821" lon="0.91862">
        <ele>205</ele>
        <time>2016-07-04T08:05:18Z</time>
      </trkpt>
      <trkpt lat="45.36824" lon="0.91853">
        <ele>203</ele>
        <time>2016-07-04T08:05:22Z</time>
      </trkpt>
      <trkpt lat="45.36825" lon="0.91847">
        <ele>203</ele>
        <time>2016-07-04T08:05:27Z</time>
      </trkpt>
      <trkpt lat="45.36827" lon="0.91842">
        <ele>205</ele>
        <time>2016-07-04T08:05:32Z</time>
      </trkpt>
      <trkpt lat="45.3683" lon="0.91833">
        <ele>203</ele>
        <time>2016-07-04T08:05:37Z</time>
      </trkpt>
      <trkpt lat="45.36831" lon="0.91827">
        <ele>203</ele>
        <time>2016-07-04T08:05:41Z</time>
      </trkpt>
      <trkpt lat="45.36833" lon="0.91818">
        <ele>203</ele>
        <time>2016-07-04T08:05:45Z</time>
      </trkpt>
      <trkpt lat="45.36834" lon="0.9181">
        <ele>201</ele>
        <time>2016-07-04T08:05:49Z</time>
      </trkpt>
      <trkpt lat="45.36837" lon="0.918">
        <ele>201</ele>
        <time>2016-07-04T08:05:53Z</time>
      </trkpt>
      <trkpt lat="45.36838" lon="0.91791">
        <ele>199</ele>
        <time>2016-07-04T08:05:57Z</time>
      </trkpt>
      <trkpt lat="45.3684" lon="0.9178">
        <ele>199</ele>
        <time>2016-07-04T08:06:01Z</time>
      </trkpt>
      <trkpt lat="45.36839" lon="0.91773">
        <ele>198</ele>
        <time>2016-07-04T08:06:05Z</time>
      </trkpt>
      <trkpt lat="45.36838" lon="0.91767">
        <ele>197</ele>
        <time>2016-07-04T08:06:10Z</time>
      </trkpt>
      <trkpt lat="45.36838" lon="0.91757">
        <ele>197</ele>
        <time>2016-07-04T08:06:14Z</time>
      </trkpt>
      <trkpt lat="45.3684" lon="0.91751">
        <ele>196</ele>
        <time>2016-07-04T08:06:19Z</time>
      </trkpt>
      <trkpt lat="45.36841" lon="0.91742">
        <ele>195</ele>
        <time>2016-07-04T08:06:24Z</time>
      </trkpt>
      <trkpt lat="45.36842" lon="0.91732">
        <ele>194</ele>
        <time>2016-07-04T08:06:28Z</time>
      </trkpt>
      <trkpt lat="45.36842" lon="0.91726">
        <ele>190</ele>
        <time>2016-07-04T08:06:32Z</time>
      </trkpt>
      <trkpt lat="45.36843" lon="0.91717">
        <ele>192</ele>
        <time>2016-07-04T08:06:37Z</time>
      </trkpt>
      <trkpt lat="45.36844" lon="0.91711">
        <ele>194</ele>
        <time>2016-07-04T08:06:41Z</time>
      </trkpt>
      <trkpt lat="45.36845" lon="0.91705">
        <ele>195</ele>
        <time>2016-07-04T08:06:45Z</time>
      </trkpt>
      <trkpt lat="45.36845" lon="0.91698">
        <ele>195</ele>
        <time>2016-07-04T08:06:50Z</time>
      </trkpt>
      <trkpt lat="45.36846" lon="0.91687">
        <ele>195</ele>
        <time>2016-07-04T08:06:54Z</time>
      </trkpt>
      <trkpt lat="45.36846" lon="0.91674">
        <ele>195</ele>
        <time>2016-07-04T08:06:58Z</time>
      </trkpt>
      <trkpt lat="45.36847" lon="0.91663">
        <ele>195</ele>
        <time>2016-07-04T08:07:02Z</time>
      </trkpt>
      <trkpt lat="45.36848" lon="0.91655">
        <ele>195</ele>
        <time>2016-07-04T08:07:06Z</time>
      </trkpt>
      <trkpt lat="45.36848" lon="0.91649">
        <ele>195</ele>
        <time>2016-07-04T08:07:10Z</time>
      </trkpt>
      <trkpt lat="45.36848" lon="0.91641">
        <ele>194</ele>
        <time>2016-07-04T08:07:14Z</time>
      </trkpt>
      <trkpt lat="45.3685" lon="0.91628">
        <ele>191</ele>
        <time>2016-07-04T08:07:19Z</time>
      </trkpt>
      <trkpt lat="45.36852" lon="0.91619">
        <ele>192</ele>
        <time>2016-07-04T08:07:23Z</time>
      </trkpt>
      <trkpt lat="45.36852" lon="0.91611">
        <ele>192</ele>
        <time>2016-07-04T08:07:28Z</time>
      </trkpt>
      <trkpt lat="45.36854" lon="0.91605">
        <ele>193</ele>
        <time>2016-07-04T08:07:32Z</time>
      </trkpt>
      <trkpt lat="45.36855" lon="0.91598">
        <ele>193</ele>
        <time>2016-07-04T08:07:36Z</time>
      </trkpt>
      <trkpt lat="45.36856" lon="0.9159">
        <ele>193</ele>
        <time>2016-07-04T08:07:41Z</time>
      </trkpt>
      <trkpt lat="45.36858" lon="0.91581">
        <ele>193</ele>
        <time>2016-07-04T08:07:46Z</time>
      </trkpt>
      <trkpt lat="45.36859" lon="0.91571">
        <ele>192</ele>
        <time>2016-07-04T08:07:50Z</time>
      </trkpt>
      <trkpt lat="45.3686" lon="0.91561">
        <ele>192</ele>
        <time>2016-07-04T08:07:54Z</time>
      </trkpt>
      <trkpt lat="45.36862" lon="0.91555">
        <ele>193</ele>
        <time>2016-07-04T08:07:58Z</time>
      </trkpt>
      <trkpt lat="45.36865" lon="0.91547">
        <ele>198</ele>
        <time>2016-07-04T08:08:03Z</time>
      </trkpt>
      <trkpt lat="45.36866" lon="0.91542">
        <ele>198</ele>
        <time>2016-07-04T08:08:08Z</time>
      </trkpt>
      <trkpt lat="45.36867" lon="0.91535">
        <ele>198</ele>
        <time>2016-07-04T08:08:13Z</time>
      </trkpt>
      <trkpt lat="45.3687" lon="0.91526">
        <ele>199</ele>
        <time>2016-07-04T08:08:17Z</time>
      </trkpt>
      <trkpt lat="45.36871" lon="0.91519">
        <ele>200</ele>
        <time>2016-07-04T08:08:21Z</time>
      </trkpt>
      <trkpt lat="45.36873" lon="0.91511">
        <ele>199</ele>
        <time>2016-07-04T08:08:25Z</time>
      </trkpt>
      <trkpt lat="45.36875" lon="0.91505">
        <ele>200</ele>
        <time>2016-07-04T08:08:30Z</time>
      </trkpt>
      <trkpt lat="45.36879" lon="0.91497">
        <ele>200</ele>
        <time>2016-07-04T08:08:35Z</time>
      </trkpt>
      <trkpt lat="45.36882" lon="0.91488">
        <ele>200</ele>
        <time>2016-07-04T08:08:39Z</time>
      </trkpt>
      <trkpt lat="45.36883" lon="0.91481">
        <ele>199</ele>
        <time>2016-07-04T08:08:43Z</time>
      </trkpt>
      <trkpt lat="45.36886" lon="0.91474">
        <ele>199</ele>
        <time>2016-07-04T08:08:48Z</time>
      </trkpt>
      <trkpt lat="45.36889" lon="0.91464">
        <ele>198</ele>
        <time>2016-07-04T08:08:52Z</time>
      </trkpt>
      <trkpt lat="45.36892" lon="0.91453">
        <ele>196</ele>
        <time>2016-07-04T08:08:57Z</time>
      </trkpt>
      <trkpt lat="45.36895" lon="0.91445">
        <ele>196</ele>
        <time>2016-07-04T08:09:01Z</time>
      </trkpt>
      <trkpt lat="45.36897" lon="0.91439">
        <ele>197</ele>
        <time>2016-07-04T08:09:05Z</time>
      </trkpt>
      <trkpt lat="45.36898" lon="0.91431">
        <ele>196</ele>
        <time>2016-07-04T08:09:09Z</time>
      </trkpt>
      <trkpt lat="45.369" lon="0.91424">
        <ele>195</ele>
        <time>2016-07-04T08:09:14Z</time>
      </trkpt>
      <trkpt lat="45.36904" lon="0.91416">
        <ele>195</ele>
        <time>2016-07-04T08:09:18Z</time>
      </trkpt>
      <trkpt lat="45.36906" lon="0.91409">
        <ele>195</ele>
        <time>2016-07-04T08:09:23Z</time>
      </trkpt>
      <trkpt lat="45.36908" lon="0.91404">
        <ele>195</ele>
        <time>2016-07-04T08:09:27Z</time>
      </trkpt>
      <trkpt lat="45.36911" lon="0.91397">
        <ele>196</ele>
        <time>2016-07-04T08:09:31Z</time>
      </trkpt>
      <trkpt lat="45.36915" lon="0.91383">
        <ele>199</ele>
        <time>2016-07-04T08:09:36Z</time>
      </trkpt>
      <trkpt lat="45.36918" lon="0.91377">
        <ele>198</ele>
        <time>2016-07-04T08:09:40Z</time>
      </trkpt>
      <trkpt lat="45.36923" lon="0.91369">
        <ele>196</ele>
        <time>2016-07-04T08:09:44Z</time>
      </trkpt>
      <trkpt lat="45.36926" lon="0.91363">
        <ele>195</ele>
        <time>2016-07-04T08:09:48Z</time>
      </trkpt>
      <trkpt lat="45.36929" lon="0.91359">
        <ele>195</ele>
        <time>2016-07-04T08:09:52Z</time>
      </trkpt>
      <trkpt lat="45.36932" lon="0.91357">
        <ele>195</ele>
        <time>2016-07-04T08:09:56Z</time>
      </trkpt>
      <trkpt lat="45.36937" lon="0.91351">
        <ele>194</ele>
        <time>2016-07-04T08:10:00Z</time>
      </trkpt>
      <trkpt lat="45.36942" lon="0.9135">
        <ele>199</ele>
        <time>2016-07-04T08:10:05Z</time>
      </trkpt>
      <trkpt lat="45.36946" lon="0.91344">
        <ele>198</ele>
        <time>2016-07-04T08:10:09Z</time>
      </trkpt>
      <trkpt lat="45.3695" lon="0.91341">
        <ele>200</ele>
        <time>2016-07-04T08:10:13Z</time>
      </trkpt>
      <trkpt lat="45.36953" lon="0.91336">
        <ele>203</ele>
        <time>2016-07-04T08:10:17Z</time>
      </trkpt>
      <trkpt lat="45.3696" lon="0.91328">
        <ele>199</ele>
        <time>2016-07-04T08:10:22Z</time>
      </trkpt>
      <trkpt lat="45.36965" lon="0.91321">
        <ele>200</ele>
        <time>2016-07-04T08:10:27Z</time>
      </trkpt>
      <trkpt lat="45.3697" lon="0.91316">
        <ele>197</ele>
        <time>2016-07-04T08:10:31Z</time>
      </trkpt>
      <trkpt lat="45.36974" lon="0.91311">
        <ele>197</ele>
        <time>2016-07-04T08:10:35Z</time>
      </trkpt>
      <trkpt lat="45.36977" lon="0.91305">
        <ele>195</ele>
        <time>2016-07-04T08:10:40Z</time>
      </trkpt>
      <trkpt lat="45.3698" lon="0.91297">
        <ele>193</ele>
        <time>2016-07-04T08:10:44Z</time>
      </trkpt>
      <trkpt lat="45.36981" lon="0.91292">
        <ele>194</ele>
        <time>2016-07-04T08:10:48Z</time>
      </trkpt>
      <trkpt lat="45.36984" lon="0.91285">
        <ele>196</ele>
        <time>2016-07-04T08:10:52Z</time>
      </trkpt>
      <trkpt lat="45.36989" lon="0.91275">
        <ele>195</ele>
        <time>2016-07-04T08:10:57Z</time>
      </trkpt>
      <trkpt lat="45.36993" lon="0.91268">
        <ele>196</ele>
        <time>2016-07-04T08:11:01Z</time>
      </trkpt>
      <trkpt lat="45.36997" lon="0.91264">
        <ele>197</ele>
        <time>2016-07-04T08:11:05Z</time>
      </trkpt>
      <trkpt lat="45.37" lon="0.91258">
        <ele>196</ele>
        <time>2016-07-04T08:11:09Z</time>
      </trkpt>
      <trkpt lat="45.37005" lon="0.91252">
        <ele>195</ele>
        <time>2016-07-04T08:11:14Z</time>
      </trkpt>
      <trkpt lat="45.37008" lon="0.91248">
        <ele>195</ele>
        <time>2016-07-04T08:11:18Z</time>
      </trkpt>
      <trkpt lat="45.3701" lon="0.91242">
        <ele>193</ele>
        <time>2016-07-04T08:11:22Z</time>
      </trkpt>
      <trkpt lat="45.37014" lon="0.91236">
        <ele>193</ele>
        <time>2016-07-04T08:11:26Z</time>
      </trkpt>
      <trkpt lat="45.37018" lon="0.91231">
        <ele>195</ele>
        <time>2016-07-04T08:11:30Z</time>
      </trkpt>
      <trkpt lat="45.37021" lon="0.91224">
        <ele>197</ele>
        <time>2016-07-04T08:11:35Z</time>
      </trkpt>
      <trkpt lat="45.37024" lon="0.91219">
        <ele>201</ele>
        <time>2016-07-04T08:11:39Z</time>
      </trkpt>
      <trkpt lat="45.37026" lon="0.91215">
        <ele>202</ele>
        <time>2016-07-04T08:11:44Z</time>
      </trkpt>
      <trkpt lat="45.37029" lon="0.91209">
        <ele>202</ele>
        <time>2016-07-04T08:11:48Z</time>
      </trkpt>
      <trkpt lat="45.37033" lon="0.91201">
        <ele>200</ele>
        <time>2016-07-04T08:11:53Z</time>
      </trkpt>
      <trkpt lat="45.37036" lon="0.91196">
        <ele>200</ele>
        <time>2016-07-04T08:11:57Z</time>
      </trkpt>
      <trkpt lat="45.37042" lon="0.91186">
        <ele>197</ele>
        <time>2016-07-04T08:12:01Z</time>
      </trkpt>
      <trkpt lat="45.37044" lon="0.91181">
        <ele>200</ele>
        <time>2016-07-04T08:12:05Z</time>
      </trkpt>
      <trkpt lat="45.37047" lon="0.91172">
        <ele>200</ele>
        <time>2016-07-04T08:12:10Z</time>
      </trkpt>
      <trkpt lat="45.3705" lon="0.91166">
        <ele>202</ele>
        <time>2016-07-04T08:12:14Z</time>
      </trkpt>
      <trkpt lat="45.37053" lon="0.91161">
        <ele>203</ele>
        <time>2016-07-04T08:12:18Z</time>
      </trkpt>
      <trkpt lat="45.37056" lon="0.91156">
        <ele>205</ele>
        <time>2016-07-04T08:12:23Z</time>
      </trkpt>
      <trkpt lat="45.3706" lon="0.91151">
        <ele>204</ele>
        <time>2016-07-04T08:12:27Z</time>
      </trkpt>
      <trkpt lat="45.37065" lon="0.91144">
        <ele>205</ele>
        <time>2016-07-04T08:12:32Z</time>
      </trkpt>
      <trkpt lat="45.3707" lon="0.91139">
        <ele>203</ele>
        <time>2016-07-04T08:12:36Z</time>
      </trkpt>
      <trkpt lat="45.37073" lon="0.91132">
        <ele>204</ele>
        <time>2016-07-04T08:12:40Z</time>
      </trkpt>
      <trkpt lat="45.37075" lon="0.91129">
        <ele>206</ele>
        <time>2016-07-04T08:12:44Z</time>
      </trkpt>
      <trkpt lat="45.37081" lon="0.91123">
        <ele>204</ele>
        <time>2016-07-04T08:12:49Z</time>
      </trkpt>
      <trkpt lat="45.37085" lon="0.91119">
        <ele>203</ele>
        <time>2016-07-04T08:12:53Z</time>
      </trkpt>
      <trkpt lat="45.37093" lon="0.91107">
        <ele>201</ele>
        <time>2016-07-04T08:12:58Z</time>
      </trkpt>
      <trkpt lat="45.37097" lon="0.91102">
        <ele>201</ele>
        <time>2016-07-04T08:13:02Z</time>
      </trkpt>
      <trkpt lat="45.371" lon="0.91099">
        <ele>202</ele>
        <time>2016-07-04T08:13:07Z</time>
      </trkpt>
      <trkpt lat="45.37101" lon="0.91095">
        <ele>205</ele>
        <time>2016-07-04T08:13:11Z</time>
      </trkpt>
      <trkpt lat="45.37106" lon="0.9109">
        <ele>204</ele>
        <time>2016-07-04T08:13:15Z</time>
      </trkpt>
      <trkpt lat="45.37113" lon="0.9108">
        <ele>205</ele>
        <time>2016-07-04T08:13:20Z</time>
      </trkpt>
      <trkpt lat="45.37117" lon="0.91075">
        <ele>204</ele>
        <time>2016-07-04T08:13:24Z</time>
      </trkpt>
      <trkpt lat="45.37123" lon="0.91066">
        <ele>205</ele>
        <time>2016-07-04T08:13:29Z</time>
      </trkpt>
      <trkpt lat="45.37127" lon="0.91061">
        <ele>203</ele>
        <time>2016-07-04T08:13:34Z</time>
      </trkpt>
      <trkpt lat="45.37132" lon="0.91058">
        <ele>202</ele>
        <time>2016-07-04T08:13:38Z</time>
      </trkpt>
      <trkpt lat="45.37136" lon="0.9105">
        <ele>201</ele>
        <time>2016-07-04T08:13:42Z</time>
      </trkpt>
      <trkpt lat="45.37138" lon="0.91045">
        <ele>202</ele>
        <time>2016-07-04T08:13:46Z</time>
      </trkpt>
      <trkpt lat="45.37142" lon="0.91037">
        <ele>201</ele>
        <time>2016-07-04T08:13:50Z</time>
      </trkpt>
      <trkpt lat="45.37146" lon="0.91029">
        <ele>200</ele>
        <time>2016-07-04T08:13:55Z</time>
      </trkpt>
      <trkpt lat="45.3715" lon="0.91024">
        <ele>202</ele>
        <time>2016-07-04T08:13:59Z</time>
      </trkpt>
      <trkpt lat="45.37153" lon="0.91021">
        <ele>204</ele>
        <time>2016-07-04T08:14:04Z</time>
      </trkpt>
      <trkpt lat="45.37158" lon="0.91016">
        <ele>203</ele>
        <time>2016-07-04T08:14:09Z</time>
      </trkpt>
      <trkpt lat="45.37164" lon="0.91006">
        <ele>202</ele>
        <time>2016-07-04T08:14:13Z</time>
      </trkpt>
      <trkpt lat="45.37165" lon="0.91001">
        <ele>203</ele>
        <time>2016-07-04T08:14:17Z</time>
      </trkpt>
      <trkpt lat="45.37169" lon="0.90996">
        <ele>203</ele>
        <time>2016-07-04T08:14:21Z</time>
      </trkpt>
      <trkpt lat="45.37174" lon="0.90989">
        <ele>204</ele>
        <time>2016-07-04T08:14:26Z</time>
      </trkpt>
      <trkpt lat="45.37176" lon="0.90985">
        <ele>204</ele>
        <time>2016-07-04T08:14:30Z</time>
      </trkpt>
      <trkpt lat="45.37179" lon="0.90976">
        <ele>201</ele>
        <time>2016-07-04T08:14:35Z</time>
      </trkpt>
      <trkpt lat="45.37182" lon="0.90967">
        <ele>201</ele>
        <time>2016-07-04T08:14:39Z</time>
      </trkpt>
      <trkpt lat="45.37186" lon="0.90958">
        <ele>201</ele>
        <time>2016-07-04T08:14:44Z</time>
      </trkpt>
      <trkpt lat="45.37188" lon="0.9095">
        <ele>203</ele>
        <time>2016-07-04T08:14:49Z</time>
      </trkpt>
      <trkpt lat="45.3719" lon="0.90944">
        <ele>203</ele>
        <time>2016-07-04T08:14:53Z</time>
      </trkpt>
      <trkpt lat="45.37191" lon="0.90939">
        <ele>202</ele>
        <time>2016-07-04T08:15:00Z</time>
      </trkpt>
      <trkpt lat="45.37194" lon="0.90925">
        <ele>199</ele>
        <time>2016-07-04T08:15:05Z</time>
      </trkpt>
      <trkpt lat="45.37197" lon="0.90913">
        <ele>198</ele>
        <time>2016-07-04T08:15:10Z</time>
      </trkpt>
      <trkpt lat="45.37198" lon="0.90907">
        <ele>198</ele>
        <time>2016-07-04T08:15:14Z</time>
      </trkpt>
      <trkpt lat="45.37201" lon="0.909">
        <ele>201</ele>
        <time>2016-07-04T08:15:18Z</time>
      </trkpt>
      <trkpt lat="45.37204" lon="0.9089">
        <ele>201</ele>
        <time>2016-07-04T08:15:23Z</time>
      </trkpt>
      <trkpt lat="45.37207" lon="0.90878">
        <ele>201</ele>
        <time>2016-07-04T08:15:28Z</time>
      </trkpt>
      <trkpt lat="45.37209" lon="0.90872">
        <ele>200</ele>
        <time>2016-07-04T08:15:32Z</time>
      </trkpt>
      <trkpt lat="45.37208" lon="0.90866">
        <ele>199</ele>
        <time>2016-07-04T08:15:36Z</time>
      </trkpt>
      <trkpt lat="45.37211" lon="0.90855">
        <ele>198</ele>
        <time>2016-07-04T08:15:40Z</time>
      </trkpt>
      <trkpt lat="45.37214" lon="0.90844">
        <ele>200</ele>
        <time>2016-07-04T08:15:45Z</time>
      </trkpt>
      <trkpt lat="45.37216" lon="0.90837">
        <ele>201</ele>
        <time>2016-07-04T08:15:49Z</time>
      </trkpt>
      <trkpt lat="45.37216" lon="0.90828">
        <ele>202</ele>
        <time>2016-07-04T08:15:54Z</time>
      </trkpt>
      <trkpt lat="45.37215" lon="0.90819">
        <ele>199</ele>
        <time>2016-07-04T08:15:58Z</time>
      </trkpt>
      <trkpt lat="45.37216" lon="0.90811">
        <ele>197</ele>
        <time>2016-07-04T08:16:02Z</time>
      </trkpt>
      <trkpt lat="45.37218" lon="0.90801">
        <ele>196</ele>
        <time>2016-07-04T08:16:07Z</time>
      </trkpt>
      <trkpt lat="45.3722" lon="0.9079">
        <ele>199</ele>
        <time>2016-07-04T08:16:12Z</time>
      </trkpt>
      <trkpt lat="45.37223" lon="0.90781">
        <ele>198</ele>
        <time>2016-07-04T08:16:16Z</time>
      </trkpt>
      <trkpt lat="45.37223" lon="0.90773">
        <ele>198</ele>
        <time>2016-07-04T08:16:21Z</time>
      </trkpt>
      <trkpt lat="45.37224" lon="0.90765">
        <ele>199</ele>
        <time>2016-07-04T08:16:25Z</time>
      </trkpt>
      <trkpt lat="45.37224" lon="0.90757">
        <ele>199</ele>
        <time>2016-07-04T08:16:29Z</time>
      </trkpt>
      <trkpt lat="45.37223" lon="0.9075">
        <ele>198</ele>
        <time>2016-07-04T08:16:34Z</time>
      </trkpt>
      <trkpt lat="45.37222" lon="0.90742">
        <ele>197</ele>
        <time>2016-07-04T08:16:38Z</time>
      </trkpt>
      <trkpt lat="45.37222" lon="0.90735">
        <ele>196</ele>
        <time>2016-07-04T08:16:42Z</time>
      </trkpt>
      <trkpt lat="45.37221" lon="0.90726">
        <ele>196</ele>
        <time>2016-07-04T08:16:47Z</time>
      </trkpt>
      <trkpt lat="45.37222" lon="0.90718">
        <ele>197</ele>
        <time>2016-07-04T08:16:52Z</time>
      </trkpt>
      <trkpt lat="45.3722" lon="0.90709">
        <ele>194</ele>
        <time>2016-07-04T08:16:56Z</time>
      </trkpt>
      <trkpt lat="45.37218" lon="0.90702">
        <ele>191</ele>
        <time>2016-07-04T08:17:00Z</time>
      </trkpt>
      <trkpt lat="45.37219" lon="0.90698">
        <ele>192</ele>
        <time>2016-07-04T08:17:06Z</time>
      </trkpt>
      <trkpt lat="45.37222" lon="0.90693">
        <ele>193</ele>
        <time>2016-07-04T08:17:10Z</time>
      </trkpt>
      <trkpt lat="45.37226" lon="0.90687">
        <ele>195</ele>
        <time>2016-07-04T08:17:14Z</time>
      </trkpt>
      <trkpt lat="45.37229" lon="0.90683">
        <ele>197</ele>
        <time>2016-07-04T08:17:21Z</time>
      </trkpt>
      <trkpt lat="45.37233" lon="0.90676">
        <ele>198</ele>
        <time>2016-07-04T08:17:26Z</time>
      </trkpt>
      <trkpt lat="45.37237" lon="0.90668">
        <ele>198</ele>
        <time>2016-07-04T08:17:30Z</time>
      </trkpt>
      <trkpt lat="45.37241" lon="0.90661">
        <ele>198</ele>
        <time>2016-07-04T08:17:35Z</time>
      </trkpt>
      <trkpt lat="45.37244" lon="0.90653">
        <ele>196</ele>
        <time>2016-07-04T08:17:40Z</time>
      </trkpt>
      <trkpt lat="45.37249" lon="0.90645">
        <ele>198</ele>
        <time>2016-07-04T08:17:45Z</time>
      </trkpt>
      <trkpt lat="45.37255" lon="0.90635">
        <ele>198</ele>
        <time>2016-07-04T08:17:49Z</time>
      </trkpt>
      <trkpt lat="45.37259" lon="0.90629">
        <ele>196</ele>
        <time>2016-07-04T08:17:53Z</time>
      </trkpt>
      <trkpt lat="45.37262" lon="0.90624">
        <ele>195</ele>
        <time>2016-07-04T08:17:58Z</time>
      </trkpt>
      <trkpt lat="45.37265" lon="0.90619">
        <ele>198</ele>
        <time>2016-07-04T08:18:02Z</time>
      </trkpt>
      <trkpt lat="45.3727" lon="0.90615">
        <ele>200</ele>
        <time>2016-07-04T08:18:06Z</time>
      </trkpt>
      <trkpt lat="45.37277" lon="0.90612">
        <ele>200</ele>
        <time>2016-07-04T08:18:11Z</time>
      </trkpt>
      <trkpt lat="45.37283" lon="0.9061">
        <ele>199</ele>
        <time>2016-07-04T08:18:15Z</time>
      </trkpt>
      <trkpt lat="45.37287" lon="0.90612">
        <ele>200</ele>
        <time>2016-07-04T08:18:19Z</time>
      </trkpt>
      <trkpt lat="45.37291" lon="0.90615">
        <ele>199</ele>
        <time>2016-07-04T08:18:23Z</time>
      </trkpt>
      <trkpt lat="45.37295" lon="0.9062">
        <ele>199</ele>
        <time>2016-07-04T08:18:27Z</time>
      </trkpt>
      <trkpt lat="45.37303" lon="0.90611">
        <ele>198</ele>
        <time>2016-07-04T08:18:32Z</time>
      </trkpt>
      <trkpt lat="45.37308" lon="0.9061">
        <ele>200</ele>
        <time>2016-07-04T08:18:37Z</time>
      </trkpt>
      <trkpt lat="45.37313" lon="0.90607">
        <ele>199</ele>
        <time>2016-07-04T08:18:41Z</time>
      </trkpt>
      <trkpt lat="45.37318" lon="0.90607">
        <ele>199</ele>
        <time>2016-07-04T08:18:46Z</time>
      </trkpt>
      <trkpt lat="45.37324" lon="0.90603">
        <ele>201</ele>
        <time>2016-07-04T08:18:51Z</time>
      </trkpt>
      <trkpt lat="45.37327" lon="0.90601">
        <ele>205</ele>
        <time>2016-07-04T08:18:58Z</time>
      </trkpt>
      <trkpt lat="45.37333" lon="0.90599">
        <ele>205</ele>
        <time>2016-07-04T08:19:02Z</time>
      </trkpt>
      <trkpt lat="45.37338" lon="0.90594">
        <ele>205</ele>
        <time>2016-07-04T08:19:07Z</time>
      </trkpt>
      <trkpt lat="45.37342" lon="0.90592">
        <ele>205</ele>
        <time>2016-07-04T08:19:13Z</time>
      </trkpt>
      <trkpt lat="45.37341" lon="0.90598">
        <ele>206</ele>
        <time>2016-07-04T08:19:30Z</time>
      </trkpt>
      <trkpt lat="45.37342" lon="0.90603">
        <ele>206</ele>
        <time>2016-07-04T08:19:35Z</time>
      </trkpt>
      <trkpt lat="45.37343" lon="0.90609">
        <ele>207</ele>
        <time>2016-07-04T08:19:39Z</time>
      </trkpt>
      <trkpt lat="45.37345" lon="0.90617">
        <ele>204</ele>
        <time>2016-07-04T08:19:43Z</time>
      </trkpt>
      <trkpt lat="45.37345" lon="0.90626">
        <ele>204</ele>
        <time>2016-07-04T08:19:48Z</time>
      </trkpt>
      <trkpt lat="45.37347" lon="0.90634">
        <ele>204</ele>
        <time>2016-07-04T08:19:52Z</time>
      </trkpt>
      <trkpt lat="45.37348" lon="0.90642">
        <ele>204</ele>
        <time>2016-07-04T08:19:56Z</time>
      </trkpt>
      <trkpt lat="45.37349" lon="0.90649">
        <ele>204</ele>
        <time>2016-07-04T08:20:00Z</time>
      </trkpt>
      <trkpt lat="45.37351" lon="0.90656">
        <ele>204</ele>
        <time>2016-07-04T08:20:04Z</time>
      </trkpt>
      <trkpt lat="45.37353" lon="0.90663">
        <ele>203</ele>
        <time>2016-07-04T08:20:08Z</time>
      </trkpt>
      <trkpt lat="45.37355" lon="0.90671">
        <ele>203</ele>
        <time>2016-07-04T08:20:13Z</time>
      </trkpt>
      <trkpt lat="45.37356" lon="0.9068">
        <ele>203</ele>
        <time>2016-07-04T08:20:17Z</time>
      </trkpt>
      <trkpt lat="45.37359" lon="0.90691">
        <ele>202</ele>
        <time>2016-07-04T08:20:22Z</time>
      </trkpt>
      <trkpt lat="45.37361" lon="0.90699">
        <ele>201</ele>
        <time>2016-07-04T08:20:26Z</time>
      </trkpt>
      <trkpt lat="45.37362" lon="0.90705">
        <ele>200</ele>
        <time>2016-07-04T08:20:30Z</time>
      </trkpt>
      <trkpt lat="45.37364" lon="0.90714">
        <ele>198</ele>
        <time>2016-07-04T08:20:35Z</time>
      </trkpt>
      <trkpt lat="45.37366" lon="0.90722">
        <ele>198</ele>
        <time>2016-07-04T08:20:40Z</time>
      </trkpt>
      <trkpt lat="45.37368" lon="0.9073">
        <ele>198</ele>
        <time>2016-07-04T08:20:45Z</time>
      </trkpt>
      <trkpt lat="45.37372" lon="0.9073">
        <ele>196</ele>
        <time>2016-07-04T08:20:51Z</time>
      </trkpt>
      <trkpt lat="45.37375" lon="0.90727">
        <ele>195</ele>
        <time>2016-07-04T08:20:55Z</time>
      </trkpt>
      <trkpt lat="45.3738" lon="0.90722">
        <ele>195</ele>
        <time>2016-07-04T08:21:00Z</time>
      </trkpt>
      <trkpt lat="45.37385" lon="0.90722">
        <ele>197</ele>
        <time>2016-07-04T08:21:05Z</time>
      </trkpt>
      <trkpt lat="45.37389" lon="0.90719">
        <ele>197</ele>
        <time>2016-07-04T08:21:10Z</time>
      </trkpt>
      <trkpt lat="45.37393" lon="0.9072">
        <ele>198</ele>
        <time>2016-07-04T08:21:16Z</time>
      </trkpt>
      <trkpt lat="45.37398" lon="0.9072">
        <ele>198</ele>
        <time>2016-07-04T08:21:20Z</time>
      </trkpt>
      <trkpt lat="45.374" lon="0.90723">
        <ele>198</ele>
        <time>2016-07-04T08:21:26Z</time>
      </trkpt>
      <trkpt lat="45.37403" lon="0.90728">
        <ele>199</ele>
        <time>2016-07-04T08:21:30Z</time>
      </trkpt>
      <trkpt lat="45.37404" lon="0.90734">
        <ele>203</ele>
        <time>2016-07-04T08:21:38Z</time>
      </trkpt>
      <trkpt lat="45.37405" lon="0.9074">
        <ele>204</ele>
        <time>2016-07-04T08:21:43Z</time>
      </trkpt>
      <trkpt lat="45.37407" lon="0.90748">
        <ele>205</ele>
        <time>2016-07-04T08:21:48Z</time>
      </trkpt>
      <trkpt lat="45.3741" lon="0.90756">
        <ele>205</ele>
        <time>2016-07-04T08:21:52Z</time>
      </trkpt>
      <trkpt lat="45.37413" lon="0.90764">
        <ele>205</ele>
        <time>2016-07-04T08:21:56Z</time>
      </trkpt>
      <trkpt lat="45.37416" lon="0.90771">
        <ele>204</ele>
        <time>2016-07-04T08:22:00Z</time>
      </trkpt>
      <trkpt lat="45.3742" lon="0.90781">
        <ele>204</ele>
        <time>2016-07-04T08:22:05Z</time>
      </trkpt>
      <trkpt lat="45.37424" lon="0.9079">
        <ele>202</ele>
        <time>2016-07-04T08:22:10Z</time>
      </trkpt>
      <trkpt lat="45.37428" lon="0.90797">
        <ele>202</ele>
        <time>2016-07-04T08:22:14Z</time>
      </trkpt>
      <trkpt lat="45.3743" lon="0.90804">
        <ele>201</ele>
        <time>2016-07-04T08:22:18Z</time>
      </trkpt>
      <trkpt lat="45.37432" lon="0.90811">
        <ele>201</ele>
        <time>2016-07-04T08:22:22Z</time>
      </trkpt>
      <trkpt lat="45.37435" lon="0.90818">
        <ele>200</ele>
        <time>2016-07-04T08:22:26Z</time>
      </trkpt>
      <trkpt lat="45.37439" lon="0.90828">
        <ele>200</ele>
        <time>2016-07-04T08:22:31Z</time>
      </trkpt>
      <trkpt lat="45.37443" lon="0.90838">
        <ele>199</ele>
        <time>2016-07-04T08:22:36Z</time>
      </trkpt>
      <trkpt lat="45.37446" lon="0.90845">
        <ele>198</ele>
        <time>2016-07-04T08:22:40Z</time>
      </trkpt>
      <trkpt lat="45.37449" lon="0.90851">
        <ele>199</ele>
        <time>2016-07-04T08:22:44Z</time>
      </trkpt>
      <trkpt lat="45.37452" lon="0.90857">
        <ele>201</ele>
        <time>2016-07-04T08:22:49Z</time>
      </trkpt>
      <trkpt lat="45.37455" lon="0.90863">
        <ele>201</ele>
        <time>2016-07-04T08:22:53Z</time>
      </trkpt>
      <trkpt lat="45.37458" lon="0.90872">
        <ele>202</ele>
        <time>2016-07-04T08:22:58Z</time>
      </trkpt>
      <trkpt lat="45.37461" lon="0.90878">
        <ele>203</ele>
        <time>2016-07-04T08:23:02Z</time>
      </trkpt>
      <trkpt lat="45.37463" lon="0.90887">
        <ele>203</ele>
        <time>2016-07-04T08:23:07Z</time>
      </trkpt>
      <trkpt lat="45.37464" lon="0.90894">
        <ele>203</ele>
        <time>2016-07-04T08:23:11Z</time>
      </trkpt>
      <trkpt lat="45.37466" lon="0.90903">
        <ele>202</ele>
        <time>2016-07-04T08:23:15Z</time>
      </trkpt>
      <trkpt lat="45.37468" lon="0.90909">
        <ele>206</ele>
        <time>2016-07-04T08:23:20Z</time>
      </trkpt>
      <trkpt lat="45.37471" lon="0.90918">
        <ele>207</ele>
        <time>2016-07-04T08:23:25Z</time>
      </trkpt>
      <trkpt lat="45.37473" lon="0.90928">
        <ele>205</ele>
        <time>2016-07-04T08:23:30Z</time>
      </trkpt>
      <trkpt lat="45.37474" lon="0.90936">
        <ele>207</ele>
        <time>2016-07-04T08:23:34Z</time>
      </trkpt>
      <trkpt lat="45.37477" lon="0.90943">
        <ele>207</ele>
        <time>2016-07-04T08:23:38Z</time>
      </trkpt>
      <trkpt lat="45.37479" lon="0.90952">
        <ele>207</ele>
        <time>2016-07-04T08:23:43Z</time>
      </trkpt>
      <trkpt lat="45.37481" lon="0.90959">
        <ele>207</ele>
        <time>2016-07-04T08:23:47Z</time>
      </trkpt>
      <trkpt lat="45.37484" lon="0.90968">
        <ele>207</ele>
        <time>2016-07-04T08:23:52Z</time>
      </trkpt>
      <trkpt lat="45.37486" lon="0.90976">
        <ele>206</ele>
        <time>2016-07-04T08:23:56Z</time>
      </trkpt>
      <trkpt lat="45.37488" lon="0.90985">
        <ele>205</ele>
        <time>2016-07-04T08:24:00Z</time>
      </trkpt>
      <trkpt lat="45.3749" lon="0.90991">
        <ele>206</ele>
        <time>2016-07-04T08:24:04Z</time>
      </trkpt>
      <trkpt lat="45.37491" lon="0.90998">
        <ele>207</ele>
        <time>2016-07-04T08:24:08Z</time>
      </trkpt>
      <trkpt lat="45.37493" lon="0.91005">
        <ele>206</ele>
        <time>2016-07-04T08:24:12Z</time>
      </trkpt>
      <trkpt lat="45.37495" lon="0.91014">
        <ele>205</ele>
        <time>2016-07-04T08:24:17Z</time>
      </trkpt>
      <trkpt lat="45.37497" lon="0.91022">
        <ele>205</ele>
        <time>2016-07-04T08:24:21Z</time>
      </trkpt>
      <trkpt lat="45.37498" lon="0.91028">
        <ele>207</ele>
        <time>2016-07-04T08:24:26Z</time>
      </trkpt>
      <trkpt lat="45.37499" lon="0.91036">
        <ele>208</ele>
        <time>2016-07-04T08:24:31Z</time>
      </trkpt>
      <trkpt lat="45.37502" lon="0.91044">
        <ele>209</ele>
        <time>2016-07-04T08:24:35Z</time>
      </trkpt>
      <trkpt lat="45.37505" lon="0.91052">
        <ele>209</ele>
        <time>2016-07-04T08:24:40Z</time>
      </trkpt>
      <trkpt lat="45.37506" lon="0.91059">
        <ele>211</ele>
        <time>2016-07-04T08:24:45Z</time>
      </trkpt>
      <trkpt lat="45.37508" lon="0.91064">
        <ele>213</ele>
        <time>2016-07-04T08:24:49Z</time>
      </trkpt>
      <trkpt lat="45.37511" lon="0.91069">
        <ele>215</ele>
        <time>2016-07-04T08:24:53Z</time>
      </trkpt>
      <trkpt lat="45.37511" lon="0.91078">
        <ele>214</ele>
        <time>2016-07-04T08:24:58Z</time>
      </trkpt>
      <trkpt lat="45.37513" lon="0.91085">
        <ele>214</ele>
        <time>2016-07-04T08:25:02Z</time>
      </trkpt>
      <trkpt lat="45.37516" lon="0.91096">
        <ele>213</ele>
        <time>2016-07-04T08:25:07Z</time>
      </trkpt>
      <trkpt lat="45.37517" lon="0.91108">
        <ele>211</ele>
        <time>2016-07-04T08:25:12Z</time>
      </trkpt>
      <trkpt lat="45.3752" lon="0.91114">
        <ele>211</ele>
        <time>2016-07-04T08:25:16Z</time>
      </trkpt>
      <trkpt lat="45.37522" lon="0.91122">
        <ele>215</ele>
        <time>2016-07-04T08:25:21Z</time>
      </trkpt>
      <trkpt lat="45.37522" lon="0.91127">
        <ele>217</ele>
        <time>2016-07-04T08:25:26Z</time>
      </trkpt>
      <trkpt lat="45.37521" lon="0.91134">
        <ele>217</ele>
        <time>2016-07-04T08:25:30Z</time>
      </trkpt>
      <trkpt lat="45.37522" lon="0.91144">
        <ele>217</ele>
        <time>2016-07-04T08:25:34Z</time>
      </trkpt>
      <trkpt lat="45.37519" lon="0.91151">
        <ele>215</ele>
        <time>2016-07-04T08:25:38Z</time>
      </trkpt>
      <trkpt lat="45.37519" lon="0.91156">
        <ele>216</ele>
        <time>2016-07-04T08:25:42Z</time>
      </trkpt>
      <trkpt lat="45.3752" lon="0.91167">
        <ele>214</ele>
        <time>2016-07-04T08:25:46Z</time>
      </trkpt>
      <trkpt lat="45.3752" lon="0.91177">
        <ele>214</ele>
        <time>2016-07-04T08:25:51Z</time>
      </trkpt>
      <trkpt lat="45.37522" lon="0.91185">
        <ele>211</ele>
        <time>2016-07-04T08:25:55Z</time>
      </trkpt>
      <trkpt lat="45.3752" lon="0.91192">
        <ele>209</ele>
        <time>2016-07-04T08:25:59Z</time>
      </trkpt>
      <trkpt lat="45.3752" lon="0.91198">
        <ele>208</ele>
        <time>2016-07-04T08:26:03Z</time>
      </trkpt>
      <trkpt lat="45.37519" lon="0.91209">
        <ele>208</ele>
        <time>2016-07-04T08:26:08Z</time>
      </trkpt>
      <trkpt lat="45.37519" lon="0.91217">
        <ele>205</ele>
        <time>2016-07-04T08:26:12Z</time>
      </trkpt>
      <trkpt lat="45.3752" lon="0.91223">
        <ele>207</ele>
        <time>2016-07-04T08:26:17Z</time>
      </trkpt>
      <trkpt lat="45.37518" lon="0.91229">
        <ele>205</ele>
        <time>2016-07-04T08:26:22Z</time>
      </trkpt>
      <trkpt lat="45.37519" lon="0.91241">
        <ele>204</ele>
        <time>2016-07-04T08:26:27Z</time>
      </trkpt>
      <trkpt lat="45.37519" lon="0.91253">
        <ele>199</ele>
        <time>2016-07-04T08:26:31Z</time>
      </trkpt>
      <trkpt lat="45.37516" lon="0.91263">
        <ele>198</ele>
        <time>2016-07-04T08:26:36Z</time>
      </trkpt>
      <trkpt lat="45.37515" lon="0.91271">
        <ele>196</ele>
        <time>2016-07-04T08:26:40Z</time>
      </trkpt>
      <trkpt lat="45.37514" lon="0.9128">
        <ele>194</ele>
        <time>2016-07-04T08:26:44Z</time>
      </trkpt>
      <trkpt lat="45.37511" lon="0.91293">
        <ele>193</ele>
        <time>2016-07-04T08:26:49Z</time>
      </trkpt>
      <trkpt lat="45.37511" lon="0.91303">
        <ele>191</ele>
        <time>2016-07-04T08:26:53Z</time>
      </trkpt>
      <trkpt lat="45.3751" lon="0.91312">
        <ele>192</ele>
        <time>2016-07-04T08:26:57Z</time>
      </trkpt>
      <trkpt lat="45.37509" lon="0.91321">
        <ele>192</ele>
        <time>2016-07-04T08:27:01Z</time>
      </trkpt>
      <trkpt lat="45.37509" lon="0.91332">
        <ele>192</ele>
        <time>2016-07-04T08:27:06Z</time>
      </trkpt>
      <trkpt lat="45.37511" lon="0.91342">
        <ele>190</ele>
        <time>2016-07-04T08:27:10Z</time>
      </trkpt>
      <trkpt lat="45.37511" lon="0.9135">
        <ele>189</ele>
        <time>2016-07-04T08:27:14Z</time>
      </trkpt>
      <trkpt lat="45.37511" lon="0.91358">
        <ele>187</ele>
        <time>2016-07-04T08:27:18Z</time>
      </trkpt>
      <trkpt lat="45.3751" lon="0.91366">
        <ele>187</ele>
        <time>2016-07-04T08:27:22Z</time>
      </trkpt>
      <trkpt lat="45.37509" lon="0.91376">
        <ele>188</ele>
        <time>2016-07-04T08:27:27Z</time>
      </trkpt>
      <trkpt lat="45.37508" lon="0.91384">
        <ele>188</ele>
        <time>2016-07-04T08:27:32Z</time>
      </trkpt>
      <trkpt lat="45.37508" lon="0.91392">
        <ele>188</ele>
        <time>2016-07-04T08:27:36Z</time>
      </trkpt>
      <trkpt lat="45.37509" lon="0.91402">
        <ele>189</ele>
        <time>2016-07-04T08:27:41Z</time>
      </trkpt>
      <trkpt lat="45.37509" lon="0.91411">
        <ele>189</ele>
        <time>2016-07-04T08:27:45Z</time>
      </trkpt>
      <trkpt lat="45.37511" lon="0.91421">
        <ele>189</ele>
        <time>2016-07-04T08:27:50Z</time>
      </trkpt>
      <trkpt lat="45.37511" lon="0.91428">
        <ele>189</ele>
        <time>2016-07-04T08:27:54Z</time>
      </trkpt>
      <trkpt lat="45.37512" lon="0.91438">
        <ele>189</ele>
        <time>2016-07-04T08:27:59Z</time>
      </trkpt>
      <trkpt lat="45.37513" lon="0.91449">
        <ele>189</ele>
        <time>2016-07-04T08:28:04Z</time>
      </trkpt>
      <trkpt lat="45.37513" lon="0.91457">
        <ele>189</ele>
        <time>2016-07-04T08:28:08Z</time>
      </trkpt>
      <trkpt lat="45.37514" lon="0.91463">
        <ele>190</ele>
        <time>2016-07-04T08:28:12Z</time>
      </trkpt>
      <trkpt lat="45.37514" lon="0.91468">
        <ele>192</ele>
        <time>2016-07-04T08:28:16Z</time>
      </trkpt>
      <trkpt lat="45.37514" lon="0.91477">
        <ele>192</ele>
        <time>2016-07-04T08:28:21Z</time>
      </trkpt>
      <trkpt lat="45.37515" lon="0.91486">
        <ele>192</ele>
        <time>2016-07-04T08:28:25Z</time>
      </trkpt>
      <trkpt lat="45.37514" lon="0.91491">
        <ele>194</ele>
        <time>2016-07-04T08:28:30Z</time>
      </trkpt>
      <trkpt lat="45.37515" lon="0.91497">
        <ele>194</ele>
        <time>2016-07-04T08:28:34Z</time>
      </trkpt>
      <trkpt lat="45.37514" lon="0.91504">
        <ele>196</ele>
        <time>2016-07-04T08:28:38Z</time>
      </trkpt>
      <trkpt lat="45.37515" lon="0.91516">
        <ele>196</ele>
        <time>2016-07-04T08:28:43Z</time>
      </trkpt>
      <trkpt lat="45.37515" lon="0.91525">
        <ele>197</ele>
        <time>2016-07-04T08:28:47Z</time>
      </trkpt>
      <trkpt lat="45.37516" lon="0.91536">
        <ele>197</ele>
        <time>2016-07-04T08:28:52Z</time>
      </trkpt>
      <trkpt lat="45.37517" lon="0.91543">
        <ele>197</ele>
        <time>2016-07-04T08:28:56Z</time>
      </trkpt>
      <trkpt lat="45.37518" lon="0.91554">
        <ele>197</ele>
        <time>2016-07-04T08:29:01Z</time>
      </trkpt>
      <trkpt lat="45.37519" lon="0.91562">
        <ele>196</ele>
        <time>2016-07-04T08:29:05Z</time>
      </trkpt>
      <trkpt lat="45.3752" lon="0.91571">
        <ele>196</ele>
        <time>2016-07-04T08:29:09Z</time>
      </trkpt>
      <trkpt lat="45.37521" lon="0.91582">
        <ele>195</ele>
        <time>2016-07-04T08:29:14Z</time>
      </trkpt>
      <trkpt lat="45.37522" lon="0.9159">
        <ele>194</ele>
        <time>2016-07-04T08:29:18Z</time>
      </trkpt>
      <trkpt lat="45.37523" lon="0.91599">
        <ele>194</ele>
        <time>2016-07-04T08:29:22Z</time>
      </trkpt>
      <trkpt lat="45.37525" lon="0.91609">
        <ele>193</ele>
        <time>2016-07-04T08:29:27Z</time>
      </trkpt>
      <trkpt lat="45.37526" lon="0.91617">
        <ele>192</ele>
        <time>2016-07-04T08:29:31Z</time>
      </trkpt>
      <trkpt lat="45.37526" lon="0.91627">
        <ele>192</ele>
        <time>2016-07-04T08:29:36Z</time>
      </trkpt>
      <trkpt lat="45.37526" lon="0.91638">
        <ele>190</ele>
        <time>2016-07-04T08:29:41Z</time>
      </trkpt>
      <trkpt lat="45.37526" lon="0.91649">
        <ele>189</ele>
        <time>2016-07-04T08:29:46Z</time>
      </trkpt>
      <trkpt lat="45.37525" lon="0.91657">
        <ele>188</ele>
        <time>2016-07-04T08:29:50Z</time>
      </trkpt>
      <trkpt lat="45.37524" lon="0.91666">
        <ele>189</ele>
        <time>2016-07-04T08:29:55Z</time>
      </trkpt>
      <trkpt lat="45.37523" lon="0.91672">
        <ele>190</ele>
        <time>2016-07-04T08:29:59Z</time>
      </trkpt>
      <trkpt lat="45.37523" lon="0.91682">
        <ele>189</ele>
        <time>2016-07-04T08:30:04Z</time>
      </trkpt>
      <trkpt lat="45.37521" lon="0.91688">
        <ele>190</ele>
        <time>2016-07-04T08:30:08Z</time>
      </trkpt>
      <trkpt lat="45.37519" lon="0.91697">
        <ele>191</ele>
        <time>2016-07-04T08:30:13Z</time>
      </trkpt>
      <trkpt lat="45.37518" lon="0.91706">
        <ele>192</ele>
        <time>2016-07-04T08:30:18Z</time>
      </trkpt>
      <trkpt lat="45.37519" lon="0.91713">
        <ele>192</ele>
        <time>2016-07-04T08:30:22Z</time>
      </trkpt>
      <trkpt lat="45.37518" lon="0.9172">
        <ele>193</ele>
        <time>2016-07-04T08:30:27Z</time>
      </trkpt>
      <trkpt lat="45.37519" lon="0.91728">
        <ele>192</ele>
        <time>2016-07-04T08:30:31Z</time>
      </trkpt>
      <trkpt lat="45.37519" lon="0.91737">
        <ele>193</ele>
        <time>2016-07-04T08:30:36Z</time>
      </trkpt>
      <trkpt lat="45.3752" lon="0.91746">
        <ele>194</ele>
        <time>2016-07-04T08:30:41Z</time>
      </trkpt>
      <trkpt lat="45.3752" lon="0.91752">
        <ele>195</ele>
        <time>2016-07-04T08:30:45Z</time>
      </trkpt>
      <trkpt lat="45.37521" lon="0.91761">
        <ele>195</ele>
        <time>2016-07-04T08:30:50Z</time>
      </trkpt>
      <trkpt lat="45.37522" lon="0.91767">
        <ele>196</ele>
        <time>2016-07-04T08:30:54Z</time>
      </trkpt>
      <trkpt lat="45.37523" lon="0.91773">
        <ele>197</ele>
        <time>2016-07-04T08:30:58Z</time>
      </trkpt>
      <trkpt lat="45.37525" lon="0.9178">
        <ele>197</ele>
        <time>2016-07-04T08:31:02Z</time>
      </trkpt>
      <trkpt lat="45.37526" lon="0.91787">
        <ele>198</ele>
        <time>2016-07-04T08:31:06Z</time>
      </trkpt>
      <trkpt lat="45.37528" lon="0.91794">
        <ele>198</ele>
        <time>2016-07-04T08:31:10Z</time>
      </trkpt>
      <trkpt lat="45.3753" lon="0.91801">
        <ele>199</ele>
        <time>2016-07-04T08:31:14Z</time>
      </trkpt>
      <trkpt lat="45.37532" lon="0.91808">
        <ele>199</ele>
        <time>2016-07-04T08:31:19Z</time>
      </trkpt>
      <trkpt lat="45.37533" lon="0.91813">
        <ele>199</ele>
        <time>2016-07-04T08:31:23Z</time>
      </trkpt>
      <trkpt lat="45.37536" lon="0.91818">
        <ele>200</ele>
        <time>2016-07-04T08:31:28Z</time>
      </trkpt>
      <trkpt lat="45.37537" lon="0.91825">
        <ele>201</ele>
        <time>2016-07-04T08:31:33Z</time>
      </trkpt>
      <trkpt lat="45.3754" lon="0.91832">
        <ele>201</ele>
        <time>2016-07-04T08:31:37Z</time>
      </trkpt>
      <trkpt lat="45.37541" lon="0.91838">
        <ele>202</ele>
        <time>2016-07-04T08:31:41Z</time>
      </trkpt>
      <trkpt lat="45.37543" lon="0.91844">
        <ele>202</ele>
        <time>2016-07-04T08:31:46Z</time>
      </trkpt>
      <trkpt lat="45.37546" lon="0.9185">
        <ele>202</ele>
        <time>2016-07-04T08:31:50Z</time>
      </trkpt>
      <trkpt lat="45.37547" lon="0.91855">
        <ele>204</ele>
        <time>2016-07-04T08:31:55Z</time>
      </trkpt>
      <trkpt lat="45.37547" lon="0.91863">
        <ele>206</ele>
        <time>2016-07-04T08:32:00Z</time>
      </trkpt>
      <trkpt lat="45.37551" lon="0.9187">
        <ele>204</ele>
        <time>2016-07-04T08:32:04Z</time>
      </trkpt>
      <trkpt lat="45.3755" lon="0.91874">
        <ele>207</ele>
        <time>2016-07-04T08:32:08Z</time>
      </trkpt>
      <trkpt lat="45.37551" lon="0.91883">
        <ele>209</ele>
        <time>2016-07-04T08:32:13Z</time>
      </trkpt>
      <trkpt lat="45.37555" lon="0.9189">
        <ele>209</ele>
        <time>2016-07-04T08:32:17Z</time>
      </trkpt>
      <trkpt lat="45.37558" lon="0.91895">
        <ele>208</ele>
        <time>2016-07-04T08:32:21Z</time>
      </trkpt>
      <trkpt lat="45.3756" lon="0.91904">
        <ele>208</ele>
        <time>2016-07-04T08:32:26Z</time>
      </trkpt>
      <trkpt lat="45.37563" lon="0.9191">
        <ele>207</ele>
        <time>2016-07-04T08:32:30Z</time>
      </trkpt>
      <trkpt lat="45.37566" lon="0.91917">
        <ele>207</ele>
        <time>2016-07-04T08:32:34Z</time>
      </trkpt>
      <trkpt lat="45.3757" lon="0.91924">
        <ele>207</ele>
        <time>2016-07-04T08:32:39Z</time>
      </trkpt>
      <trkpt lat="45.37569" lon="0.91929">
        <ele>209</ele>
        <time>2016-07-04T08:32:43Z</time>
      </trkpt>
      <trkpt lat="45.37574" lon="0.9194">
        <ele>206</ele>
        <time>2016-07-04T08:32:48Z</time>
      </trkpt>
      <trkpt lat="45.37576" lon="0.91949">
        <ele>207</ele>
        <time>2016-07-04T08:32:53Z</time>
      </trkpt>
      <trkpt lat="45.37578" lon="0.9196">
        <ele>205</ele>
        <time>2016-07-04T08:32:57Z</time>
      </trkpt>
      <trkpt lat="45.37577" lon="0.91966">
        <ele>207</ele>
        <time>2016-07-04T08:33:01Z</time>
      </trkpt>
      <trkpt lat="45.37578" lon="0.91974">
        <ele>206</ele>
        <time>2016-07-04T08:33:06Z</time>
      </trkpt>
      <trkpt lat="45.37578" lon="0.91982">
        <ele>205</ele>
        <time>2016-07-04T08:33:10Z</time>
      </trkpt>
      <trkpt lat="45.37576" lon="0.91989">
        <ele>208</ele>
        <time>2016-07-04T08:33:14Z</time>
      </trkpt>
      <trkpt lat="45.37575" lon="0.91999">
        <ele>210</ele>
        <time>2016-07-04T08:33:19Z</time>
      </trkpt>
      <trkpt lat="45.3758" lon="0.92011">
        <ele>205</ele>
        <time>2016-07-04T08:33:23Z</time>
      </trkpt>
      <trkpt lat="45.37579" lon="0.92016">
        <ele>207</ele>
        <time>2016-07-04T08:33:27Z</time>
      </trkpt>
      <trkpt lat="45.37582" lon="0.92025">
        <ele>210</ele>
        <time>2016-07-04T08:33:32Z</time>
      </trkpt>
      <trkpt lat="45.37587" lon="0.92034">
        <ele>205</ele>
        <time>2016-07-04T08:33:36Z</time>
      </trkpt>
      <trkpt lat="45.37586" lon="0.92039">
        <ele>206</ele>
        <time>2016-07-04T08:33:43Z</time>
      </trkpt>
      <trkpt lat="45.3759" lon="0.92044">
        <ele>207</ele>
        <time>2016-07-04T08:33:47Z</time>
      </trkpt>
      <trkpt lat="45.37594" lon="0.92045">
        <ele>208</ele>
        <time>2016-07-04T08:33:51Z</time>
      </trkpt>
      <trkpt lat="45.37598" lon="0.92042">
        <ele>203</ele>
        <time>2016-07-04T08:33:55Z</time>
      </trkpt>
      <trkpt lat="45.37601" lon="0.92037">
        <ele>209</ele>
        <time>2016-07-04T08:34:04Z</time>
      </trkpt>
      <trkpt lat="45.37604" lon="0.92029">
        <ele>210</ele>
        <time>2016-07-04T08:34:08Z</time>
      </trkpt>
      <trkpt lat="45.37607" lon="0.92021">
        <ele>211</ele>
        <time>2016-07-04T08:34:12Z</time>
      </trkpt>
      <trkpt lat="45.37609" lon="0.92014">
        <ele>212</ele>
        <time>2016-07-04T08:34:16Z</time>
      </trkpt>
      <trkpt lat="45.37613" lon="0.92007">
        <ele>211</ele>
        <time>2016-07-04T08:34:21Z</time>
      </trkpt>
      <trkpt lat="45.37616" lon="0.91997">
        <ele>211</ele>
        <time>2016-07-04T08:34:25Z</time>
      </trkpt>
      <trkpt lat="45.37619" lon="0.91986">
        <ele>209</ele>
        <time>2016-07-04T08:34:30Z</time>
      </trkpt>
      <trkpt lat="45.37624" lon="0.91979">
        <ele>208</ele>
        <time>2016-07-04T08:34:34Z</time>
      </trkpt>
      <trkpt lat="45.37627" lon="0.91971">
        <ele>208</ele>
        <time>2016-07-04T08:34:38Z</time>
      </trkpt>
      <trkpt lat="45.37631" lon="0.91964">
        <ele>209</ele>
        <time>2016-07-04T08:34:43Z</time>
      </trkpt>
      <trkpt lat="45.37636" lon="0.91957">
        <ele>209</ele>
        <time>2016-07-04T08:34:48Z</time>
      </trkpt>
      <trkpt lat="45.37638" lon="0.9195">
        <ele>209</ele>
        <time>2016-07-04T08:34:53Z</time>
      </trkpt>
      <trkpt lat="45.37643" lon="0.9194">
        <ele>210</ele>
        <time>2016-07-04T08:34:57Z</time>
      </trkpt>
      <trkpt lat="45.37645" lon="0.91935">
        <ele>208</ele>
        <time>2016-07-04T08:35:02Z</time>
      </trkpt>
      <trkpt lat="45.37648" lon="0.91927">
        <ele>210</ele>
        <time>2016-07-04T08:35:06Z</time>
      </trkpt>
      <trkpt lat="45.37652" lon="0.91926">
        <ele>210</ele>
        <time>2016-07-04T08:35:13Z</time>
      </trkpt>
      <trkpt lat="45.37656" lon="0.9192">
        <ele>211</ele>
        <time>2016-07-04T08:35:18Z</time>
      </trkpt>
      <trkpt lat="45.37659" lon="0.9191">
        <ele>211</ele>
        <time>2016-07-04T08:35:23Z</time>
      </trkpt>
      <trkpt lat="45.37661" lon="0.91905">
        <ele>210</ele>
        <time>2016-07-04T08:35:27Z</time>
      </trkpt>
      <trkpt lat="45.37661" lon="0.91897">
        <ele>212</ele>
        <time>2016-07-04T08:35:32Z</time>
      </trkpt>
      <trkpt lat="45.37663" lon="0.9189">
        <ele>213</ele>
        <time>2016-07-04T08:35:36Z</time>
      </trkpt>
      <trkpt lat="45.37665" lon="0.91881">
        <ele>216</ele>
        <time>2016-07-04T08:35:40Z</time>
      </trkpt>
      <trkpt lat="45.37667" lon="0.9187">
        <ele>215</ele>
        <time>2016-07-04T08:35:45Z</time>
      </trkpt>
      <trkpt lat="45.37668" lon="0.91859">
        <ele>219</ele>
        <time>2016-07-04T08:35:50Z</time>
      </trkpt>
      <trkpt lat="45.37671" lon="0.91853">
        <ele>220</ele>
        <time>2016-07-04T08:35:54Z</time>
      </trkpt>
      <trkpt lat="45.37673" lon="0.91848">
        <ele>222</ele>
        <time>2016-07-04T08:36:05Z</time>
      </trkpt>
      <trkpt lat="45.37677" lon="0.91853">
        <ele>220</ele>
        <time>2016-07-04T08:36:10Z</time>
      </trkpt>
      <trkpt lat="45.37679" lon="0.91858">
        <ele>223</ele>
        <time>2016-07-04T08:36:21Z</time>
      </trkpt>
      <trkpt lat="45.37679" lon="0.91865">
        <ele>223</ele>
        <time>2016-07-04T08:36:26Z</time>
      </trkpt>
      <trkpt lat="45.3768" lon="0.91871">
        <ele>222</ele>
        <time>2016-07-04T08:36:30Z</time>
      </trkpt>
      <trkpt lat="45.37683" lon="0.91876">
        <ele>222</ele>
        <time>2016-07-04T08:36:34Z</time>
      </trkpt>
      <trkpt lat="45.37686" lon="0.91883">
        <ele>220</ele>
        <time>2016-07-04T08:36:38Z</time>
      </trkpt>
      <trkpt lat="45.37691" lon="0.91888">
        <ele>219</ele>
        <time>2016-07-04T08:36:42Z</time>
      </trkpt>
      <trkpt lat="45.37693" lon="0.91896">
        <ele>218</ele>
        <time>2016-07-04T08:36:46Z</time>
      </trkpt>
      <trkpt lat="45.37695" lon="0.91904">
        <ele>216</ele>
        <time>2016-07-04T08:36:50Z</time>
      </trkpt>
      <trkpt lat="45.37698" lon="0.91912">
        <ele>216</ele>
        <time>2016-07-04T08:36:54Z</time>
      </trkpt>
      <trkpt lat="45.377" lon="0.91918">
        <ele>217</ele>
        <time>2016-07-04T08:36:58Z</time>
      </trkpt>
      <trkpt lat="45.37703" lon="0.91928">
        <ele>217</ele>
        <time>2016-07-04T08:37:02Z</time>
      </trkpt>
      <trkpt lat="45.37708" lon="0.91938">
        <ele>214</ele>
        <time>2016-07-04T08:37:06Z</time>
      </trkpt>
      <trkpt lat="45.37711" lon="0.91946">
        <ele>213</ele>
        <time>2016-07-04T08:37:10Z</time>
      </trkpt>
      <trkpt lat="45.37715" lon="0.91956">
        <ele>212</ele>
        <time>2016-07-04T08:37:15Z</time>
      </trkpt>
      <trkpt lat="45.37719" lon="0.9196">
        <ele>211</ele>
        <time>2016-07-04T08:37:19Z</time>
      </trkpt>
      <trkpt lat="45.37723" lon="0.91968">
        <ele>209</ele>
        <time>2016-07-04T08:37:24Z</time>
      </trkpt>
      <trkpt lat="45.37727" lon="0.91973">
        <ele>209</ele>
        <time>2016-07-04T08:37:28Z</time>
      </trkpt>
      <trkpt lat="45.37732" lon="0.9198">
        <ele>208</ele>
        <time>2016-07-04T08:37:33Z</time>
      </trkpt>
      <trkpt lat="45.37736" lon="0.91985">
        <ele>211</ele>
        <time>2016-07-04T08:37:37Z</time>
      </trkpt>
      <trkpt lat="45.37739" lon="0.9199">
        <ele>212</ele>
        <time>2016-07-04T08:37:42Z</time>
      </trkpt>
      <trkpt lat="45.37744" lon="0.91998">
        <ele>212</ele>
        <time>2016-07-04T08:37:47Z</time>
      </trkpt>
      <trkpt lat="45.37746" lon="0.92002">
        <ele>212</ele>
        <time>2016-07-04T08:37:51Z</time>
      </trkpt>
      <trkpt lat="45.37749" lon="0.92013">
        <ele>214</ele>
        <time>2016-07-04T08:37:56Z</time>
      </trkpt>
      <trkpt lat="45.37751" lon="0.92019">
        <ele>213</ele>
        <time>2016-07-04T08:38:00Z</time>
      </trkpt>
      <trkpt lat="45.37754" lon="0.92027">
        <ele>211</ele>
        <time>2016-07-04T08:38:04Z</time>
      </trkpt>
      <trkpt lat="45.37758" lon="0.92035">
        <ele>210</ele>
        <time>2016-07-04T08:38:08Z</time>
      </trkpt>
      <trkpt lat="45.37763" lon="0.92045">
        <ele>208</ele>
        <time>2016-07-04T08:38:13Z</time>
      </trkpt>
      <trkpt lat="45.37767" lon="0.92053">
        <ele>209</ele>
        <time>2016-07-04T08:38:17Z</time>
      </trkpt>
      <trkpt lat="45.37771" lon="0.92062">
        <ele>208</ele>
        <time>2016-07-04T08:38:22Z</time>
      </trkpt>
      <trkpt lat="45.37773" lon="0.92068">
        <ele>210</ele>
        <time>2016-07-04T08:38:26Z</time>
      </trkpt>
      <trkpt lat="45.37775" lon="0.92074">
        <ele>211</ele>
        <time>2016-07-04T08:38:31Z</time>
      </trkpt>
      <trkpt lat="45.37775" lon="0.92079">
        <ele>211</ele>
        <time>2016-07-04T08:38:40Z</time>
      </trkpt>
      <trkpt lat="45.37775" lon="0.92086">
        <ele>215</ele>
        <time>2016-07-04T08:38:45Z</time>
      </trkpt>
      <trkpt lat="45.37776" lon="0.92091">
        <ele>216</ele>
        <time>2016-07-04T08:38:49Z</time>
      </trkpt>
      <trkpt lat="45.3778" lon="0.92098">
        <ele>215</ele>
        <time>2016-07-04T08:38:54Z</time>
      </trkpt>
      <trkpt lat="45.37785" lon="0.92105">
        <ele>215</ele>
        <time>2016-07-04T08:38:58Z</time>
      </trkpt>
      <trkpt lat="45.37788" lon="0.9211">
        <ele>216</ele>
        <time>2016-07-04T08:39:02Z</time>
      </trkpt>
      <trkpt lat="45.3779" lon="0.92117">
        <ele>216</ele>
        <time>2016-07-04T08:39:06Z</time>
      </trkpt>
      <trkpt lat="45.37793" lon="0.92123">
        <ele>217</ele>
        <time>2016-07-04T08:39:11Z</time>
      </trkpt>
      <trkpt lat="45.37796" lon="0.9213">
        <ele>218</ele>
        <time>2016-07-04T08:39:16Z</time>
      </trkpt>
      <trkpt lat="45.37799" lon="0.92137">
        <ele>217</ele>
        <time>2016-07-04T08:39:20Z</time>
      </trkpt>
      <trkpt lat="45.37807" lon="0.92147">
        <ele>210</ele>
        <time>2016-07-04T08:39:25Z</time>
      </trkpt>
      <trkpt lat="45.3781" lon="0.92157">
        <ele>210</ele>
        <time>2016-07-04T08:39:29Z</time>
      </trkpt>
      <trkpt lat="45.37814" lon="0.92167">
        <ele>209</ele>
        <time>2016-07-04T08:39:33Z</time>
      </trkpt>
      <trkpt lat="45.37817" lon="0.92173">
        <ele>211</ele>
        <time>2016-07-04T08:39:37Z</time>
      </trkpt>
      <trkpt lat="45.37822" lon="0.9218">
        <ele>208</ele>
        <time>2016-07-04T08:39:41Z</time>
      </trkpt>
      <trkpt lat="45.37826" lon="0.9219">
        <ele>206</ele>
        <time>2016-07-04T08:39:46Z</time>
      </trkpt>
      <trkpt lat="45.3783" lon="0.922">
        <ele>206</ele>
        <time>2016-07-04T08:39:51Z</time>
      </trkpt>
      <trkpt lat="45.37832" lon="0.92205">
        <ele>208</ele>
        <time>2016-07-04T08:39:55Z</time>
      </trkpt>
      <trkpt lat="45.37835" lon="0.92212">
        <ele>206</ele>
        <time>2016-07-04T08:39:59Z</time>
      </trkpt>
      <trkpt lat="45.37839" lon="0.92219">
        <ele>203</ele>
        <time>2016-07-04T08:40:03Z</time>
      </trkpt>
      <trkpt lat="45.37842" lon="0.92228">
        <ele>203</ele>
        <time>2016-07-04T08:40:08Z</time>
      </trkpt>
      <trkpt lat="45.37847" lon="0.92233">
        <ele>200</ele>
        <time>2016-07-04T08:40:12Z</time>
      </trkpt>
      <trkpt lat="45.37852" lon="0.92237">
        <ele>200</ele>
        <time>2016-07-04T08:40:16Z</time>
      </trkpt>
      <trkpt lat="45.37858" lon="0.92245">
        <ele>196</ele>
        <time>2016-07-04T08:40:21Z</time>
      </trkpt>
      <trkpt lat="45.3786" lon="0.92251">
        <ele>194</ele>
        <time>2016-07-04T08:40:26Z</time>
      </trkpt>
      <trkpt lat="45.37865" lon="0.92254">
        <ele>196</ele>
        <time>2016-07-04T08:40:30Z</time>
      </trkpt>
      <trkpt lat="45.37868" lon="0.92259">
        <ele>199</ele>
        <time>2016-07-04T08:40:36Z</time>
      </trkpt>
      <trkpt lat="45.37874" lon="0.92265">
        <ele>201</ele>
        <time>2016-07-04T08:40:41Z</time>
      </trkpt>
      <trkpt lat="45.37878" lon="0.9227">
        <ele>202</ele>
        <time>2016-07-04T08:40:45Z</time>
      </trkpt>
      <trkpt lat="45.37882" lon="0.92276">
        <ele>203</ele>
        <time>2016-07-04T08:40:50Z</time>
      </trkpt>
      <trkpt lat="45.37885" lon="0.9228">
        <ele>202</ele>
        <time>2016-07-04T08:40:54Z</time>
      </trkpt>
      <trkpt lat="45.37893" lon="0.92284">
        <ele>202</ele>
        <time>2016-07-04T08:40:59Z</time>
      </trkpt>
      <trkpt lat="45.37898" lon="0.92286">
        <ele>204</ele>
        <time>2016-07-04T08:41:03Z</time>
      </trkpt>
      <trkpt lat="45.379" lon="0.92289">
        <ele>205</ele>
        <time>2016-07-04T08:41:07Z</time>
      </trkpt>
      <trkpt lat="45.37908" lon="0.92294">
        <ele>206</ele>
        <time>2016-07-04T08:41:11Z</time>
      </trkpt>
      <trkpt lat="45.37911" lon="0.92296">
        <ele>209</ele>
        <time>2016-07-04T08:41:16Z</time>
      </trkpt>
      <trkpt lat="45.37916" lon="0.923">
        <ele>211</ele>
        <time>2016-07-04T08:41:20Z</time>
      </trkpt>
      <trkpt lat="45.37923" lon="0.92303">
        <ele>211</ele>
        <time>2016-07-04T08:41:25Z</time>
      </trkpt>
      <trkpt lat="45.37927" lon="0.92306">
        <ele>211</ele>
        <time>2016-07-04T08:41:29Z</time>
      </trkpt>
      <trkpt lat="45.37937" lon="0.92307">
        <ele>211</ele>
        <time>2016-07-04T08:41:34Z</time>
      </trkpt>
      <trkpt lat="45.3794" lon="0.92312">
        <ele>211</ele>
        <time>2016-07-04T08:41:38Z</time>
      </trkpt>
      <trkpt lat="45.37944" lon="0.92316">
        <ele>214</ele>
        <time>2016-07-04T08:41:43Z</time>
      </trkpt>
      <trkpt lat="45.3795" lon="0.92318">
        <ele>214</ele>
        <time>2016-07-04T08:41:47Z</time>
      </trkpt>
      <trkpt lat="45.37958" lon="0.92325">
        <ele>211</ele>
        <time>2016-07-04T08:41:52Z</time>
      </trkpt>
      <trkpt lat="45.37966" lon="0.9233">
        <ele>210</ele>
        <time>2016-07-04T08:41:57Z</time>
      </trkpt>
      <trkpt lat="45.37969" lon="0.92335">
        <ele>209</ele>
        <time>2016-07-04T08:42:01Z</time>
      </trkpt>
      <trkpt lat="45.37972" lon="0.9234">
        <ele>209</ele>
        <time>2016-07-04T08:42:05Z</time>
      </trkpt>
      <trkpt lat="45.37973" lon="0.92344">
        <ele>211</ele>
        <time>2016-07-04T08:42:09Z</time>
      </trkpt>
      <trkpt lat="45.3798" lon="0.92349">
        <ele>210</ele>
        <time>2016-07-04T08:42:14Z</time>
      </trkpt>
      <trkpt lat="45.37984" lon="0.92352">
        <ele>210</ele>
        <time>2016-07-04T08:42:18Z</time>
      </trkpt>
      <trkpt lat="45.37989" lon="0.92353">
        <ele>210</ele>
        <time>2016-07-04T08:42:22Z</time>
      </trkpt>
      <trkpt lat="45.37994" lon="0.92356">
        <ele>211</ele>
        <time>2016-07-04T08:42:27Z</time>
      </trkpt>
      <trkpt lat="45.37996" lon="0.92361">
        <ele>213</ele>
        <time>2016-07-04T08:42:34Z</time>
      </trkpt>
      <trkpt lat="45.37999" lon="0.92368">
        <ele>210</ele>
        <time>2016-07-04T08:42:39Z</time>
      </trkpt>
      <trkpt lat="45.38004" lon="0.92375">
        <ele>208</ele>
        <time>2016-07-04T08:42:43Z</time>
      </trkpt>
      <trkpt lat="45.38007" lon="0.92381">
        <ele>211</ele>
        <time>2016-07-04T08:42:48Z</time>
      </trkpt>
      <trkpt lat="45.38011" lon="0.92385">
        <ele>210</ele>
        <time>2016-07-04T08:42:52Z</time>
      </trkpt>
      <trkpt lat="45.38015" lon="0.92389">
        <ele>211</ele>
        <time>2016-07-04T08:42:56Z</time>
      </trkpt>
      <trkpt lat="45.38021" lon="0.92399">
        <ele>211</ele>
        <time>2016-07-04T08:43:01Z</time>
      </trkpt>
      <trkpt lat="45.38023" lon="0.92401">
        <ele>210</ele>
        <time>2016-07-04T08:43:05Z</time>
      </trkpt>
      <trkpt lat="45.38028" lon="0.92407">
        <ele>211</ele>
        <time>2016-07-04T08:43:09Z</time>
      </trkpt>
      <trkpt lat="45.38031" lon="0.92411">
        <ele>215</ele>
        <time>2016-07-04T08:43:14Z</time>
      </trkpt>
      <trkpt lat="45.38035" lon="0.92415">
        <ele>217</ele>
        <time>2016-07-04T08:43:18Z</time>
      </trkpt>
      <trkpt lat="45.38038" lon="0.92424">
        <ele>216</ele>
        <time>2016-07-04T08:43:23Z</time>
      </trkpt>
      <trkpt lat="45.3804" lon="0.92434">
        <ele>216</ele>
        <time>2016-07-04T08:43:27Z</time>
      </trkpt>
      <trkpt lat="45.38042" lon="0.92442">
        <ele>218</ele>
        <time>2016-07-04T08:43:31Z</time>
      </trkpt>
      <trkpt lat="45.38041" lon="0.9245">
        <ele>222</ele>
        <time>2016-07-04T08:43:35Z</time>
      </trkpt>
      <trkpt lat="45.38045" lon="0.92458">
        <ele>218</ele>
        <time>2016-07-04T08:43:40Z</time>
      </trkpt>
      <trkpt lat="45.38046" lon="0.92467">
        <ele>217</ele>
        <time>2016-07-04T08:43:44Z</time>
      </trkpt>
      <trkpt lat="45.38048" lon="0.92479">
        <ele>214</ele>
        <time>2016-07-04T08:43:49Z</time>
      </trkpt>
      <trkpt lat="45.38049" lon="0.92487">
        <ele>214</ele>
        <time>2016-07-04T08:43:53Z</time>
      </trkpt>
      <trkpt lat="45.38049" lon="0.92499">
        <ele>214</ele>
        <time>2016-07-04T08:43:58Z</time>
      </trkpt>
      <trkpt lat="45.38051" lon="0.92511">
        <ele>213</ele>
        <time>2016-07-04T08:44:03Z</time>
      </trkpt>
      <trkpt lat="45.38055" lon="0.9252">
        <ele>207</ele>
        <time>2016-07-04T08:44:07Z</time>
      </trkpt>
      <trkpt lat="45.3806" lon="0.92532">
        <ele>205</ele>
        <time>2016-07-04T08:44:12Z</time>
      </trkpt>
      <trkpt lat="45.38062" lon="0.9254">
        <ele>206</ele>
        <time>2016-07-04T08:44:16Z</time>
      </trkpt>
      <trkpt lat="45.38069" lon="0.92548">
        <ele>201</ele>
        <time>2016-07-04T08:44:20Z</time>
      </trkpt>
      <trkpt lat="45.38074" lon="0.92557">
        <ele>200</ele>
        <time>2016-07-04T08:44:25Z</time>
      </trkpt>
      <trkpt lat="45.38075" lon="0.92562">
        <ele>203</ele>
        <time>2016-07-04T08:44:30Z</time>
      </trkpt>
      <trkpt lat="45.38079" lon="0.92572">
        <ele>203</ele>
        <time>2016-07-04T08:44:35Z</time>
      </trkpt>
      <trkpt lat="45.38083" lon="0.92579">
        <ele>201</ele>
        <time>2016-07-04T08:44:40Z</time>
      </trkpt>
      <trkpt lat="45.38085" lon="0.92584">
        <ele>200</ele>
        <time>2016-07-04T08:44:47Z</time>
      </trkpt>
      <trkpt lat="45.38089" lon="0.92595">
        <ele>199</ele>
        <time>2016-07-04T08:44:52Z</time>
      </trkpt>
      <trkpt lat="45.38094" lon="0.92604">
        <ele>196</ele>
        <time>2016-07-04T08:44:56Z</time>
      </trkpt>
      <trkpt lat="45.38096" lon="0.9261">
        <ele>196</ele>
        <time>2016-07-04T08:45:00Z</time>
      </trkpt>
      <trkpt lat="45.38098" lon="0.92617">
        <ele>200</ele>
        <time>2016-07-04T08:45:04Z</time>
      </trkpt>
      <trkpt lat="45.38101" lon="0.92625">
        <ele>199</ele>
        <time>2016-07-04T08:45:09Z</time>
      </trkpt>
      <trkpt lat="45.38103" lon="0.92634">
        <ele>198</ele>
        <time>2016-07-04T08:45:13Z</time>
      </trkpt>
      <trkpt lat="45.38102" lon="0.92639">
        <ele>195</ele>
        <time>2016-07-04T08:45:20Z</time>
      </trkpt>
      <trkpt lat="45.38099" lon="0.92642">
        <ele>193</ele>
        <time>2016-07-04T08:45:25Z</time>
      </trkpt>
      <trkpt lat="45.38092" lon="0.92644">
        <ele>195</ele>
        <time>2016-07-04T08:45:30Z</time>
      </trkpt>
      <trkpt lat="45.38088" lon="0.92648">
        <ele>196</ele>
        <time>2016-07-04T08:45:34Z</time>
      </trkpt>
      <trkpt lat="45.38082" lon="0.92651">
        <ele>194</ele>
        <time>2016-07-04T08:45:38Z</time>
      </trkpt>
      <trkpt lat="45.38077" lon="0.92656">
        <ele>192</ele>
        <time>2016-07-04T08:45:43Z</time>
      </trkpt>
      <trkpt lat="45.38073" lon="0.92662">
        <ele>192</ele>
        <time>2016-07-04T08:45:47Z</time>
      </trkpt>
      <trkpt lat="45.3807" lon="0.92665">
        <ele>193</ele>
        <time>2016-07-04T08:45:51Z</time>
      </trkpt>
      <trkpt lat="45.38064" lon="0.9267">
        <ele>192</ele>
        <time>2016-07-04T08:45:56Z</time>
      </trkpt>
      <trkpt lat="45.38062" lon="0.92678">
        <ele>190</ele>
        <time>2016-07-04T08:46:00Z</time>
      </trkpt>
      <trkpt lat="45.38057" lon="0.92684">
        <ele>190</ele>
        <time>2016-07-04T08:46:05Z</time>
      </trkpt>
      <trkpt lat="45.38051" lon="0.92689">
        <ele>189</ele>
        <time>2016-07-04T08:46:10Z</time>
      </trkpt>
      <trkpt lat="45.38046" lon="0.92694">
        <ele>188</ele>
        <time>2016-07-04T08:46:14Z</time>
      </trkpt>
      <trkpt lat="45.38041" lon="0.92701">
        <ele>186</ele>
        <time>2016-07-04T08:46:18Z</time>
      </trkpt>
      <trkpt lat="45.38036" lon="0.92708">
        <ele>185</ele>
        <time>2016-07-04T08:46:23Z</time>
      </trkpt>
      <trkpt lat="45.38031" lon="0.92712">
        <ele>188</ele>
        <time>2016-07-04T08:46:27Z</time>
      </trkpt>
      <trkpt lat="45.38028" lon="0.92721">
        <ele>187</ele>
        <time>2016-07-04T08:46:32Z</time>
      </trkpt>
      <trkpt lat="45.38027" lon="0.92729">
        <ele>187</ele>
        <time>2016-07-04T08:46:36Z</time>
      </trkpt>
      <trkpt lat="45.38027" lon="0.92736">
        <ele>187</ele>
        <time>2016-07-04T08:46:40Z</time>
      </trkpt>
      <trkpt lat="45.38024" lon="0.92744">
        <ele>187</ele>
        <time>2016-07-04T08:46:45Z</time>
      </trkpt>
      <trkpt lat="45.38021" lon="0.92747">
        <ele>188</ele>
        <time>2016-07-04T08:46:50Z</time>
      </trkpt>
      <trkpt lat="45.38019" lon="0.92758">
        <ele>187</ele>
        <time>2016-07-04T08:46:55Z</time>
      </trkpt>
      <trkpt lat="45.38015" lon="0.92765">
        <ele>190</ele>
        <time>2016-07-04T08:47:00Z</time>
      </trkpt>
      <trkpt lat="45.38011" lon="0.92773">
        <ele>188</ele>
        <time>2016-07-04T08:47:04Z</time>
      </trkpt>
      <trkpt lat="45.38008" lon="0.92778">
        <ele>188</ele>
        <time>2016-07-04T08:47:08Z</time>
      </trkpt>
      <trkpt lat="45.38004" lon="0.92784">
        <ele>187</ele>
        <time>2016-07-04T08:47:12Z</time>
      </trkpt>
      <trkpt lat="45.38" lon="0.92792">
        <ele>185</ele>
        <time>2016-07-04T08:47:17Z</time>
      </trkpt>
      <trkpt lat="45.37996" lon="0.92798">
        <ele>185</ele>
        <time>2016-07-04T08:47:22Z</time>
      </trkpt>
      <trkpt lat="45.37992" lon="0.92803">
        <ele>185</ele>
        <time>2016-07-04T08:47:26Z</time>
      </trkpt>
      <trkpt lat="45.37987" lon="0.92807">
        <ele>185</ele>
        <time>2016-07-04T08:47:31Z</time>
      </trkpt>
      <trkpt lat="45.37982" lon="0.92814">
        <ele>187</ele>
        <time>2016-07-04T08:47:36Z</time>
      </trkpt>
      <trkpt lat="45.37981" lon="0.92824">
        <ele>186</ele>
        <time>2016-07-04T08:47:40Z</time>
      </trkpt>
      <trkpt lat="45.37981" lon="0.92836">
        <ele>184</ele>
        <time>2016-07-04T08:47:45Z</time>
      </trkpt>
      <trkpt lat="45.37983" lon="0.92842">
        <ele>183</ele>
        <time>2016-07-04T08:47:51Z</time>
      </trkpt>
      <trkpt lat="45.37983" lon="0.92846">
        <ele>183</ele>
        <time>2016-07-04T08:48:00Z</time>
      </trkpt>
      <trkpt lat="45.37987" lon="0.92855">
        <ele>183</ele>
        <time>2016-07-04T08:48:05Z</time>
      </trkpt>
      <trkpt lat="45.3799" lon="0.92861">
        <ele>184</ele>
        <time>2016-07-04T08:48:09Z</time>
      </trkpt>
      <trkpt lat="45.37994" lon="0.92868">
        <ele>183</ele>
        <time>2016-07-04T08:48:14Z</time>
      </trkpt>
      <trkpt lat="45.37997" lon="0.92876">
        <ele>183</ele>
        <time>2016-07-04T08:48:18Z</time>
      </trkpt>
      <trkpt lat="45.38001" lon="0.92884">
        <ele>183</ele>
        <time>2016-07-04T08:48:23Z</time>
      </trkpt>
      <trkpt lat="45.38006" lon="0.92891">
        <ele>184</ele>
        <time>2016-07-04T08:48:28Z</time>
      </trkpt>
      <trkpt lat="45.38009" lon="0.92898">
        <ele>184</ele>
        <time>2016-07-04T08:48:32Z</time>
      </trkpt>
      <trkpt lat="45.38014" lon="0.92903">
        <ele>185</ele>
        <time>2016-07-04T08:48:37Z</time>
      </trkpt>
      <trkpt lat="45.3802" lon="0.92908">
        <ele>183</ele>
        <time>2016-07-04T08:48:41Z</time>
      </trkpt>
      <trkpt lat="45.38022" lon="0.92914">
        <ele>181</ele>
        <time>2016-07-04T08:48:45Z</time>
      </trkpt>
      <trkpt lat="45.38028" lon="0.92919">
        <ele>180</ele>
        <time>2016-07-04T08:48:50Z</time>
      </trkpt>
      <trkpt lat="45.38033" lon="0.92919">
        <ele>179</ele>
        <time>2016-07-04T08:48:54Z</time>
      </trkpt>
      <trkpt lat="45.3804" lon="0.9292">
        <ele>182</ele>
        <time>2016-07-04T08:48:59Z</time>
      </trkpt>
      <trkpt lat="45.38045" lon="0.92919">
        <ele>182</ele>
        <time>2016-07-04T08:49:03Z</time>
      </trkpt>
      <trkpt lat="45.3805" lon="0.92926">
        <ele>182</ele>
        <time>2016-07-04T08:49:08Z</time>
      </trkpt>
      <trkpt lat="45.38055" lon="0.92931">
        <ele>180</ele>
        <time>2016-07-04T08:49:13Z</time>
      </trkpt>
      <trkpt lat="45.38061" lon="0.92937">
        <ele>180</ele>
        <time>2016-07-04T08:49:18Z</time>
      </trkpt>
      <trkpt lat="45.38063" lon="0.92945">
        <ele>180</ele>
        <time>2016-07-04T08:49:22Z</time>
      </trkpt>
      <trkpt lat="45.38067" lon="0.9295">
        <ele>180</ele>
        <time>2016-07-04T08:49:26Z</time>
      </trkpt>
      <trkpt lat="45.3807" lon="0.92956">
        <ele>178</ele>
        <time>2016-07-04T08:49:30Z</time>
      </trkpt>
      <trkpt lat="45.38073" lon="0.92965">
        <ele>178</ele>
        <time>2016-07-04T08:49:35Z</time>
      </trkpt>
      <trkpt lat="45.38076" lon="0.92971">
        <ele>179</ele>
        <time>2016-07-04T08:49:39Z</time>
      </trkpt>
      <trkpt lat="45.3808" lon="0.92979">
        <ele>178</ele>
        <time>2016-07-04T08:49:43Z</time>
      </trkpt>
      <trkpt lat="45.38084" lon="0.92985">
        <ele>179</ele>
        <time>2016-07-04T08:49:47Z</time>
      </trkpt>
      <trkpt lat="45.38082" lon="0.92991">
        <ele>181</ele>
        <time>2016-07-04T08:49:53Z</time>
      </trkpt>
      <trkpt lat="45.38082" lon="0.92997">
        <ele>181</ele>
        <time>2016-07-04T08:49:57Z</time>
      </trkpt>
      <trkpt lat="45.38081" lon="0.93005">
        <ele>181</ele>
        <time>2016-07-04T08:50:01Z</time>
      </trkpt>
      <trkpt lat="45.3808" lon="0.93014">
        <ele>183</ele>
        <time>2016-07-04T08:50:06Z</time>
      </trkpt>
      <trkpt lat="45.38077" lon="0.93026">
        <ele>179</ele>
        <time>2016-07-04T08:50:10Z</time>
      </trkpt>
      <trkpt lat="45.38077" lon="0.93034">
        <ele>179</ele>
        <time>2016-07-04T08:50:14Z</time>
      </trkpt>
      <trkpt lat="45.38079" lon="0.9304">
        <ele>181</ele>
        <time>2016-07-04T08:50:18Z</time>
      </trkpt>
      <trkpt lat="45.38083" lon="0.93051">
        <ele>181</ele>
        <time>2016-07-04T08:50:23Z</time>
      </trkpt>
      <trkpt lat="45.38085" lon="0.93062">
        <ele>180</ele>
        <time>2016-07-04T08:50:28Z</time>
      </trkpt>
      <trkpt lat="45.38087" lon="0.93069">
        <ele>181</ele>
        <time>2016-07-04T08:50:32Z</time>
      </trkpt>
      <trkpt lat="45.38089" lon="0.93077">
        <ele>182</ele>
        <time>2016-07-04T08:50:37Z</time>
      </trkpt>
      <trkpt lat="45.38091" lon="0.93085">
        <ele>182</ele>
        <time>2016-07-04T08:50:41Z</time>
      </trkpt>
      <trkpt lat="45.38092" lon="0.93092">
        <ele>181</ele>
        <time>2016-07-04T08:50:45Z</time>
      </trkpt>
      <trkpt lat="45.38093" lon="0.93099">
        <ele>181</ele>
        <time>2016-07-04T08:50:49Z</time>
      </trkpt>
      <trkpt lat="45.38093" lon="0.93105">
        <ele>181</ele>
        <time>2016-07-04T08:50:54Z</time>
      </trkpt>
      <trkpt lat="45.38095" lon="0.9311">
        <ele>181</ele>
        <time>2016-07-04T08:50:58Z</time>
      </trkpt>
      <trkpt lat="45.38098" lon="0.93116">
        <ele>181</ele>
        <time>2016-07-04T08:51:02Z</time>
      </trkpt>
      <trkpt lat="45.381" lon="0.93122">
        <ele>181</ele>
        <time>2016-07-04T08:51:06Z</time>
      </trkpt>
      <trkpt lat="45.38102" lon="0.93131">
        <ele>180</ele>
        <time>2016-07-04T08:51:10Z</time>
      </trkpt>
      <trkpt lat="45.38103" lon="0.93137">
        <ele>180</ele>
        <time>2016-07-04T08:51:14Z</time>
      </trkpt>
      <trkpt lat="45.38106" lon="0.93141">
        <ele>179</ele>
        <time>2016-07-04T08:51:28Z</time>
      </trkpt>
      <trkpt lat="45.3811" lon="0.9315">
        <ele>179</ele>
        <time>2016-07-04T08:51:33Z</time>
      </trkpt>
      <trkpt lat="45.38114" lon="0.93157">
        <ele>179</ele>
        <time>2016-07-04T08:51:37Z</time>
      </trkpt>
      <trkpt lat="45.38116" lon="0.93165">
        <ele>178</ele>
        <time>2016-07-04T08:51:42Z</time>
      </trkpt>
      <trkpt lat="45.38118" lon="0.93171">
        <ele>178</ele>
        <time>2016-07-04T08:51:46Z</time>
      </trkpt>
      <trkpt lat="45.38121" lon="0.93179">
        <ele>177</ele>
        <time>2016-07-04T08:51:50Z</time>
      </trkpt>
      <trkpt lat="45.38124" lon="0.93185">
        <ele>177</ele>
        <time>2016-07-04T08:51:55Z</time>
      </trkpt>
      <trkpt lat="45.38127" lon="0.93189">
        <ele>177</ele>
        <time>2016-07-04T08:51:59Z</time>
      </trkpt>
      <trkpt lat="45.38131" lon="0.93193">
        <ele>178</ele>
        <time>2016-07-04T08:52:04Z</time>
      </trkpt>
      <trkpt lat="45.38134" lon="0.93196">
        <ele>182</ele>
        <time>2016-07-04T08:52:09Z</time>
      </trkpt>
      <trkpt lat="45.38137" lon="0.93201">
        <ele>186</ele>
        <time>2016-07-04T08:52:14Z</time>
      </trkpt>
      <trkpt lat="45.38138" lon="0.93207">
        <ele>191</ele>
        <time>2016-07-04T08:52:19Z</time>
      </trkpt>
      <trkpt lat="45.38145" lon="0.93206">
        <ele>191</ele>
        <time>2016-07-04T08:52:24Z</time>
      </trkpt>
      <trkpt lat="45.38143" lon="0.93212">
        <ele>188</ele>
        <time>2016-07-04T08:52:31Z</time>
      </trkpt>
      <trkpt lat="45.3814" lon="0.93216">
        <ele>196</ele>
        <time>2016-07-04T08:52:39Z</time>
      </trkpt>
      <trkpt lat="45.38137" lon="0.93224">
        <ele>192</ele>
        <time>2016-07-04T08:52:43Z</time>
      </trkpt>
      <trkpt lat="45.38133" lon="0.9323">
        <ele>192</ele>
        <time>2016-07-04T08:52:47Z</time>
      </trkpt>
      <trkpt lat="45.38129" lon="0.93237">
        <ele>191</ele>
        <time>2016-07-04T08:52:52Z</time>
      </trkpt>
      <trkpt lat="45.38127" lon="0.9325">
        <ele>186</ele>
        <time>2016-07-04T08:52:57Z</time>
      </trkpt>
      <trkpt lat="45.38131" lon="0.93254">
        <ele>184</ele>
        <time>2016-07-04T08:53:10Z</time>
      </trkpt>
      <trkpt lat="45.38127" lon="0.93257">
        <ele>187</ele>
        <time>2016-07-04T08:53:36Z</time>
      </trkpt>
      <trkpt lat="45.38128" lon="0.93261">
        <ele>187</ele>
        <time>2016-07-04T08:53:41Z</time>
      </trkpt>
      <trkpt lat="45.38123" lon="0.93262">
        <ele>181</ele>
        <time>2016-07-04T08:53:45Z</time>
      </trkpt>
      <trkpt lat="45.38119" lon="0.93266">
        <ele>181</ele>
        <time>2016-07-04T08:53:49Z</time>
      </trkpt>
      <trkpt lat="45.38116" lon="0.93271">
        <ele>182</ele>
        <time>2016-07-04T08:53:53Z</time>
      </trkpt>
      <trkpt lat="45.38115" lon="0.93279">
        <ele>183</ele>
        <time>2016-07-04T08:53:58Z</time>
      </trkpt>
      <trkpt lat="45.38114" lon="0.93286">
        <ele>180</ele>
        <time>2016-07-04T08:54:03Z</time>
      </trkpt>
      <trkpt lat="45.38108" lon="0.93292">
        <ele>180</ele>
        <time>2016-07-04T08:54:07Z</time>
      </trkpt>
      <trkpt lat="45.38103" lon="0.93299">
        <ele>179</ele>
        <time>2016-07-04T08:54:11Z</time>
      </trkpt>
      <trkpt lat="45.38101" lon="0.93304">
        <ele>180</ele>
        <time>2016-07-04T08:54:16Z</time>
      </trkpt>
      <trkpt lat="45.38096" lon="0.93309">
        <ele>180</ele>
        <time>2016-07-04T08:54:20Z</time>
      </trkpt>
      <trkpt lat="45.38094" lon="0.93317">
        <ele>183</ele>
        <time>2016-07-04T08:54:24Z</time>
      </trkpt>
      <trkpt lat="45.38087" lon="0.93325">
        <ele>181</ele>
        <time>2016-07-04T08:54:29Z</time>
      </trkpt>
      <trkpt lat="45.38086" lon="0.9333">
        <ele>183</ele>
        <time>2016-07-04T08:54:33Z</time>
      </trkpt>
      <trkpt lat="45.38083" lon="0.93339">
        <ele>184</ele>
        <time>2016-07-04T08:54:38Z</time>
      </trkpt>
      <trkpt lat="45.38082" lon="0.93348">
        <ele>185</ele>
        <time>2016-07-04T08:54:43Z</time>
      </trkpt>
      <trkpt lat="45.38079" lon="0.93355">
        <ele>180</ele>
        <time>2016-07-04T08:54:47Z</time>
      </trkpt>
      <trkpt lat="45.38072" lon="0.93362">
        <ele>175</ele>
        <time>2016-07-04T08:54:51Z</time>
      </trkpt>
      <trkpt lat="45.38066" lon="0.93369">
        <ele>169</ele>
        <time>2016-07-04T08:54:55Z</time>
      </trkpt>
      <trkpt lat="45.38066" lon="0.93375">
        <ele>169</ele>
        <time>2016-07-04T08:54:59Z</time>
      </trkpt>
      <trkpt lat="45.38053" lon="0.93379">
        <ele>159</ele>
        <time>2016-07-04T08:55:04Z</time>
      </trkpt>
      <trkpt lat="45.38047" lon="0.93381">
        <ele>156</ele>
        <time>2016-07-04T08:55:08Z</time>
      </trkpt>
      <trkpt lat="45.38043" lon="0.93381">
        <ele>157</ele>
        <time>2016-07-04T08:55:12Z</time>
      </trkpt>
      <trkpt lat="45.38039" lon="0.93383">
        <ele>160</ele>
        <time>2016-07-04T08:55:18Z</time>
      </trkpt>
      <trkpt lat="45.38028" lon="0.93387">
        <ele>154</ele>
        <time>2016-07-04T08:55:23Z</time>
      </trkpt>
      <trkpt lat="45.38024" lon="0.93392">
        <ele>155</ele>
        <time>2016-07-04T08:55:27Z</time>
      </trkpt>
      <trkpt lat="45.38019" lon="0.93396">
        <ele>156</ele>
        <time>2016-07-04T08:55:32Z</time>
      </trkpt>
      <trkpt lat="45.38015" lon="0.93404">
        <ele>158</ele>
        <time>2016-07-04T08:55:36Z</time>
      </trkpt>
      <trkpt lat="45.38011" lon="0.93409">
        <ele>161</ele>
        <time>2016-07-04T08:55:40Z</time>
      </trkpt>
      <trkpt lat="45.38009" lon="0.93417">
        <ele>162</ele>
        <time>2016-07-04T08:55:45Z</time>
      </trkpt>
      <trkpt lat="45.38007" lon="0.93423">
        <ele>163</ele>
        <time>2016-07-04T08:55:49Z</time>
      </trkpt>
      <trkpt lat="45.38005" lon="0.93429">
        <ele>164</ele>
        <time>2016-07-04T08:55:54Z</time>
      </trkpt>
      <trkpt lat="45.38002" lon="0.93436">
        <ele>164</ele>
        <time>2016-07-04T08:55:58Z</time>
      </trkpt>
      <trkpt lat="45.37999" lon="0.93445">
        <ele>163</ele>
        <time>2016-07-04T08:56:03Z</time>
      </trkpt>
      <trkpt lat="45.37996" lon="0.9345">
        <ele>162</ele>
        <time>2016-07-04T08:56:07Z</time>
      </trkpt>
      <trkpt lat="45.37992" lon="0.93459">
        <ele>161</ele>
        <time>2016-07-04T08:56:12Z</time>
      </trkpt>
      <trkpt lat="45.3799" lon="0.93467">
        <ele>158</ele>
        <time>2016-07-04T08:56:16Z</time>
      </trkpt>
      <trkpt lat="45.37986" lon="0.9347">
        <ele>159</ele>
        <time>2016-07-04T08:56:43Z</time>
      </trkpt>
      <trkpt lat="45.37982" lon="0.9347">
        <ele>158</ele>
        <time>2016-07-04T08:56:48Z</time>
      </trkpt>
      <trkpt lat="45.3798" lon="0.9348">
        <ele>161</ele>
        <time>2016-07-04T08:56:53Z</time>
      </trkpt>
      <trkpt lat="45.37978" lon="0.93487">
        <ele>163</ele>
        <time>2016-07-04T08:56:57Z</time>
      </trkpt>
      <trkpt lat="45.37974" lon="0.93493">
        <ele>163</ele>
        <time>2016-07-04T08:57:01Z</time>
      </trkpt>
      <trkpt lat="45.37972" lon="0.93499">
        <ele>165</ele>
        <time>2016-07-04T08:57:05Z</time>
      </trkpt>
      <trkpt lat="45.37965" lon="0.93507">
        <ele>166</ele>
        <time>2016-07-04T08:57:10Z</time>
      </trkpt>
      <trkpt lat="45.37961" lon="0.93512">
        <ele>168</ele>
        <time>2016-07-04T08:57:14Z</time>
      </trkpt>
      <trkpt lat="45.37956" lon="0.93518">
        <ele>168</ele>
        <time>2016-07-04T08:57:19Z</time>
      </trkpt>
      <trkpt lat="45.37954" lon="0.93521">
        <ele>172</ele>
        <time>2016-07-04T08:57:24Z</time>
      </trkpt>
      <trkpt lat="45.37948" lon="0.9353">
        <ele>172</ele>
        <time>2016-07-04T08:57:29Z</time>
      </trkpt>
      <trkpt lat="45.37943" lon="0.93534">
        <ele>173</ele>
        <time>2016-07-04T08:57:34Z</time>
      </trkpt>
      <trkpt lat="45.37937" lon="0.93542">
        <ele>173</ele>
        <time>2016-07-04T08:57:39Z</time>
      </trkpt>
      <trkpt lat="45.37933" lon="0.93548">
        <ele>172</ele>
        <time>2016-07-04T08:57:43Z</time>
      </trkpt>
      <trkpt lat="45.37931" lon="0.93552">
        <ele>173</ele>
        <time>2016-07-04T08:57:47Z</time>
      </trkpt>
      <trkpt lat="45.37928" lon="0.93557">
        <ele>174</ele>
        <time>2016-07-04T08:57:51Z</time>
      </trkpt>
      <trkpt lat="45.37921" lon="0.93564">
        <ele>175</ele>
        <time>2016-07-04T08:57:56Z</time>
      </trkpt>
      <trkpt lat="45.37916" lon="0.93569">
        <ele>174</ele>
        <time>2016-07-04T08:58:00Z</time>
      </trkpt>
      <trkpt lat="45.37912" lon="0.93573">
        <ele>175</ele>
        <time>2016-07-04T08:58:04Z</time>
      </trkpt>
      <trkpt lat="45.37907" lon="0.93578">
        <ele>173</ele>
        <time>2016-07-04T08:58:08Z</time>
      </trkpt>
      <trkpt lat="45.37902" lon="0.93585">
        <ele>174</ele>
        <time>2016-07-04T08:58:13Z</time>
      </trkpt>
      <trkpt lat="45.37901" lon="0.93591">
        <ele>172</ele>
        <time>2016-07-04T08:58:18Z</time>
      </trkpt>
      <trkpt lat="45.37898" lon="0.93601">
        <ele>171</ele>
        <time>2016-07-04T08:58:23Z</time>
      </trkpt>
      <trkpt lat="45.37896" lon="0.93607">
        <ele>173</ele>
        <time>2016-07-04T08:58:27Z</time>
      </trkpt>
      <trkpt lat="45.37894" lon="0.93614">
        <ele>173</ele>
        <time>2016-07-04T08:58:31Z</time>
      </trkpt>
      <trkpt lat="45.37893" lon="0.93624">
        <ele>171</ele>
        <time>2016-07-04T08:58:36Z</time>
      </trkpt>
      <trkpt lat="45.37893" lon="0.93632">
        <ele>172</ele>
        <time>2016-07-04T08:58:40Z</time>
      </trkpt>
      <trkpt lat="45.37893" lon="0.9364">
        <ele>172</ele>
        <time>2016-07-04T08:58:45Z</time>
      </trkpt>
      <trkpt lat="45.37893" lon="0.93648">
        <ele>173</ele>
        <time>2016-07-04T08:58:49Z</time>
      </trkpt>
      <trkpt lat="45.37892" lon="0.93657">
        <ele>173</ele>
        <time>2016-07-04T08:58:54Z</time>
      </trkpt>
      <trkpt lat="45.37891" lon="0.93665">
        <ele>174</ele>
        <time>2016-07-04T08:58:58Z</time>
      </trkpt>
      <trkpt lat="45.37891" lon="0.93673">
        <ele>176</ele>
        <time>2016-07-04T08:59:03Z</time>
      </trkpt>
      <trkpt lat="45.37891" lon="0.93683">
        <ele>177</ele>
        <time>2016-07-04T08:59:08Z</time>
      </trkpt>
      <trkpt lat="45.37891" lon="0.93691">
        <ele>177</ele>
        <time>2016-07-04T08:59:12Z</time>
      </trkpt>
      <trkpt lat="45.37891" lon="0.93701">
        <ele>176</ele>
        <time>2016-07-04T08:59:16Z</time>
      </trkpt>
      <trkpt lat="45.37891" lon="0.93712">
        <ele>176</ele>
        <time>2016-07-04T08:59:21Z</time>
      </trkpt>
      <trkpt lat="45.37891" lon="0.93724">
        <ele>175</ele>
        <time>2016-07-04T08:59:26Z</time>
      </trkpt>
      <trkpt lat="45.37891" lon="0.93733">
        <ele>175</ele>
        <time>2016-07-04T08:59:30Z</time>
      </trkpt>
      <trkpt lat="45.37891" lon="0.9374">
        <ele>175</ele>
        <time>2016-07-04T08:59:34Z</time>
      </trkpt>
      <trkpt lat="45.3789" lon="0.93751">
        <ele>174</ele>
        <time>2016-07-04T08:59:39Z</time>
      </trkpt>
      <trkpt lat="45.3789" lon="0.9376">
        <ele>173</ele>
        <time>2016-07-04T08:59:43Z</time>
      </trkpt>
      <trkpt lat="45.37889" lon="0.93768">
        <ele>172</ele>
        <time>2016-07-04T08:59:47Z</time>
      </trkpt>
      <trkpt lat="45.37888" lon="0.93776">
        <ele>172</ele>
        <time>2016-07-04T08:59:52Z</time>
      </trkpt>
      <trkpt lat="45.37886" lon="0.93785">
        <ele>171</ele>
        <time>2016-07-04T08:59:57Z</time>
      </trkpt>
      <trkpt lat="45.37885" lon="0.93793">
        <ele>172</ele>
        <time>2016-07-04T09:00:01Z</time>
      </trkpt>
      <trkpt lat="45.37884" lon="0.93801">
        <ele>170</ele>
        <time>2016-07-04T09:00:06Z</time>
      </trkpt>
      <trkpt lat="45.37881" lon="0.93805">
        <ele>171</ele>
        <time>2016-07-04T09:00:10Z</time>
      </trkpt>
      <trkpt lat="45.37879" lon="0.93812">
        <ele>173</ele>
        <time>2016-07-04T09:00:15Z</time>
      </trkpt>
      <trkpt lat="45.37879" lon="0.9382">
        <ele>172</ele>
        <time>2016-07-04T09:00:19Z</time>
      </trkpt>
      <trkpt lat="45.37876" lon="0.93823">
        <ele>174</ele>
        <time>2016-07-04T09:00:26Z</time>
      </trkpt>
      <trkpt lat="45.37873" lon="0.9383">
        <ele>175</ele>
        <time>2016-07-04T09:00:30Z</time>
      </trkpt>
      <trkpt lat="45.37873" lon="0.93836">
        <ele>179</ele>
        <time>2016-07-04T09:00:35Z</time>
      </trkpt>
      <trkpt lat="45.37875" lon="0.93844">
        <ele>179</ele>
        <time>2016-07-04T09:00:39Z</time>
      </trkpt>
      <trkpt lat="45.37875" lon="0.9385">
        <ele>179</ele>
        <time>2016-07-04T09:00:43Z</time>
      </trkpt>
      <trkpt lat="45.37874" lon="0.93854">
        <ele>179</ele>
        <time>2016-07-04T09:00:47Z</time>
      </trkpt>
      <trkpt lat="45.37869" lon="0.93862">
        <ele>179</ele>
        <time>2016-07-04T09:00:52Z</time>
      </trkpt>
      <trkpt lat="45.37863" lon="0.93866">
        <ele>178</ele>
        <time>2016-07-04T09:00:56Z</time>
      </trkpt>
      <trkpt lat="45.37861" lon="0.93873">
        <ele>179</ele>
        <time>2016-07-04T09:01:00Z</time>
      </trkpt>
      <trkpt lat="45.37861" lon="0.93881">
        <ele>180</ele>
        <time>2016-07-04T09:01:04Z</time>
      </trkpt>
      <trkpt lat="45.37861" lon="0.93889">
        <ele>180</ele>
        <time>2016-07-04T09:01:09Z</time>
      </trkpt>
      <trkpt lat="45.37861" lon="0.93897">
        <ele>180</ele>
        <time>2016-07-04T09:01:14Z</time>
      </trkpt>
      <trkpt lat="45.3786" lon="0.93906">
        <ele>181</ele>
        <time>2016-07-04T09:01:18Z</time>
      </trkpt>
      <trkpt lat="45.37857" lon="0.93911">
        <ele>182</ele>
        <time>2016-07-04T09:01:22Z</time>
      </trkpt>
      <trkpt lat="45.37854" lon="0.93915">
        <ele>181</ele>
        <time>2016-07-04T09:01:26Z</time>
      </trkpt>
      <trkpt lat="45.37851" lon="0.93925">
        <ele>179</ele>
        <time>2016-07-04T09:01:31Z</time>
      </trkpt>
      <trkpt lat="45.37849" lon="0.93932">
        <ele>179</ele>
        <time>2016-07-04T09:01:35Z</time>
      </trkpt>
      <trkpt lat="45.37848" lon="0.93937">
        <ele>180</ele>
        <time>2016-07-04T09:01:39Z</time>
      </trkpt>
      <trkpt lat="45.37847" lon="0.93944">
        <ele>180</ele>
        <time>2016-07-04T09:01:44Z</time>
      </trkpt>
      <trkpt lat="45.37845" lon="0.93949">
        <ele>183</ele>
        <time>2016-07-04T09:01:48Z</time>
      </trkpt>
      <trkpt lat="45.3784" lon="0.9396">
        <ele>183</ele>
        <time>2016-07-04T09:01:52Z</time>
      </trkpt>
      <trkpt lat="45.3784" lon="0.93971">
        <ele>180</ele>
        <time>2016-07-04T09:01:56Z</time>
      </trkpt>
      <trkpt lat="45.37842" lon="0.93976">
        <ele>178</ele>
        <time>2016-07-04T09:02:04Z</time>
      </trkpt>
      <trkpt lat="45.37841" lon="0.93981">
        <ele>175</ele>
        <time>2016-07-04T09:02:08Z</time>
      </trkpt>
      <trkpt lat="45.37837" lon="0.93985">
        <ele>178</ele>
        <time>2016-07-04T09:02:12Z</time>
      </trkpt>
      <trkpt lat="45.37835" lon="0.9399">
        <ele>183</ele>
        <time>2016-07-04T09:02:19Z</time>
      </trkpt>
      <trkpt lat="45.37832" lon="0.93998">
        <ele>178</ele>
        <time>2016-07-04T09:02:23Z</time>
      </trkpt>
      <trkpt lat="45.37833" lon="0.94008">
        <ele>177</ele>
        <time>2016-07-04T09:02:28Z</time>
      </trkpt>
      <trkpt lat="45.37833" lon="0.94014">
        <ele>178</ele>
        <time>2016-07-04T09:02:32Z</time>
      </trkpt>
      <trkpt lat="45.37833" lon="0.94021">
        <ele>176</ele>
        <time>2016-07-04T09:02:36Z</time>
      </trkpt>
      <trkpt lat="45.37833" lon="0.94028">
        <ele>177</ele>
        <time>2016-07-04T09:02:40Z</time>
      </trkpt>
      <trkpt lat="45.37832" lon="0.94039">
        <ele>175</ele>
        <time>2016-07-04T09:02:45Z</time>
      </trkpt>
      <trkpt lat="45.37832" lon="0.9405">
        <ele>171</ele>
        <time>2016-07-04T09:02:50Z</time>
      </trkpt>
      <trkpt lat="45.37833" lon="0.94059">
        <ele>173</ele>
        <time>2016-07-04T09:02:54Z</time>
      </trkpt>
      <trkpt lat="45.37835" lon="0.94069">
        <ele>172</ele>
        <time>2016-07-04T09:02:59Z</time>
      </trkpt>
      <trkpt lat="45.37835" lon="0.94076">
        <ele>173</ele>
        <time>2016-07-04T09:03:03Z</time>
      </trkpt>
      <trkpt lat="45.37835" lon="0.94086">
        <ele>172</ele>
        <time>2016-07-04T09:03:07Z</time>
      </trkpt>
      <trkpt lat="45.37837" lon="0.94093">
        <ele>171</ele>
        <time>2016-07-04T09:03:11Z</time>
      </trkpt>
      <trkpt lat="45.37838" lon="0.941">
        <ele>172</ele>
        <time>2016-07-04T09:03:15Z</time>
      </trkpt>
      <trkpt lat="45.37838" lon="0.94108">
        <ele>172</ele>
        <time>2016-07-04T09:03:19Z</time>
      </trkpt>
      <trkpt lat="45.37838" lon="0.94114">
        <ele>170</ele>
        <time>2016-07-04T09:03:26Z</time>
      </trkpt>
      <trkpt lat="45.37837" lon="0.94123">
        <ele>172</ele>
        <time>2016-07-04T09:03:30Z</time>
      </trkpt>
      <trkpt lat="45.37838" lon="0.94135">
        <ele>170</ele>
        <time>2016-07-04T09:03:34Z</time>
      </trkpt>
      <trkpt lat="45.37838" lon="0.94146">
        <ele>172</ele>
        <time>2016-07-04T09:03:39Z</time>
      </trkpt>
      <trkpt lat="45.37836" lon="0.94153">
        <ele>173</ele>
        <time>2016-07-04T09:03:43Z</time>
      </trkpt>
      <trkpt lat="45.37833" lon="0.9416">
        <ele>173</ele>
        <time>2016-07-04T09:03:47Z</time>
      </trkpt>
      <trkpt lat="45.37832" lon="0.94165">
        <ele>177</ele>
        <time>2016-07-04T09:03:51Z</time>
      </trkpt>
      <trkpt lat="45.37831" lon="0.94171">
        <ele>178</ele>
        <time>2016-07-04T09:03:55Z</time>
      </trkpt>
      <trkpt lat="45.37831" lon="0.94176">
        <ele>178</ele>
        <time>2016-07-04T09:04:00Z</time>
      </trkpt>
      <trkpt lat="45.37828" lon="0.94184">
        <ele>177</ele>
        <time>2016-07-04T09:04:04Z</time>
      </trkpt>
      <trkpt lat="45.37827" lon="0.94193">
        <ele>178</ele>
        <time>2016-07-04T09:04:09Z</time>
      </trkpt>
      <trkpt lat="45.37822" lon="0.94203">
        <ele>175</ele>
        <time>2016-07-04T09:04:13Z</time>
      </trkpt>
      <trkpt lat="45.37817" lon="0.9421">
        <ele>172</ele>
        <time>2016-07-04T09:04:18Z</time>
      </trkpt>
      <trkpt lat="45.37812" lon="0.94215">
        <ele>168</ele>
        <time>2016-07-04T09:04:22Z</time>
      </trkpt>
      <trkpt lat="45.37806" lon="0.94223">
        <ele>167</ele>
        <time>2016-07-04T09:04:27Z</time>
      </trkpt>
      <trkpt lat="45.37803" lon="0.94229">
        <ele>166</ele>
        <time>2016-07-04T09:04:31Z</time>
      </trkpt>
      <trkpt lat="45.37799" lon="0.94236">
        <ele>165</ele>
        <time>2016-07-04T09:04:35Z</time>
      </trkpt>
      <trkpt lat="45.37794" lon="0.94244">
        <ele>164</ele>
        <time>2016-07-04T09:04:39Z</time>
      </trkpt>
      <trkpt lat="45.37793" lon="0.94252">
        <ele>166</ele>
        <time>2016-07-04T09:04:43Z</time>
      </trkpt>
      <trkpt lat="45.37792" lon="0.94261">
        <ele>166</ele>
        <time>2016-07-04T09:04:47Z</time>
      </trkpt>
      <trkpt lat="45.37788" lon="0.94267">
        <ele>167</ele>
        <time>2016-07-04T09:04:51Z</time>
      </trkpt>
      <trkpt lat="45.37786" lon="0.9427">
        <ele>165</ele>
        <time>2016-07-04T09:04:55Z</time>
      </trkpt>
      <trkpt lat="45.37784" lon="0.94275">
        <ele>162</ele>
        <time>2016-07-04T09:05:01Z</time>
      </trkpt>
      <trkpt lat="45.37784" lon="0.9428">
        <ele>161</ele>
        <time>2016-07-04T09:05:06Z</time>
      </trkpt>
      <trkpt lat="45.37783" lon="0.94291">
        <ele>162</ele>
        <time>2016-07-04T09:05:11Z</time>
      </trkpt>
      <trkpt lat="45.3778" lon="0.94299">
        <ele>160</ele>
        <time>2016-07-04T09:05:15Z</time>
      </trkpt>
      <trkpt lat="45.37778" lon="0.94305">
        <ele>161</ele>
        <time>2016-07-04T09:05:19Z</time>
      </trkpt>
      <trkpt lat="45.37776" lon="0.94314">
        <ele>163</ele>
        <time>2016-07-04T09:05:24Z</time>
      </trkpt>
      <trkpt lat="45.37773" lon="0.94325">
        <ele>161</ele>
        <time>2016-07-04T09:05:28Z</time>
      </trkpt>
      <trkpt lat="45.3777" lon="0.94332">
        <ele>162</ele>
        <time>2016-07-04T09:05:33Z</time>
      </trkpt>
      <trkpt lat="45.37767" lon="0.9434">
        <ele>162</ele>
        <time>2016-07-04T09:05:38Z</time>
      </trkpt>
      <trkpt lat="45.37764" lon="0.94347">
        <ele>162</ele>
        <time>2016-07-04T09:05:42Z</time>
      </trkpt>
      <trkpt lat="45.37762" lon="0.94354">
        <ele>163</ele>
        <time>2016-07-04T09:05:46Z</time>
      </trkpt>
      <trkpt lat="45.37758" lon="0.9436">
        <ele>162</ele>
        <time>2016-07-04T09:05:50Z</time>
      </trkpt>
      <trkpt lat="45.37755" lon="0.94364">
        <ele>163</ele>
        <time>2016-07-04T09:05:54Z</time>
      </trkpt>
      <trkpt lat="45.3775" lon="0.94373">
        <ele>162</ele>
        <time>2016-07-04T09:05:59Z</time>
      </trkpt>
      <trkpt lat="45.37746" lon="0.9438">
        <ele>162</ele>
        <time>2016-07-04T09:06:03Z</time>
      </trkpt>
      <trkpt lat="45.3774" lon="0.94385">
        <ele>162</ele>
        <time>2016-07-04T09:06:08Z</time>
      </trkpt>
      <trkpt lat="45.37736" lon="0.9439">
        <ele>162</ele>
        <time>2016-07-04T09:06:12Z</time>
      </trkpt>
      <trkpt lat="45.37731" lon="0.94396">
        <ele>162</ele>
        <time>2016-07-04T09:06:17Z</time>
      </trkpt>
      <trkpt lat="45.37724" lon="0.94403">
        <ele>159</ele>
        <time>2016-07-04T09:06:22Z</time>
      </trkpt>
      <trkpt lat="45.37719" lon="0.94408">
        <ele>161</ele>
        <time>2016-07-04T09:06:26Z</time>
      </trkpt>
      <trkpt lat="45.37713" lon="0.94413">
        <ele>160</ele>
        <time>2016-07-04T09:06:30Z</time>
      </trkpt>
      <trkpt lat="45.37708" lon="0.94419">
        <ele>157</ele>
        <time>2016-07-04T09:06:34Z</time>
      </trkpt>
      <trkpt lat="45.37704" lon="0.94426">
        <ele>157</ele>
        <time>2016-07-04T09:06:38Z</time>
      </trkpt>
      <trkpt lat="45.37699" lon="0.94432">
        <ele>158</ele>
        <time>2016-07-04T09:06:42Z</time>
      </trkpt>
      <trkpt lat="45.37694" lon="0.94437">
        <ele>159</ele>
        <time>2016-07-04T09:06:47Z</time>
      </trkpt>
      <trkpt lat="45.37687" lon="0.94443">
        <ele>159</ele>
        <time>2016-07-04T09:06:52Z</time>
      </trkpt>
      <trkpt lat="45.37684" lon="0.94448">
        <ele>160</ele>
        <time>2016-07-04T09:06:56Z</time>
      </trkpt>
      <trkpt lat="45.37679" lon="0.94452">
        <ele>160</ele>
        <time>2016-07-04T09:07:01Z</time>
      </trkpt>
      <trkpt lat="45.37677" lon="0.94456">
        <ele>160</ele>
        <time>2016-07-04T09:07:05Z</time>
      </trkpt>
      <trkpt lat="45.37674" lon="0.94461">
        <ele>161</ele>
        <time>2016-07-04T09:07:10Z</time>
      </trkpt>
      <trkpt lat="45.37672" lon="0.94464">
        <ele>161</ele>
        <time>2016-07-04T09:07:16Z</time>
      </trkpt>
      <trkpt lat="45.37669" lon="0.9447">
        <ele>160</ele>
        <time>2016-07-04T09:07:20Z</time>
      </trkpt>
      <trkpt lat="45.37663" lon="0.94478">
        <ele>158</ele>
        <time>2016-07-04T09:07:25Z</time>
      </trkpt>
      <trkpt lat="45.37656" lon="0.94486">
        <ele>156</ele>
        <time>2016-07-04T09:07:29Z</time>
      </trkpt>
      <trkpt lat="45.37647" lon="0.94494">
        <ele>153</ele>
        <time>2016-07-04T09:07:34Z</time>
      </trkpt>
      <trkpt lat="45.37642" lon="0.94498">
        <ele>155</ele>
        <time>2016-07-04T09:07:39Z</time>
      </trkpt>
      <trkpt lat="45.37637" lon="0.94505">
        <ele>155</ele>
        <time>2016-07-04T09:07:44Z</time>
      </trkpt>
      <trkpt lat="45.37634" lon="0.94507">
        <ele>155</ele>
        <time>2016-07-04T09:07:48Z</time>
      </trkpt>
      <trkpt lat="45.37631" lon="0.94514">
        <ele>156</ele>
        <time>2016-07-04T09:07:52Z</time>
      </trkpt>
      <trkpt lat="45.37625" lon="0.94521">
        <ele>156</ele>
        <time>2016-07-04T09:07:56Z</time>
      </trkpt>
      <trkpt lat="45.37622" lon="0.94527">
        <ele>156</ele>
        <time>2016-07-04T09:08:01Z</time>
      </trkpt>
      <trkpt lat="45.37617" lon="0.9453">
        <ele>156</ele>
        <time>2016-07-04T09:08:05Z</time>
      </trkpt>
      <trkpt lat="45.37614" lon="0.94533">
        <ele>156</ele>
        <time>2016-07-04T09:08:09Z</time>
      </trkpt>
      <trkpt lat="45.37604" lon="0.9454">
        <ele>156</ele>
        <time>2016-07-04T09:08:14Z</time>
      </trkpt>
      <trkpt lat="45.37598" lon="0.94545">
        <ele>159</ele>
        <time>2016-07-04T09:08:19Z</time>
      </trkpt>
      <trkpt lat="45.37596" lon="0.94548">
        <ele>159</ele>
        <time>2016-07-04T09:08:25Z</time>
      </trkpt>
      <trkpt lat="45.37593" lon="0.94556">
        <ele>159</ele>
        <time>2016-07-04T09:08:29Z</time>
      </trkpt>
      <trkpt lat="45.37586" lon="0.94561">
        <ele>155</ele>
        <time>2016-07-04T09:08:34Z</time>
      </trkpt>
      <trkpt lat="45.3758" lon="0.94567">
        <ele>157</ele>
        <time>2016-07-04T09:08:38Z</time>
      </trkpt>
      <trkpt lat="45.37573" lon="0.94572">
        <ele>157</ele>
        <time>2016-07-04T09:08:42Z</time>
      </trkpt>
      <trkpt lat="45.37565" lon="0.94579">
        <ele>157</ele>
        <time>2016-07-04T09:08:46Z</time>
      </trkpt>
      <trkpt lat="45.37556" lon="0.94587">
        <ele>155</ele>
        <time>2016-07-04T09:08:51Z</time>
      </trkpt>
      <trkpt lat="45.3755" lon="0.94592">
        <ele>156</ele>
        <time>2016-07-04T09:08:55Z</time>
      </trkpt>
      <trkpt lat="45.37549" lon="0.94605">
        <ele>156</ele>
        <time>2016-07-04T09:09:00Z</time>
      </trkpt>
      <trkpt lat="45.3755" lon="0.94613">
        <ele>156</ele>
        <time>2016-07-04T09:09:04Z</time>
      </trkpt>
      <trkpt lat="45.37552" lon="0.94627">
        <ele>151</ele>
        <time>2016-07-04T09:09:09Z</time>
      </trkpt>
      <trkpt lat="45.37553" lon="0.94636">
        <ele>150</ele>
        <time>2016-07-04T09:09:13Z</time>
      </trkpt>
      <trkpt lat="45.37555" lon="0.94645">
        <ele>149</ele>
        <time>2016-07-04T09:09:18Z</time>
      </trkpt>
      <trkpt lat="45.37558" lon="0.94651">
        <ele>148</ele>
        <time>2016-07-04T09:09:22Z</time>
      </trkpt>
      <trkpt lat="45.3756" lon="0.94659">
        <ele>148</ele>
        <time>2016-07-04T09:09:27Z</time>
      </trkpt>
      <trkpt lat="45.37563" lon="0.94665">
        <ele>148</ele>
        <time>2016-07-04T09:09:31Z</time>
      </trkpt>
      <trkpt lat="45.37566" lon="0.94674">
        <ele>148</ele>
        <time>2016-07-04T09:09:36Z</time>
      </trkpt>
      <trkpt lat="45.37568" lon="0.94685">
        <ele>147</ele>
        <time>2016-07-04T09:09:41Z</time>
      </trkpt>
      <trkpt lat="45.3757" lon="0.94691">
        <ele>147</ele>
        <time>2016-07-04T09:09:45Z</time>
      </trkpt>
      <trkpt lat="45.37572" lon="0.947">
        <ele>148</ele>
        <time>2016-07-04T09:09:49Z</time>
      </trkpt>
      <trkpt lat="45.37574" lon="0.94708">
        <ele>147</ele>
        <time>2016-07-04T09:09:53Z</time>
      </trkpt>
      <trkpt lat="45.37576" lon="0.94717">
        <ele>146</ele>
        <time>2016-07-04T09:09:57Z</time>
      </trkpt>
      <trkpt lat="45.37577" lon="0.94728">
        <ele>145</ele>
        <time>2016-07-04T09:10:02Z</time>
      </trkpt>
      <trkpt lat="45.3758" lon="0.94736">
        <ele>144</ele>
        <time>2016-07-04T09:10:07Z</time>
      </trkpt>
      <trkpt lat="45.37583" lon="0.94746">
        <ele>145</ele>
        <time>2016-07-04T09:10:12Z</time>
      </trkpt>
      <trkpt lat="45.37587" lon="0.94756">
        <ele>143</ele>
        <time>2016-07-04T09:10:17Z</time>
      </trkpt>
      <trkpt lat="45.3759" lon="0.94763">
        <ele>144</ele>
        <time>2016-07-04T09:10:21Z</time>
      </trkpt>
      <trkpt lat="45.37593" lon="0.94768">
        <ele>145</ele>
        <time>2016-07-04T09:10:25Z</time>
      </trkpt>
      <trkpt lat="45.37597" lon="0.94774">
        <ele>147</ele>
        <time>2016-07-04T09:10:30Z</time>
      </trkpt>
      <trkpt lat="45.37599" lon="0.94778">
        <ele>156</ele>
        <time>2016-07-04T09:10:37Z</time>
      </trkpt>
      <trkpt lat="45.37603" lon="0.94787">
        <ele>157</ele>
        <time>2016-07-04T09:10:42Z</time>
      </trkpt>
      <trkpt lat="45.37606" lon="0.94798">
        <ele>155</ele>
        <time>2016-07-04T09:10:46Z</time>
      </trkpt>
      <trkpt lat="45.37611" lon="0.94808">
        <ele>151</ele>
        <time>2016-07-04T09:10:51Z</time>
      </trkpt>
      <trkpt lat="45.37609" lon="0.94814">
        <ele>150</ele>
        <time>2016-07-04T09:10:57Z</time>
      </trkpt>
      <trkpt lat="45.37608" lon="0.9482">
        <ele>145</ele>
        <time>2016-07-04T09:12:31Z</time>
      </trkpt>
      <trkpt lat="45.37606" lon="0.9482">
        <ele>144</ele>
        <time>2016-07-04T09:13:06Z</time>
      </trkpt>
      <trkpt lat="45.37606" lon="0.9482">
        <ele>144</ele>
        <time>2016-07-04T09:13:07Z</time>
      </trkpt>
      <trkpt lat="45.37637" lon="0.94832">
        <ele>141</ele>
        <time>2016-07-04T09:18:59Z</time>
      </trkpt>
      <trkpt lat="45.37645" lon="0.94841">
        <ele>145</ele>
        <time>2016-07-04T09:19:03Z</time>
      </trkpt>
      <trkpt lat="45.37652" lon="0.94846">
        <ele>148</ele>
        <time>2016-07-04T09:19:08Z</time>
      </trkpt>
      <trkpt lat="45.37657" lon="0.94847">
        <ele>147</ele>
        <time>2016-07-04T09:19:13Z</time>
      </trkpt>
      <trkpt lat="45.37661" lon="0.94851">
        <ele>148</ele>
        <time>2016-07-04T09:19:17Z</time>
      </trkpt>
      <trkpt lat="45.37665" lon="0.94856">
        <ele>147</ele>
        <time>2016-07-04T09:19:21Z</time>
      </trkpt>
      <trkpt lat="45.37671" lon="0.94857">
        <ele>144</ele>
        <time>2016-07-04T09:19:25Z</time>
      </trkpt>
      <trkpt lat="45.37673" lon="0.94864">
        <ele>144</ele>
        <time>2016-07-04T09:19:29Z</time>
      </trkpt>
      <trkpt lat="45.37675" lon="0.9487">
        <ele>144</ele>
        <time>2016-07-04T09:19:33Z</time>
      </trkpt>
      <trkpt lat="45.37675" lon="0.9487">
        <ele>144</ele>
        <time>2016-07-04T09:19:34Z</time>
      </trkpt>
    </trkseg>
  </trk>
</gpx>